Provisional Data: West Creek near Weber City, PA


Please select a monitoring station.
Please select start date.
Please select start date.

Toggle Unit: C/F Toggle Unit: C/F
Sample Time Temperature (C) Temperature (F) Specific Conductivity (mS/cm) pH   Turbidity (NTU+) DO (mg/L)
8/9/2021 12:00:00 AM 22.81 73.058 0.101 7.17 2.56 7.99
8/9/2021 12:15:00 AM 22.72 72.896 0.101 7.16 2.56 8
8/9/2021 12:30:00 AM 22.64 72.752 0.101 7.16 2.58 8.02
8/9/2021 12:45:00 AM 22.56 72.608 0.101 7.16 2.52 8.04
8/9/2021 1:00:00 AM 22.5 72.5 0.101 7.16 2.93 8.05
8/9/2021 1:15:00 AM 22.44 72.392 0.101 7.16 2.59 8.07
8/9/2021 1:30:00 AM 22.39 72.302 0.101 7.16 2.63 8.08
8/9/2021 1:45:00 AM 22.34 72.212 0.102 7.16 2.66 8.09
8/9/2021 2:00:00 AM 22.28 72.104 0.102 7.16 2.63 8.11
8/9/2021 2:15:00 AM 22.23 72.014 0.102 7.16 2.57 8.12
8/9/2021 2:30:00 AM 22.18 71.924 0.102 7.16 2.57 8.13
8/9/2021 2:45:00 AM 22.13 71.834 0.102 7.16 2.66 8.14
8/9/2021 3:00:00 AM 22.08 71.744 0.102 7.16 2.68 8.16
8/9/2021 3:15:00 AM 22.03 71.654 0.102 7.17 2.54 8.17
8/9/2021 3:30:00 AM 21.99 71.582 0.103 7.16 2.47 8.18
8/9/2021 3:45:00 AM 21.94 71.492 0.103 7.17 2.59 8.19
8/9/2021 4:00:00 AM 21.9 71.42 0.103 7.16 2.64 8.2
8/9/2021 4:15:00 AM 21.85 71.33 0.103 7.17 2.73 8.21
8/9/2021 4:30:00 AM 21.81 71.258 0.103 7.16 2.69 8.22
8/9/2021 4:45:00 AM 21.77 71.186 0.103 7.16 2.51 8.23
8/9/2021 5:00:00 AM 21.72 71.096 0.103 7.16 2.7 8.24
8/9/2021 5:15:00 AM 21.68 71.024 0.103 7.16 2.6 8.26
8/9/2021 5:30:00 AM 21.63 70.934 0.103 7.16 2.84 8.26
8/9/2021 5:45:00 AM 21.59 70.862 0.104 7.16 2.79 8.28
8/9/2021 6:00:00 AM 21.54 70.772 0.104 7.16 2.78 8.28
8/9/2021 6:15:00 AM 21.5 70.7 0.104 7.16 2.66 8.3
8/9/2021 6:30:00 AM 21.46 70.628 0.104 7.17 2.53 8.31
8/9/2021 6:45:00 AM 21.41 70.538 0.104 7.17 2.48 8.33
8/9/2021 7:00:00 AM 21.38 70.484 0.104 7.17 2.56 8.36
8/9/2021 7:15:00 AM 21.34 70.412 0.104 7.18 2.47 8.41
8/9/2021 7:30:00 AM 21.32 70.376 0.104 7.19 2.41 8.49
8/9/2021 7:45:00 AM 21.31 70.358 0.104 7.21 2.54 8.57
8/9/2021 8:00:00 AM 21.3 70.34 0.104 7.22 2.52 8.66
8/9/2021 8:15:00 AM 21.31 70.358 0.104 7.24 2.58 8.78
8/9/2021 8:30:00 AM 21.33 70.394 0.103 7.26 2.52 8.91
8/9/2021 8:45:00 AM 21.36 70.448 0.103 7.28 2.54 9.03
8/9/2021 9:00:00 AM 21.4 70.52 0.103 7.31 2.77 9.14
8/9/2021 9:15:00 AM 21.5 70.7 0.103 7.34 2.53 9.25
8/9/2021 9:30:00 AM 21.6 70.88 0.103 7.37 2.53 9.34
8/9/2021 9:45:00 AM 21.66 70.988 0.103 7.4 2.53 9.41
8/9/2021 10:00:00 AM 21.83 71.294 0.102 7.43 2.48 9.51
8/9/2021 10:15:00 AM 21.97 71.546 0.102 7.46 2.47 9.55
8/9/2021 10:30:00 AM 22.09 71.762 0.102 7.49 2.57 9.59
8/9/2021 10:45:00 AM 22.2 71.96 0.102 7.52 2.56 9.61
8/9/2021 11:00:00 AM 22.34 72.212 0.101 7.54 2.6 9.62
8/9/2021 11:15:00 AM 22.53 72.554 0.101 7.56 2.47 9.61
8/9/2021 11:30:00 AM 22.73 72.914 0.101 7.57 2.48 9.59
8/9/2021 11:45:00 AM 22.89 73.202 0.101 7.59 2.46 9.56
8/9/2021 12:00:00 PM 23.09 73.562 0.101 7.6 2.39 9.55
8/9/2021 12:15:00 PM 23.33 73.994 0.1 7.63 2.43 9.54
8/9/2021 12:30:00 PM 23.41 74.138 0.1 7.63 2.38 9.49
8/9/2021 12:45:00 PM 23.63 74.534 0.1 7.65 2.43 9.48
8/9/2021 1:00:00 PM 23.88 74.984 0.1 7.67 2.44 9.46
8/9/2021 1:15:00 PM 24.07 75.326 0.099 7.68 2.49 9.41
8/9/2021 1:30:00 PM 24.24 75.632 0.099 7.69 2.41 9.37
8/9/2021 1:45:00 PM 24.48 76.064 0.099 7.71 2.44 9.35
8/9/2021 2:00:00 PM 24.83 76.694 0.099 7.72 2.29 9.32
8/9/2021 2:15:00 PM 25.16 77.288 0.099 7.74 2.32 9.27
8/9/2021 2:30:00 PM 25.36 77.648 0.099 7.75 2.41 9.21
8/9/2021 2:45:00 PM 25.47 77.846 0.099 7.75 2.31 9.16
8/9/2021 3:00:00 PM 25.76 78.368 0.099 7.76 2.34 9.13
8/9/2021 3:15:00 PM 25.85 78.53 0.099 7.76 2.27 9.09
8/9/2021 3:30:00 PM 26.01 78.818 0.099 7.76 2.26 9.05
8/9/2021 3:45:00 PM 26.14 79.052 0.099 7.77 2.23 8.99
8/9/2021 4:00:00 PM 26.15 79.07 0.099 7.75 2.29 8.94
8/9/2021 4:15:00 PM 26.19 79.142 0.099 7.75 2.26 8.9
8/9/2021 4:30:00 PM 26.15 79.07 0.099 7.74 2.31 8.85
8/9/2021 4:45:00 PM 26.16 79.088 0.098 7.72 2.33 8.82
8/9/2021 5:00:00 PM 26.18 79.124 0.098 7.72 2.32 8.81
8/9/2021 5:15:00 PM 26.2 79.16 0.098 7.71 2.25 8.78
8/9/2021 5:30:00 PM 26.19 79.142 0.098 7.7 2.38 8.73
8/9/2021 5:45:00 PM 26.13 79.034 0.098 7.67 2.28 8.68
8/9/2021 6:00:00 PM 26.03 78.854 0.098 7.64 2.27 8.62
8/9/2021 6:15:00 PM 25.93 78.674 0.099 7.6 2.37 8.55
8/9/2021 6:30:00 PM 25.86 78.548 0.099 7.55 2.31 8.47
8/9/2021 6:45:00 PM 25.77 78.386 0.099 7.51 2.36 8.38
8/9/2021 7:00:00 PM 25.7 78.26 0.099 7.47 2.3 8.3
8/9/2021 7:15:00 PM 25.64 78.152 0.099 7.43 2.52 8.23
8/9/2021 7:30:00 PM 25.57 78.026 0.099 7.4 2.44 8.14
8/9/2021 7:45:00 PM 25.5 77.9 0.099 7.36 2.4 8.04
8/9/2021 8:00:00 PM 25.42 77.756 0.1 7.33 2.39 7.94
8/9/2021 8:15:00 PM 25.34 77.612 0.1 7.3 2.4 7.84
8/9/2021 8:30:00 PM 25.26 77.468 0.1 7.27 2.49 7.76
8/9/2021 8:45:00 PM 25.18 77.324 0.1 7.25 2.56 7.71
8/9/2021 9:00:00 PM 25.1 77.18 0.101 7.23 2.62 7.66
8/9/2021 9:15:00 PM 25.01 77.018 0.101 7.21 2.6 7.63
8/9/2021 9:30:00 PM 24.92 76.856 0.101 7.2 2.62 7.63
8/9/2021 9:45:00 PM 24.82 76.676 0.101 7.19 2.59 7.63
8/9/2021 10:00:00 PM 24.72 76.496 0.101 7.19 2.59 7.63
8/9/2021 10:15:00 PM 24.61 76.298 0.102 7.18 2.52 7.64
8/9/2021 10:30:00 PM 24.51 76.118 0.102 7.18 2.56 7.65
8/9/2021 10:45:00 PM 24.4 75.92 0.102 7.17 2.99 7.64
8/9/2021 11:00:00 PM 24.3 75.74 0.102 7.17 2.58 7.67
8/9/2021 11:15:00 PM 24.19 75.542 0.102 7.17 2.45 7.69
8/9/2021 11:30:00 PM 24.08 75.344 0.103 7.16 2.46 7.7
8/9/2021 11:45:00 PM 23.97 75.146 0.103 7.16 2.62 7.72
8/10/2021 12:00:00 AM 23.87 74.966 0.103 7.16 2.44 7.74
8/10/2021 12:15:00 AM 23.77 74.786 0.103 7.15 2.53 7.76
8/10/2021 12:30:00 AM 23.68 74.624 0.103 7.15 2.63 7.78
8/10/2021 12:45:00 AM 23.6 74.48 0.103 7.15 2.54 7.79
8/10/2021 1:00:00 AM 23.53 74.354 0.103 7.15 2.42 7.81
8/10/2021 1:15:00 AM 23.45 74.21 0.104 7.15 2.5 7.83
8/10/2021 1:30:00 AM 23.37 74.066 0.104 7.15 2.5 7.84
8/10/2021 1:45:00 AM 23.29 73.922 0.104 7.15 2.69 7.86
8/10/2021 2:00:00 AM 23.22 73.796 0.104 7.15 2.52 7.88
8/10/2021 2:15:00 AM 23.15 73.67 0.104 7.15 2.54 7.89
8/10/2021 2:30:00 AM 23.09 73.562 0.104 7.14 2.51 7.91
8/10/2021 2:45:00 AM 23.03 73.454 0.104 7.15 2.54 7.92
8/10/2021 3:00:00 AM 22.96 73.328 0.104 7.14 2.58 7.94
8/10/2021 3:15:00 AM 22.9 73.22 0.104 7.14 2.63 7.95
8/10/2021 3:30:00 AM 22.83 73.094 0.104 7.14 2.63 7.97
8/10/2021 3:45:00 AM 22.77 72.986 0.105 7.14 2.52 7.98
8/10/2021 4:00:00 AM 22.72 72.896 0.105 7.14 2.62 7.99
8/10/2021 4:15:00 AM 22.67 72.806 0.105 7.14 2.56 8.01
8/10/2021 4:30:00 AM 22.61 72.698 0.104 7.14 2.99 8.02
8/10/2021 4:45:00 AM 22.56 72.608 0.104 7.13 2.92 8.02
8/10/2021 5:00:00 AM 22.51 72.518 0.104 7.13 2.69 8.02
8/10/2021 5:15:00 AM 22.46 72.42799 0.104 7.13 2.82 8.02
8/10/2021 5:30:00 AM 22.41 72.338 0.104 7.13 2.72 8.03
8/10/2021 5:45:00 AM 22.35 72.23 0.105 7.13 2.73 8.05
8/10/2021 6:00:00 AM 22.28 72.104 0.105 7.13 2.84 8.06
8/10/2021 6:15:00 AM 22.23 72.014 0.105 7.13 2.68 8.08
8/10/2021 6:30:00 AM 22.17 71.906 0.105 7.13 2.6 8.1
8/10/2021 6:45:00 AM 22.13 71.834 0.105 7.13 2.68 8.14
8/10/2021 7:00:00 AM 22.09 71.762 0.105 7.14 2.52 8.2
8/10/2021 7:15:00 AM 22.07 71.726 0.105 7.15 2.61 8.27
8/10/2021 7:30:00 AM 22.05 71.69 0.105 7.17 2.66 8.33
8/10/2021 7:45:00 AM 22.04 71.672 0.105 7.17 2.63 8.38
8/10/2021 8:00:00 AM 22.03 71.654 0.105 7.19 2.59 8.44
8/10/2021 8:15:00 AM 22.04 71.672 0.105 7.2 2.49 8.54
8/10/2021 8:30:00 AM 22.09 71.762 0.105 7.22 2.54 8.68
8/10/2021 8:45:00 AM 22.14 71.852 0.104 7.25 2.54 8.81
8/10/2021 9:00:00 AM 22.22 71.996 0.104 7.28 2.41 8.94
8/10/2021 9:15:00 AM 22.31 72.158 0.104 7.3 2.44 9.03
8/10/2021 9:30:00 AM 22.32 72.176 0.104 7.32 2.41 9.05
8/10/2021 9:45:00 AM 22.36 72.248 0.104 7.34 2.55 9.07
8/10/2021 10:00:00 AM 22.37 72.266 0.104 7.34 2.5 9.06
8/10/2021 10:15:00 AM 22.37 72.266 0.104 7.35 2.42 9.01
8/10/2021 10:30:00 AM 22.39 72.302 0.104 7.35 2.4 9.01
8/10/2021 10:45:00 AM 22.43 72.374 0.103 7.36 2.43 9.08
8/10/2021 11:00:00 AM 22.57 72.626 0.103 7.4 2.35 9.21
8/10/2021 11:15:00 AM 22.78 73.004 0.103 7.44 2.47 9.33
8/10/2021 11:30:00 AM 22.94 73.292 0.102 7.48 2.51 9.36
8/10/2021 11:45:00 AM 23.02 73.436 0.102 7.5 2.53 9.35
8/10/2021 12:00:00 PM 23.08 73.544 0.102 7.51 2.55 9.33
8/10/2021 12:15:00 PM 23.15 73.67 0.102 7.52 2.6 9.33
8/10/2021 12:30:00 PM 23.21 73.778 0.102 7.52 2.47 9.27
8/10/2021 12:45:00 PM 23.25 73.85 0.102 7.5 2.39 9.19
8/10/2021 1:00:00 PM 23.23 73.814 0.101 7.49 2.42 9.12
8/10/2021 1:15:00 PM 23.22 73.796 0.101 7.47 2.36 9.07
8/10/2021 1:30:00 PM 23.2 73.76 0.101 7.45 2.48 8.97
8/10/2021 1:45:00 PM 23.19 73.742 0.1 7.42 2.77 8.87
8/10/2021 2:00:00 PM 23.21 73.778 0.099 7.4 2.65 8.88
8/10/2021 2:15:00 PM 23.27 73.886 0.099 7.4 2.73 8.96
8/10/2021 2:30:00 PM 23.42 74.156 0.099 7.43 2.65 9.06
8/10/2021 2:45:00 PM 23.72 74.696 0.099 7.48 2.72 9.17
8/10/2021 3:00:00 PM 24.02 75.236 0.099 7.53 2.62 9.22
8/10/2021 3:15:00 PM 24.26 75.668 0.099 7.55 3.43 9.17
8/10/2021 3:30:00 PM 24.25 75.65 0.099 7.54 4.37 9.06
8/10/2021 3:45:00 PM 24.27 75.686 0.099 7.54 4.33 9.05
8/10/2021 4:00:00 PM 24.41 75.938 0.099 7.55 3.53 9.08
8/10/2021 4:15:00 PM 24.5 76.1 0.098 7.56 3.28 9.07
8/10/2021 4:30:00 PM 24.48 76.064 0.098 7.55 2.93 9.03
8/10/2021 4:45:00 PM 24.44 75.992 0.098 7.55 2.74 9.03
8/10/2021 5:00:00 PM 24.43 75.974 0.098 7.54 2.7 8.98
8/10/2021 5:15:00 PM 24.43 75.974 0.098 7.52 2.65 8.88
8/10/2021 5:30:00 PM 24.42 75.956 0.098 7.49 2.65 8.79
8/10/2021 5:45:00 PM 24.42 75.956 0.098 7.47 2.46 8.74
8/10/2021 6:00:00 PM 24.42 75.956 0.098 7.43 2.47 8.62
8/10/2021 6:15:00 PM 24.42 75.956 0.098 7.4 2.54 8.51
8/10/2021 6:30:00 PM 24.43 75.974 0.099 7.38 2.44 8.47
8/10/2021 6:45:00 PM 24.44 75.992 0.099 7.37 2.46 8.46
8/10/2021 7:00:00 PM 24.44 75.992 0.099 7.37 2.58 8.42
8/10/2021 7:15:00 PM 24.41 75.938 0.099 7.36 2.48 8.36
8/10/2021 7:30:00 PM 24.36 75.848 0.099 7.33 2.42 8.27
8/10/2021 7:45:00 PM 24.31 75.758 0.099 7.3 2.46 8.17
8/10/2021 8:00:00 PM 24.26 75.668 0.1 7.28 2.54 8.08
8/10/2021 8:15:00 PM 24.19 75.542 0.1 7.26 2.56 8.01
8/10/2021 8:30:00 PM 24.13 75.434 0.1 7.25 2.61 7.96
8/10/2021 8:45:00 PM 24.07 75.326 0.1 7.23 2.69 7.91
8/10/2021 9:00:00 PM 24.01 75.218 0.1 7.22 2.86 7.87
8/10/2021 9:15:00 PM 23.94 75.092 0.101 7.21 3.5 7.85
8/10/2021 9:30:00 PM 23.87 74.966 0.101 7.2 2.78 7.84
8/10/2021 9:45:00 PM 23.79 74.82201 0.101 7.2 2.76 7.85
8/10/2021 10:00:00 PM 23.73 74.714 0.101 7.19 2.9 7.85
8/10/2021 10:15:00 PM 23.66 74.588 0.101 7.18 2.79 7.85
8/10/2021 10:30:00 PM 23.59 74.462 0.101 7.18 2.82 7.84
8/10/2021 10:45:00 PM 23.51 74.318 0.101 7.18 3.04 7.86
8/10/2021 11:00:00 PM 23.44 74.192 0.101 7.17 2.8 7.87
8/10/2021 11:15:00 PM 23.37 74.066 0.101 7.17 2.94 7.86
8/10/2021 11:30:00 PM 23.31 73.958 0.101 7.16 2.84 7.88
8/10/2021 11:45:00 PM 23.24 73.832 0.102 7.17 3.05 7.9
8/11/2021 12:00:00 AM 23.17 73.706 0.102 7.17 2.92 7.92
8/11/2021 12:15:00 AM 23.11 73.598 0.102 7.17 3.13 7.93
8/11/2021 12:30:00 AM 23.05 73.49 0.102 7.17 2.95 7.94
8/11/2021 12:45:00 AM 22.99 73.382 0.102 7.16 3.21 7.95
8/11/2021 1:00:00 AM 22.93 73.274 0.102 7.16 3.11 7.96
8/11/2021 1:15:00 AM 22.87 73.166 0.102 7.16 2.93 7.98
8/11/2021 1:30:00 AM 22.81 73.058 0.102 7.16 3.05 7.99
8/11/2021 1:45:00 AM 22.75 72.95 0.102 7.16 3.1 8.01
8/11/2021 2:00:00 AM 22.69 72.842 0.102 7.16 2.99 8.02
8/11/2021 2:15:00 AM 22.64 72.752 0.102 7.16 3.07 8.04
8/11/2021 2:30:00 AM 22.58 72.644 0.102 7.16 2.96 8.05
8/11/2021 2:45:00 AM 22.53 72.554 0.102 7.16 3.07 8.06
8/11/2021 3:00:00 AM 22.48 72.464 0.102 7.16 2.96 8.07
8/11/2021 3:15:00 AM 22.44 72.392 0.102 7.16 2.86 8.08
8/11/2021 3:30:00 AM 22.39 72.302 0.102 7.16 2.94 8.09
8/11/2021 3:45:00 AM 22.35 72.23 0.102 7.16 3.02 8.1
8/11/2021 4:00:00 AM 22.31 72.158 0.102 7.16 2.98 8.1
8/11/2021 4:15:00 AM 22.27 72.086 0.102 7.16 2.72 8.12
8/11/2021 4:30:00 AM 22.23 72.014 0.102 7.16 2.8 8.12
8/11/2021 4:45:00 AM 22.2 71.96 0.102 7.16 2.59 8.14
8/11/2021 5:00:00 AM 22.17 71.906 0.102 7.16 2.84 8.15
8/11/2021 5:15:00 AM 22.13 71.834 0.103 7.16 2.71 8.16
8/11/2021 5:30:00 AM 22.1 71.78 0.103 7.16 2.55 8.17
8/11/2021 5:45:00 AM 22.07 71.726 0.103 7.16 2.81 8.18
8/11/2021 6:00:00 AM 22.04 71.672 0.103 7.16 2.88 8.18
8/11/2021 6:15:00 AM 22.01 71.618 0.103 7.16 2.73 8.2
8/11/2021 6:30:00 AM 21.98 71.564 0.103 7.16 2.88 8.21
8/11/2021 6:45:00 AM 21.96 71.528 0.103 7.17 2.67 8.24
8/11/2021 7:00:00 AM 21.94 71.492 0.103 7.17 2.82 8.28
8/11/2021 7:15:00 AM 21.93 71.474 0.103 7.18 2.68 8.32
8/11/2021 7:30:00 AM 21.91 71.438 0.103 7.19 2.7 8.37
8/11/2021 7:45:00 AM 21.9 71.42 0.103 7.19 2.85 8.41
8/11/2021 8:00:00 AM 21.89 71.402 0.103 7.2 2.71 8.43
8/11/2021 8:15:00 AM 21.87 71.366 0.103 7.2 2.54 8.44
8/11/2021 8:30:00 AM 21.86 71.348 0.103 7.2 2.68 8.47
8/11/2021 8:45:00 AM 21.86 71.348 0.103 7.21 2.63 8.52
8/11/2021 9:00:00 AM 21.87 71.366 0.103 7.23 2.58 8.6
8/11/2021 9:15:00 AM 21.9 71.42 0.103 7.25 2.64 8.72
8/11/2021 9:30:00 AM 21.99 71.582 0.102 7.27 2.65 8.87
8/11/2021 9:45:00 AM 22.02 71.636 0.102 7.29 2.62 8.9
8/11/2021 10:00:00 AM 22.02 71.636 0.102 7.29 2.62 8.87
8/11/2021 10:15:00 AM 22.01 71.618 0.102 7.29 2.63 8.85
8/11/2021 10:30:00 AM 22.03 71.654 0.102 7.29 2.61 8.88
8/11/2021 10:45:00 AM 22.05 71.69 0.102 7.3 2.59 8.92
8/11/2021 11:00:00 AM 22.13 71.834 0.101 7.32 2.64 9.03
8/11/2021 11:15:00 AM 22.19 71.942 0.101 7.35 2.51 9.08
8/11/2021 11:30:00 AM 22.25 72.05 0.101 7.36 2.62 9.09
8/11/2021 11:45:00 AM 22.26 72.068 0.101 7.36 2.55 9.06
8/11/2021 12:00:00 PM 22.38 72.284 0.101 7.39 2.45 9.15
8/11/2021 12:15:00 PM 22.64 72.752 0.1 7.43 2.4 9.26
8/11/2021 12:30:00 PM 22.91 73.238 0.1 7.48 2.42 9.35
8/11/2021 12:45:00 PM 23.1 73.58 0.1 7.52 2.6 9.37
8/11/2021 1:00:00 PM 23.34 74.012 0.1 7.55 2.45 9.38
8/11/2021 1:15:00 PM 23.59 74.462 0.099 7.57 2.47 9.38
8/11/2021 1:30:00 PM 23.87 74.966 0.099 7.59 2.43 9.34
8/11/2021 1:45:00 PM 24.1 75.38 0.099 7.6 2.54 9.31
8/11/2021 2:00:00 PM 24.33 75.794 0.099 7.63 2.41 9.3
8/11/2021 2:15:00 PM 24.59 76.262 0.099 7.65 2.36 9.27
8/11/2021 2:30:00 PM 24.79 76.622 0.099 7.67 2.86 9.25
8/11/2021 2:45:00 PM 25 77 0.098 7.69 2.33 9.22
8/11/2021 3:00:00 PM 25.16 77.288 0.098 7.7 2.49 9.17
8/11/2021 3:15:00 PM 25.28 77.504 0.098 7.69 2.36 9.08
8/11/2021 3:30:00 PM 25.21 77.378 0.098 7.66 2.35 8.97
8/11/2021 3:45:00 PM 25.18 77.324 0.098 7.65 2.39 8.94
8/11/2021 4:00:00 PM 25.23 77.414 0.098 7.66 2.36 8.95
8/11/2021 4:15:00 PM 25.32 77.576 0.098 7.68 2.33 8.93
8/11/2021 4:30:00 PM 25.34 77.612 0.098 7.67 2.29 8.89
8/11/2021 4:45:00 PM 25.33 77.594 0.098 7.67 2.17 8.85
8/11/2021 5:00:00 PM 25.32 77.576 0.097 7.65 2.34 8.78
8/11/2021 5:15:00 PM 25.32 77.576 0.097 7.64 2.37 8.76
8/11/2021 5:30:00 PM 25.31 77.558 0.097 7.62 2.41 8.71
8/11/2021 5:45:00 PM 25.29 77.522 0.097 7.59 2.29 8.64
8/11/2021 6:00:00 PM 25.24 77.432 0.097 7.56 2.21 8.55
8/11/2021 6:15:00 PM 25.18 77.324 0.098 7.51 2.31 8.45
8/11/2021 6:30:00 PM 25.12 77.216 0.098 7.47 2.37 8.37
8/11/2021 6:45:00 PM 25.05 77.09 0.098 7.44 2.3 8.29
8/11/2021 7:00:00 PM 24.97 76.946 0.098 7.4 2.28 8.19
8/11/2021 7:15:00 PM 24.88 76.784 0.098 7.37 2.32 8.09
8/11/2021 7:30:00 PM 24.79 76.622 0.098 7.34 2.35 8.03
8/11/2021 7:45:00 PM 24.7 76.46 0.098 7.32 2.27 7.98
8/11/2021 8:00:00 PM 24.61 76.298 0.099 7.29 2.28 7.93
8/11/2021 8:15:00 PM 24.51 76.118 0.099 7.27 2.42 7.88
8/11/2021 8:30:00 PM 24.42 75.956 0.099 7.26 2.46 7.86
8/11/2021 8:45:00 PM 24.32 75.776 0.099 7.24 2.77 7.83
8/11/2021 9:00:00 PM 24.23 75.614 0.099 7.23 2.76 7.82
8/11/2021 9:15:00 PM 24.13 75.434 0.099 7.22 2.72 7.82
8/11/2021 9:30:00 PM 24.04 75.272 0.099 7.22 2.7 7.82
8/11/2021 9:45:00 PM 23.94 75.092 0.1 7.21 2.53 7.83
8/11/2021 10:00:00 PM 23.84 74.912 0.1 7.2 2.48 7.85
8/11/2021 10:15:00 PM 23.74 74.732 0.1 7.2 2.52 7.85
8/11/2021 10:30:00 PM 23.64 74.552 0.1 7.2 2.48 7.87
8/11/2021 10:45:00 PM 23.54 74.372 0.1 7.19 2.45 7.87
8/11/2021 11:00:00 PM 23.45 74.21 0.1 7.19 2.58 7.89
8/11/2021 11:15:00 PM 23.38 74.084 0.101 7.19 2.47 7.91
8/11/2021 11:30:00 PM 23.3 73.94 0.101 7.19 2.54 7.92
8/11/2021 11:45:00 PM 23.24 73.832 0.101 7.19 2.53 7.93
8/12/2021 12:00:00 AM 23.17 73.706 0.101 7.18 2.48 7.94
8/12/2021 12:15:00 AM 23.1 73.58 0.101 7.18 2.52 7.96
8/12/2021 12:30:00 AM 23.03 73.454 0.101 7.17 2.7 7.97
8/12/2021 12:45:00 AM 22.95 73.31 0.101 7.17 2.47 7.99
8/12/2021 1:00:00 AM 22.88 73.184 0.101 7.17 2.53 8.01
8/12/2021 1:15:00 AM 22.8 73.04 0.101 7.17 2.43 8.02
8/12/2021 1:30:00 AM 22.72 72.896 0.101 7.17 2.58 8.04
8/12/2021 1:45:00 AM 22.65 72.77 0.101 7.17 2.6 8.05
8/12/2021 2:00:00 AM 22.58 72.644 0.101 7.17 2.6 8.06
8/12/2021 2:15:00 AM 22.51 72.518 0.101 7.17 2.48 8.08
8/12/2021 2:30:00 AM 22.44 72.392 0.102 7.17 2.66 8.09
8/12/2021 2:45:00 AM 22.39 72.302 0.101 7.17 2.52 8.11
8/12/2021 3:00:00 AM 22.34 72.212 0.102 7.17 2.45 8.12
8/12/2021 3:15:00 AM 22.29 72.122 0.102 7.17 2.42 8.13
8/12/2021 3:30:00 AM 22.24 72.032 0.102 7.17 2.34 8.14
8/12/2021 3:45:00 AM 22.19 71.942 0.102 7.17 2.41 8.15
8/12/2021 4:00:00 AM 22.13 71.834 0.102 7.16 2.39 8.16
8/12/2021 4:15:00 AM 22.06 71.708 0.102 7.16 2.58 8.17
8/12/2021 4:30:00 AM 22 71.6 0.102 7.16 2.33 8.19
8/12/2021 4:45:00 AM 21.95 71.51 0.102 7.16 2.38 8.2
8/12/2021 5:00:00 AM 21.89 71.402 0.102 7.16 2.46 8.21
8/12/2021 5:15:00 AM 21.82 71.276 0.102 7.15 2.38 8.23
8/12/2021 5:30:00 AM 21.77 71.186 0.102 7.16 2.44 8.24
8/12/2021 5:45:00 AM 21.71 71.078 0.102 7.15 2.43 8.25
8/12/2021 6:00:00 AM 21.67 71.006 0.102 7.16 2.52 8.26
8/12/2021 6:15:00 AM 21.62 70.916 0.102 7.15 2.69 8.27
8/12/2021 6:30:00 AM 21.58 70.844 0.102 7.15 2.53 8.29
8/12/2021 6:45:00 AM 21.53 70.754 0.103 7.16 2.59 8.32
8/12/2021 7:00:00 AM 21.5 70.7 0.103 7.17 2.54 8.38
8/12/2021 7:15:00 AM 21.47 70.646 0.103 7.18 2.44 8.44
8/12/2021 7:30:00 AM 21.45 70.61 0.102 7.19 2.34 8.52
8/12/2021 7:45:00 AM 21.44 70.592 0.102 7.2 2.42 8.61
8/12/2021 8:00:00 AM 21.45 70.61 0.102 7.22 2.38 8.7
8/12/2021 8:15:00 AM 21.47 70.646 0.102 7.24 2.59 8.8
8/12/2021 8:30:00 AM 21.5 70.7 0.102 7.25 2.41 8.88
8/12/2021 8:45:00 AM 21.58 70.844 0.102 7.28 2.33 8.96
8/12/2021 9:00:00 AM 21.68 71.024 0.102 7.3 2.31 9.04
8/12/2021 9:15:00 AM 21.76 71.168 0.102 7.32 2.37 9.1
8/12/2021 9:30:00 AM 21.78 71.204 0.102 7.33 2.27 9.11
8/12/2021 9:45:00 AM 21.81 71.258 0.101 7.34 2.32 9.09
8/12/2021 10:00:00 AM 21.84 71.312 0.101 7.34 2.35 9.08
8/12/2021 10:15:00 AM 21.93 71.474 0.101 7.35 2.32 9.14
8/12/2021 10:30:00 AM 22.05 71.69 0.101 7.38 2.31 9.23
8/12/2021 10:45:00 AM 22.14 71.852 0.101 7.41 2.4 9.21
8/12/2021 11:00:00 AM 22.22 71.996 0.101 7.41 2.6 9.2
8/12/2021 11:15:00 AM 22.32 72.176 0.1 7.43 2.27 9.26
8/12/2021 11:30:00 AM 22.51 72.518 0.1 7.46 2.37 9.32
8/12/2021 11:45:00 AM 22.69 72.842 0.1 7.5 2.39 9.36
8/12/2021 12:00:00 PM 22.94 73.292 0.099 7.53 2.34 9.4
8/12/2021 12:15:00 PM 23.02 73.436 0.098 7.54 2.64 9.23
8/12/2021 12:30:00 PM 23.03 73.454 0.097 7.45 3.84 9.04
8/12/2021 12:45:00 PM 23.15 73.67 0.095 7.43 3.04 9.08
8/12/2021 1:00:00 PM 23.38 74.084 0.095 7.46 3.02 9.17
8/12/2021 1:15:00 PM 23.66 74.588 0.095 7.48 4 9.2
8/12/2021 1:30:00 PM 23.91 75.038 0.096 7.5 4.22 9.21
8/12/2021 1:45:00 PM 24.23 75.614 0.096 7.52 5.96 9.19
8/12/2021 2:00:00 PM 24.39 75.902 0.095 7.54 6.72 9.14
8/12/2021 2:15:00 PM 24.63 76.334 0.095 7.56 5.78 9.14
8/12/2021 2:30:00 PM 24.84 76.712 0.095 7.57 4.47 9.12
8/12/2021 2:45:00 PM 25.02 77.036 0.095 7.58 3.68 9.06
8/12/2021 3:00:00 PM 25.24 77.432 0.095 7.59 3.18 9.04
8/12/2021 3:15:00 PM 25.37 77.666 0.095 7.6 2.99 9.01
8/12/2021 3:30:00 PM 25.49 77.882 0.094 7.6 3 8.95
8/12/2021 3:45:00 PM 25.42 77.756 0.095 7.59 2.75 8.86
8/12/2021 4:00:00 PM 25.37 77.666 0.095 7.57 2.8 8.8
8/12/2021 4:15:00 PM 25.38 77.684 0.095 7.56 2.76 8.76
8/12/2021 4:30:00 PM 25.43 77.774 0.095 7.55 2.79 8.74
8/12/2021 4:45:00 PM 25.49 77.882 0.095 7.56 2.72 8.73
8/12/2021 5:00:00 PM 25.6 78.08 0.095 7.56 2.8 8.73
8/12/2021 5:15:00 PM 25.72 78.296 0.095 7.57 2.78 8.72
8/12/2021 5:30:00 PM 25.8 78.44 0.094 7.56 2.76 8.67
8/12/2021 5:45:00 PM 25.82 78.476 0.095 7.54 2.61 8.57
8/12/2021 6:00:00 PM 25.72 78.296 0.095 7.48 2.63 8.41
8/12/2021 6:15:00 PM 25.6 78.08 0.095 7.43 2.63 8.25
8/12/2021 6:30:00 PM 25.49 77.882 0.095 7.38 4.02 8.09
8/12/2021 6:45:00 PM 25.39 77.702 0.096 7.33 2.68 7.96
8/12/2021 7:00:00 PM 25.32 77.576 0.096 7.3 2.5 7.89
8/12/2021 7:15:00 PM 25.25 77.45 0.096 7.28 2.65 7.85
8/12/2021 7:30:00 PM 25.18 77.324 0.096 7.26 2.61 7.82
8/12/2021 7:45:00 PM 25.11 77.198 0.097 7.24 2.68 7.78
8/12/2021 8:00:00 PM 25.05 77.09 0.097 7.23 2.85 7.74
8/12/2021 8:15:00 PM 24.98 76.964 0.097 7.22 3.25 7.72
8/12/2021 8:30:00 PM 24.91 76.838 0.097 7.22 3.37 7.7
8/12/2021 8:45:00 PM 24.81 76.658 0.097 7.22 3.64 7.71
8/12/2021 9:00:00 PM 24.7 76.46 0.097 7.21 3.95 7.71
8/12/2021 9:15:00 PM 24.58 76.244 0.097 7.21 4.07 7.72
8/12/2021 9:30:00 PM 24.46 76.028 0.097 7.2 3.99 7.73
8/12/2021 9:45:00 PM 24.34 75.812 0.097 7.19 4.07 7.74
8/12/2021 10:00:00 PM 24.23 75.614 0.098 7.19 4.15 7.74
8/12/2021 10:15:00 PM 24.13 75.434 0.098 7.18 3.95 7.75
8/12/2021 10:30:00 PM 24.04 75.272 0.098 7.18 4.07 7.76
8/12/2021 10:45:00 PM 23.94 75.092 0.098 7.18 3.91 7.78
8/12/2021 11:00:00 PM 23.84 74.912 0.098 7.18 4.64 7.8
8/12/2021 11:15:00 PM 23.74 74.732 0.098 7.18 3.83 7.82
8/12/2021 11:30:00 PM 23.64 74.552 0.098 7.18 3.51 7.84
8/12/2021 11:45:00 PM 23.55 74.39 0.098 7.18 3.67 7.85
8/13/2021 12:00:00 AM 23.47 74.246 0.099 7.18 4.2 7.88
8/13/2021 12:15:00 AM 23.38 74.084 0.099 7.18 3.55 7.9
8/13/2021 12:30:00 AM 23.3 73.94 0.099 7.17 3.29 7.92
8/13/2021 12:45:00 AM 23.23 73.814 0.099 7.17 3.18 7.94
8/13/2021 1:00:00 AM 23.15 73.67 0.099 7.17 3.08 7.95
8/13/2021 1:15:00 AM 23.08 73.544 0.099 7.17 3.17 7.97
8/13/2021 1:30:00 AM 23.02 73.436 0.099 7.17 3.14 7.98
8/13/2021 1:45:00 AM 22.95 73.31 0.099 7.17 3.06 8
8/13/2021 2:00:00 AM 22.88 73.184 0.1 7.17 3.09 8.01
8/13/2021 2:15:00 AM 22.83 73.094 0.1 7.17 3.04 8.03
8/13/2021 2:30:00 AM 22.77 72.986 0.1 7.17 3 8.04
8/13/2021 2:45:00 AM 22.71 72.878 0.1 7.17 2.96 8.06
8/13/2021 3:00:00 AM 22.65 72.77 0.1 7.17 2.85 8.07
8/13/2021 3:15:00 AM 22.59 72.662 0.1 7.17 2.93 8.08
8/13/2021 3:30:00 AM 22.54 72.57201 0.101 7.17 2.75 8.09
8/13/2021 3:45:00 AM 22.49 72.482 0.101 7.17 3.25 8.1
8/13/2021 4:00:00 AM 22.44 72.392 0.101 7.17 2.86 8.12
8/13/2021 4:15:00 AM 22.4 72.32 0.101 7.18 2.84 8.13
8/13/2021 4:30:00 AM 22.35 72.23 0.101 7.18 2.96 8.14
8/13/2021 4:45:00 AM 22.3 72.14 0.101 7.18 2.85 8.15
8/13/2021 5:00:00 AM 22.25 72.05 0.101 7.18 2.9 8.16
8/13/2021 5:15:00 AM 22.21 71.978 0.101 7.18 2.94 8.17
8/13/2021 5:30:00 AM 22.16 71.888 0.101 7.18 3.12 8.18
8/13/2021 5:45:00 AM 22.1 71.78 0.101 7.18 3.38 8.19
8/13/2021 6:00:00 AM 22.05 71.69 0.101 7.18 3.66 8.21
8/13/2021 6:15:00 AM 22 71.6 0.101 7.18 3.71 8.22
8/13/2021 6:30:00 AM 21.95 71.51 0.101 7.18 3.86 8.24
8/13/2021 6:45:00 AM 21.9 71.42 0.102 7.19 4.04 8.26
8/13/2021 7:00:00 AM 21.86 71.348 0.102 7.19 3.81 8.3
8/13/2021 7:15:00 AM 21.83 71.294 0.102 7.19 3.66 8.36
8/13/2021 7:30:00 AM 21.81 71.258 0.102 7.21 3.5 8.43
8/13/2021 7:45:00 AM 21.81 71.258 0.102 7.22 3.27 8.52
8/13/2021 8:00:00 AM 21.82 71.276 0.102 7.24 3.24 8.62
8/13/2021 8:15:00 AM 21.83 71.294 0.102 7.26 3.36 8.7
8/13/2021 8:30:00 AM 21.83 71.294 0.102 7.27 2.94 8.76
8/13/2021 8:45:00 AM 21.86 71.348 0.101 7.28 3.04 8.84
8/13/2021 9:00:00 AM 21.91 71.438 0.101 7.3 3.07 8.92
8/13/2021 9:15:00 AM 21.98 71.564 0.101 7.32 3.05 8.99
8/13/2021 9:30:00 AM 22.04 71.672 0.101 7.34 2.71 9.04
8/13/2021 9:45:00 AM 22.08 71.744 0.101 7.36 2.73 9.07
8/13/2021 10:00:00 AM 22.17 71.906 0.101 7.37 2.77 9.1
8/13/2021 10:15:00 AM 22.24 72.032 0.101 7.38 2.68 9.11
8/13/2021 10:30:00 AM 22.33 72.194 0.101 7.39 2.65 9.12
8/13/2021 10:45:00 AM 22.46 72.42799 0.101 7.41 2.64 9.15
8/13/2021 11:00:00 AM 22.53 72.554 0.1 7.42 2.65 9.18
8/13/2021 11:15:00 AM 22.56 72.608 0.1 7.44 2.6 9.21
8/13/2021 11:30:00 AM 22.67 72.806 0.1 7.47 2.54 9.27
8/13/2021 11:45:00 AM 22.8 73.04 0.099 7.49 2.55 9.3
8/13/2021 12:00:00 PM 23.05 73.49 0.099 7.52 2.47 9.35
8/13/2021 12:15:00 PM 23.11 73.598 0.099 7.53 2.5 9.27
8/13/2021 12:30:00 PM 23.12 73.616 0.099 7.5 2.56 9.12
8/13/2021 12:45:00 PM 23.11 73.598 0.099 7.47 2.48 9.05
8/13/2021 1:00:00 PM 23.31 73.958 0.099 7.48 2.61 9.12
8/13/2021 1:15:00 PM 23.62 74.516 0.099 7.53 2.82 9.21
8/13/2021 1:30:00 PM 23.95 75.11 0.099 7.56 2.65 9.24
8/13/2021 1:45:00 PM 24.24 75.632 0.098 7.6 2.37 9.23
8/13/2021 2:00:00 PM 24.37 75.866 0.099 7.59 2.35 9.12
8/13/2021 2:15:00 PM 24.48 76.064 0.099 7.6 2.38 9.07
8/13/2021 2:30:00 PM 24.62 76.316 0.099 7.61 2.45 9.09
8/13/2021 2:45:00 PM 24.69 76.442 0.099 7.6 2.43 8.99
8/13/2021 3:00:00 PM 24.74 76.532 0.099 7.58 2.46 8.92
8/13/2021 3:15:00 PM 24.9 76.82 0.098 7.59 2.8 8.97
8/13/2021 3:30:00 PM 25.07 77.126 0.098 7.6 2.54 8.95
8/13/2021 3:45:00 PM 25.26 77.468 0.098 7.62 2.35 8.95
8/13/2021 4:00:00 PM 25.39 77.702 0.098 7.64 2.36 8.96
8/13/2021 4:15:00 PM 25.61 78.098 0.098 7.66 2.48 8.94
8/13/2021 4:30:00 PM 25.64 78.152 0.098 7.67 2.35 8.92
8/13/2021 4:45:00 PM 25.61 78.098 0.098 7.67 2.44 8.89
8/13/2021 5:00:00 PM 25.72 78.296 0.098 7.66 2.42 8.85
8/13/2021 5:15:00 PM 25.78 78.404 0.098 7.65 2.6 8.8
8/13/2021 5:30:00 PM 25.8 78.44 0.098 7.63 2.46 8.71
8/13/2021 5:45:00 PM 25.78 78.404 0.098 7.6 2.37 8.64
8/13/2021 6:00:00 PM 25.79 78.422 0.098 7.57 2.4 8.57
8/13/2021 6:15:00 PM 25.77 78.386 0.098 7.54 2.35 8.48
8/13/2021 6:30:00 PM 25.74 78.332 0.098 7.51 2.55 8.39
8/13/2021 6:45:00 PM 25.68 78.224 0.098 7.48 2.32 8.29
8/13/2021 7:00:00 PM 25.59 78.062 0.098 7.44 2.44 8.2
8/13/2021 7:15:00 PM 25.51 77.918 0.098 7.42 2.37 8.13
8/13/2021 7:30:00 PM 25.44 77.792 0.099 7.39 2.39 8.06
8/13/2021 7:45:00 PM 25.36 77.648 0.099 7.36 2.39 7.98
8/13/2021 8:00:00 PM 25.28 77.504 0.099 7.34 2.38 7.9
8/13/2021 8:15:00 PM 25.19 77.342 0.099 7.31 2.48 7.84
8/13/2021 8:30:00 PM 25.1 77.18 0.099 7.29 2.38 7.8
8/13/2021 8:45:00 PM 25.02 77.036 0.099 7.27 2.47 7.77
8/13/2021 9:00:00 PM 24.93 76.874 0.1 7.26 2.54 7.75
8/13/2021 9:15:00 PM 24.84 76.712 0.1 7.25 2.7 7.75
8/13/2021 9:30:00 PM 24.75 76.55 0.1 7.24 2.67 7.74
8/13/2021 9:45:00 PM 24.66 76.388 0.1 7.23 2.71 7.75
8/13/2021 10:00:00 PM 24.56 76.208 0.1 7.23 2.64 7.76
8/13/2021 10:15:00 PM 24.47 76.046 0.1 7.22 2.72 7.77
8/13/2021 10:30:00 PM 24.38 75.884 0.101 7.22 2.74 7.78
8/13/2021 10:45:00 PM 24.25 75.65 0.1 7.22 2.95 7.83
8/13/2021 11:00:00 PM 24.06 75.308 0.098 7.22 3.8 7.91
8/13/2021 11:15:00 PM 23.94 75.092 0.097 7.2 3.74 7.91
8/13/2021 11:30:00 PM 23.84 74.912 0.098 7.18 3.59 7.88
8/13/2021 11:45:00 PM 23.75 74.75 0.098 7.18 4.45 7.87
8/14/2021 12:00:00 AM 23.66 74.588 0.098 7.18 5.04 7.88
8/14/2021 12:15:00 AM 23.6 74.48 0.098 7.18 6.61 7.89
8/14/2021 12:30:00 AM 23.53 74.354 0.098 7.18 6.21 7.91
8/14/2021 12:45:00 AM 23.45 74.21 0.098 7.18 4.96 7.92
8/14/2021 1:00:00 AM 23.39 74.102 0.098 7.18 4.32 7.93
8/14/2021 1:15:00 AM 23.31 73.958 0.098 7.18 4.3 7.94
8/14/2021 1:30:00 AM 23.25 73.85 0.098 7.18 4.06 7.96
8/14/2021 1:45:00 AM 23.18 73.724 0.098 7.18 3.69 7.98
8/14/2021 2:00:00 AM 23.14 73.652 0.098 7.18 3.88 7.99
8/14/2021 2:15:00 AM 23.08 73.544 0.099 7.19 3.57 8.01
8/14/2021 2:30:00 AM 23.03 73.454 0.099 7.19 3.67 8.02
8/14/2021 2:45:00 AM 22.97 73.346 0.099 7.19 3.78 8.03
8/14/2021 3:00:00 AM 22.91 73.238 0.099 7.19 4.23 8.05
8/14/2021 3:15:00 AM 22.85 73.13 0.099 7.18 4.08 8.06
8/14/2021 3:30:00 AM 22.79 73.022 0.099 7.18 3.9 8.07
8/14/2021 3:45:00 AM 22.74 72.932 0.099 7.18 3.93 8.08
8/14/2021 4:00:00 AM 22.7 72.86 0.099 7.18 3.71 8.1
8/14/2021 4:15:00 AM 22.66 72.788 0.099 7.19 3.64 8.11
8/14/2021 4:30:00 AM 22.62 72.716 0.1 7.19 3.82 8.13
8/14/2021 4:45:00 AM 22.58 72.644 0.1 7.19 3.7 8.15
8/14/2021 5:00:00 AM 22.54 72.57201 0.1 7.19 3.7 8.16
8/14/2021 5:15:00 AM 22.5 72.5 0.1 7.19 3.86 8.17
8/14/2021 5:30:00 AM 22.47 72.446 0.1 7.19 4.77 8.18
8/14/2021 5:45:00 AM 22.43 72.374 0.1 7.19 6.27 8.19
8/14/2021 6:00:00 AM 22.39 72.302 0.1 7.19 7.92 8.2
8/14/2021 6:15:00 AM 22.36 72.248 0.1 7.19 9.19 8.21
8/14/2021 6:30:00 AM 22.33 72.194 0.1 7.19 9.82 8.22
8/14/2021 6:45:00 AM 22.3 72.14 0.1 7.2 9.43 8.25
8/14/2021 7:00:00 AM 22.27 72.086 0.101 7.2 8.78 8.27
8/14/2021 7:15:00 AM 22.24 72.032 0.101 7.21 7.98 8.29
8/14/2021 7:30:00 AM 22.22 71.996 0.101 7.21 6.9 8.33
8/14/2021 7:45:00 AM 22.2 71.96 0.101 7.22 6.12 8.38
8/14/2021 8:00:00 AM 22.18 71.924 0.101 7.22 5.52 8.4
8/14/2021 8:15:00 AM 22.16 71.888 0.101 7.23 5.12 8.41
8/14/2021 8:30:00 AM 22.14 71.852 0.101 7.23 4.71 8.45
8/14/2021 8:45:00 AM 22.15 71.87 0.101 7.24 4.37 8.54
8/14/2021 9:00:00 AM 22.15 71.87 0.101 7.26 4.22 8.61
8/14/2021 9:15:00 AM 22.11 71.798 0.101 7.27 4 8.61
8/14/2021 9:30:00 AM 22.05 71.69 0.101 7.28 3.79 8.63
8/14/2021 9:45:00 AM 22.02 71.636 0.101 7.29 3.79 8.68
8/14/2021 10:00:00 AM 22.02 71.636 0.1 7.3 3.58 8.79
8/14/2021 10:15:00 AM 22.02 71.636 0.1 7.32 3.52 8.89
8/14/2021 10:30:00 AM 22.06 71.708 0.1 7.35 3.78 9.03
8/14/2021 10:45:00 AM 22.13 71.834 0.099 7.39 3.46 9.14
8/14/2021 11:00:00 AM 22.17 71.906 0.099 7.42 3.43 9.2
8/14/2021 11:15:00 AM 22.17 71.906 0.099 7.44 3.29 9.22
8/14/2021 11:30:00 AM 22.18 71.924 0.099 7.46 3.23 9.26
8/14/2021 11:45:00 AM 22.27 72.086 0.099 7.49 3.23 9.33
8/14/2021 12:00:00 PM 22.46 72.42799 0.098 7.53 3.46 9.39
8/14/2021 12:15:00 PM 22.57 72.626 0.098 7.55 3.14 9.42
8/14/2021 12:30:00 PM 22.73 72.914 0.098 7.57 3.08 9.41
8/14/2021 12:45:00 PM 22.94 73.292 0.098 7.57 2.95 9.37
8/14/2021 1:00:00 PM 23.07 73.526 0.097 7.58 3 9.34
8/14/2021 1:15:00 PM 23.23 73.814 0.097 7.59 2.95 9.35
8/14/2021 1:30:00 PM 23.37 74.066 0.097 7.62 2.97 9.37
8/14/2021 1:45:00 PM 23.55 74.39 0.097 7.65 2.98 9.35
8/14/2021 2:00:00 PM 23.74 74.732 0.097 7.65 2.96 9.32
8/14/2021 2:15:00 PM 23.94 75.092 0.097 7.65 2.9 9.26
8/14/2021 2:30:00 PM 24.16 75.488 0.097 7.67 2.94 9.24
8/14/2021 2:45:00 PM 24.41 75.938 0.096 7.69 3.2 9.2
8/14/2021 3:00:00 PM 24.64 76.352 0.096 7.7 3.57 9.14
8/14/2021 3:15:00 PM 24.77 76.586 0.097 7.68 3.57 9.06
8/14/2021 3:30:00 PM 24.82 76.676 0.097 7.65 3.71 8.99
8/14/2021 3:45:00 PM 24.79 76.622 0.097 7.63 3.39 8.92
8/14/2021 4:00:00 PM 25.01 77.018 0.097 7.65 3.38 8.93
8/14/2021 4:15:00 PM 25.22 77.396 0.097 7.67 3.17 8.91
8/14/2021 4:30:00 PM 25.31 77.558 0.097 7.67 3.17 8.88
8/14/2021 4:45:00 PM 25.39 77.702 0.097 7.67 3.3 8.83
8/14/2021 5:00:00 PM 25.46 77.828 0.097 7.66 3.29 8.79
8/14/2021 5:15:00 PM 25.45 77.81 0.097 7.65 3.23 8.73
8/14/2021 5:30:00 PM 25.44 77.792 0.097 7.63 3.48 8.66
8/14/2021 5:45:00 PM 25.4 77.72 0.097 7.61 3.23 8.59
8/14/2021 6:00:00 PM 25.33 77.594 0.097 7.59 3.17 8.54
8/14/2021 6:15:00 PM 25.24 77.432 0.097 7.56 3.23 8.47
8/14/2021 6:30:00 PM 25.1 77.18 0.097 7.52 3.34 8.37
8/14/2021 6:45:00 PM 25.01 77.018 0.097 7.49 3.05 8.33
8/14/2021 7:00:00 PM 24.9 76.82 0.097 7.47 3.19 8.28
8/14/2021 7:15:00 PM 24.78 76.604 0.098 7.44 3.14 8.23
8/14/2021 7:30:00 PM 24.66 76.388 0.098 7.42 3.14 8.18
8/14/2021 7:45:00 PM 24.53 76.154 0.098 7.4 3.19 8.15
8/14/2021 8:00:00 PM 24.41 75.938 0.098 7.38 3.08 8.11
8/14/2021 8:15:00 PM 24.28 75.704 0.098 7.36 3.25 8.07
8/14/2021 8:30:00 PM 24.14 75.452 0.098 7.35 3.05 8.04
8/14/2021 8:45:00 PM 23.98 75.164 0.099 7.33 3.37 8.03
8/14/2021 9:00:00 PM 23.82 74.876 0.099 7.32 3.25 8.03
8/14/2021 9:15:00 PM 23.64 74.552 0.099 7.31 3.34 8.05
8/14/2021 9:30:00 PM 23.47 74.246 0.099 7.3 3.36 8.05
8/14/2021 9:45:00 PM 23.29 73.922 0.099 7.29 3.22 8.08
8/14/2021 10:00:00 PM 23.13 73.634 0.099 7.29 3.22 8.1
8/14/2021 10:15:00 PM 22.97 73.346 0.1 7.28 3.17 8.13
8/14/2021 10:30:00 PM 22.81 73.058 0.1 7.27 3.22 8.15
8/14/2021 10:45:00 PM 22.66 72.788 0.1 7.27 3.13 8.17
8/14/2021 11:00:00 PM 22.52 72.536 0.1 7.26 3.32 8.2
8/14/2021 11:15:00 PM 22.38 72.284 0.1 7.26 3.19 8.22
8/14/2021 11:30:00 PM 22.25 72.05 0.1 7.25 3.19 8.25
8/14/2021 11:45:00 PM 22.12 71.816 0.1 7.25 3.19 8.26
8/15/2021 12:00:00 AM 21.99 71.582 0.1 7.24 3.22 8.29
8/15/2021 12:15:00 AM 21.87 71.366 0.1 7.24 3.14 8.32
8/15/2021 12:30:00 AM 21.74 71.132 0.1 7.24 3.22 8.34
8/15/2021 12:45:00 AM 21.61 70.898 0.1 7.24 3.21 8.36
8/15/2021 1:00:00 AM 21.48 70.664 0.1 7.23 3.13 8.39
8/15/2021 1:15:00 AM 21.36 70.448 0.1 7.23 3.09 8.42
8/15/2021 1:30:00 AM 21.25 70.25 0.1 7.23 3.14 8.45
8/15/2021 1:45:00 AM 21.15 70.07 0.1 7.23 3.1 8.46
8/15/2021 2:00:00 AM 21.05 69.89 0.1 7.23 3.08 8.49
8/15/2021 2:15:00 AM 20.98 69.764 0.1 7.23 2.95 8.51
8/15/2021 2:30:00 AM 20.89 69.602 0.1 7.23 3.11 8.52
8/15/2021 2:45:00 AM 20.81 69.458 0.101 7.23 3.3 8.54
8/15/2021 3:00:00 AM 20.72 69.296 0.101 7.23 2.99 8.56
8/15/2021 3:15:00 AM 20.64 69.152 0.101 7.23 3.09 8.58
8/15/2021 3:30:00 AM 20.56 69.008 0.101 7.23 3.31 8.59
8/15/2021 3:45:00 AM 20.48 68.864 0.101 7.23 2.88 8.61
8/15/2021 4:00:00 AM 20.4 68.72 0.101 7.23 3.05 8.63
8/15/2021 4:15:00 AM 20.33 68.594 0.101 7.22 2.94 8.65
8/15/2021 4:30:00 AM 20.26 68.468 0.101 7.22 3 8.66
8/15/2021 4:45:00 AM 20.19 68.342 0.101 7.22 2.96 8.67
8/15/2021 5:00:00 AM 20.12 68.216 0.101 7.23 2.92 8.69
8/15/2021 5:15:00 AM 20.05 68.09 0.101 7.22 2.85 8.71
8/15/2021 5:30:00 AM 19.98 67.964 0.101 7.22 3.06 8.72
8/15/2021 5:45:00 AM 19.89 67.802 0.101 7.22 2.93 8.74
8/15/2021 6:00:00 AM 19.81 67.658 0.101 7.22 2.92 8.75
8/15/2021 6:15:00 AM 19.74 67.532 0.101 7.22 3.04 8.76
8/15/2021 6:30:00 AM 19.67 67.406 0.101 7.23 3.04 8.79
8/15/2021 6:45:00 AM 19.6 67.28 0.101 7.23 2.85 8.82
8/15/2021 7:00:00 AM 19.54 67.172 0.101 7.23 2.81 8.87
8/15/2021 7:15:00 AM 19.49 67.082 0.101 7.24 2.78 8.95
8/15/2021 7:30:00 AM 19.43 66.974 0.101 7.25 2.77 9.02
8/15/2021 7:45:00 AM 19.39 66.902 0.101 7.27 2.72 9.1
8/15/2021 8:00:00 AM 19.36 66.848 0.101 7.28 2.7 9.19
8/15/2021 8:15:00 AM 19.33 66.794 0.101 7.3 2.76 9.27
8/15/2021 8:30:00 AM 19.33 66.794 0.101 7.31 2.81 9.38
8/15/2021 8:45:00 AM 19.35 66.83 0.101 7.34 2.77 9.5
8/15/2021 9:00:00 AM 19.35 66.83 0.101 7.35 2.71 9.55
8/15/2021 9:15:00 AM 19.36 66.848 0.101 7.37 2.77 9.62
8/15/2021 9:30:00 AM 19.39 66.902 0.101 7.39 2.71 9.67
8/15/2021 9:45:00 AM 19.4 66.92 0.101 7.41 2.72 9.71
8/15/2021 10:00:00 AM 19.46 67.028 0.1 7.42 2.63 9.76
8/15/2021 10:15:00 AM 19.58 67.244 0.1 7.44 2.72 9.8
8/15/2021 10:30:00 AM 19.7 67.46 0.1 7.46 2.68 9.82
8/15/2021 10:45:00 AM 19.75 67.55 0.1 7.48 2.64 9.84
8/15/2021 11:00:00 AM 19.78 67.604 0.1 7.49 2.63 9.87
8/15/2021 11:15:00 AM 19.83 67.694 0.1 7.51 2.59 9.88
8/15/2021 11:30:00 AM 19.91 67.838 0.1 7.53 2.62 9.9
8/15/2021 11:45:00 AM 19.98 67.964 0.1 7.54 2.62 9.91
8/15/2021 12:00:00 PM 20.06 68.108 0.099 7.56 2.64 9.92
8/15/2021 12:15:00 PM 20.16 68.288 0.1 7.57 2.69 9.91
8/15/2021 12:30:00 PM 20.37 68.666 0.1 7.58 2.68 9.9
8/15/2021 12:45:00 PM 20.6 69.08 0.099 7.59 2.61 9.86
8/15/2021 1:00:00 PM 20.85 69.53 0.1 7.6 2.64 9.83
8/15/2021 1:15:00 PM 21.05 69.89 0.1 7.6 2.6 9.8
8/15/2021 1:30:00 PM 21.28 70.304 0.099 7.62 2.64 9.77
8/15/2021 1:45:00 PM 21.51 70.718 0.099 7.63 2.55 9.75
8/15/2021 2:00:00 PM 21.67 71.006 0.099 7.65 2.51 9.72
8/15/2021 2:15:00 PM 21.76 71.168 0.099 7.66 2.53 9.71
8/15/2021 2:30:00 PM 21.94 71.492 0.099 7.68 2.53 9.7
8/15/2021 2:45:00 PM 22.12 71.816 0.099 7.69 2.5 9.68
8/15/2021 3:00:00 PM 22.36 72.248 0.099 7.7 2.5 9.64
8/15/2021 3:15:00 PM 22.48 72.464 0.1 7.71 2.48 9.61
8/15/2021 3:30:00 PM 22.6 72.68 0.1 7.72 2.47 9.59
8/15/2021 3:45:00 PM 22.72 72.896 0.099 7.73 2.49 9.56
8/15/2021 4:00:00 PM 22.79 73.022 0.099 7.74 2.46 9.53
8/15/2021 4:15:00 PM 22.77 72.986 0.099 7.73 2.53 9.49
8/15/2021 4:30:00 PM 22.83 73.094 0.099 7.73 2.53 9.47
8/15/2021 4:45:00 PM 22.86 73.148 0.099 7.72 2.52 9.42
8/15/2021 5:00:00 PM 22.87 73.166 0.099 7.71 2.44 9.36
8/15/2021 5:15:00 PM 22.93 73.274 0.099 7.7 2.48 9.32
8/15/2021 5:30:00 PM 23 73.4 0.1 7.68 2.49 9.27
8/15/2021 5:45:00 PM 23.06 73.508 0.1 7.66 2.53 9.2
8/15/2021 6:00:00 PM 23.03 73.454 0.1 7.63 2.5 9.12
8/15/2021 6:15:00 PM 22.99 73.382 0.1 7.6 2.49 9.06
8/15/2021 6:30:00 PM 22.98 73.364 0.1 7.58 2.5 9
8/15/2021 6:45:00 PM 22.94 73.292 0.1 7.55 2.69 8.93
8/15/2021 7:00:00 PM 22.88 73.184 0.1 7.51 2.48 8.86
8/15/2021 7:15:00 PM 22.8 73.04 0.101 7.48 2.54 8.75
8/15/2021 7:30:00 PM 22.69 72.842 0.101 7.44 2.41 8.66
8/15/2021 7:45:00 PM 22.58 72.644 0.101 7.41 2.44 8.57
8/15/2021 8:00:00 PM 22.48 72.464 0.102 7.38 2.49 8.5
8/15/2021 8:15:00 PM 22.37 72.266 0.102 7.36 2.5 8.45
8/15/2021 8:30:00 PM 22.27 72.086 0.102 7.34 2.79 8.4
8/15/2021 8:45:00 PM 22.17 71.906 0.102 7.32 2.45 8.35
8/15/2021 9:00:00 PM 22.07 71.726 0.102 7.3 2.61 8.32
8/15/2021 9:15:00 PM 21.97 71.546 0.103 7.29 2.74 8.31
8/15/2021 9:30:00 PM 21.88 71.384 0.103 7.28 2.83 8.3
8/15/2021 9:45:00 PM 21.78 71.204 0.103 7.27 2.58 8.31
8/15/2021 10:00:00 PM 21.69 71.042 0.103 7.26 2.99 8.31
8/15/2021 10:15:00 PM 21.6 70.88 0.104 7.25 2.73 8.32
8/15/2021 10:30:00 PM 21.51 70.718 0.104 7.25 2.54 8.33
8/15/2021 10:45:00 PM 21.42 70.556 0.104 7.24 2.63 8.34
8/15/2021 11:00:00 PM 21.34 70.412 0.104 7.24 2.55 8.36
8/15/2021 11:15:00 PM 21.24 70.232 0.105 7.23 2.68 8.37
8/15/2021 11:30:00 PM 21.15 70.07 0.105 7.23 2.58 8.39
8/15/2021 11:45:00 PM 21.07 69.926 0.105 7.23 2.5 8.4
8/16/2021 12:00:00 AM 20.98 69.764 0.105 7.22 2.48 8.42
8/16/2021 12:15:00 AM 20.91 69.638 0.105 7.22 2.55 8.44
8/16/2021 12:30:00 AM 20.83 69.494 0.106 7.22 2.65 8.45
8/16/2021 12:45:00 AM 20.75 69.35 0.106 7.22 2.66 8.46
8/16/2021 1:00:00 AM 20.67 69.206 0.106 7.21 2.61 8.48
8/16/2021 1:15:00 AM 20.59 69.062 0.106 7.21 2.58 8.5
8/16/2021 1:30:00 AM 20.5 68.9 0.106 7.21 2.55 8.52
8/16/2021 1:45:00 AM 20.42 68.756 0.106 7.21 2.6 8.53
8/16/2021 2:00:00 AM 20.35 68.63 0.106 7.21 2.77 8.55
8/16/2021 2:15:00 AM 20.29 68.522 0.107 7.21 2.49 8.56
8/16/2021 2:30:00 AM 20.23 68.414 0.107 7.2 2.53 8.57
8/16/2021 2:45:00 AM 20.18 68.324 0.107 7.21 2.59 8.58
8/16/2021 3:00:00 AM 20.12 68.216 0.107 7.2 2.51 8.6
8/16/2021 3:15:00 AM 20.06 68.108 0.107 7.2 2.66 8.61
8/16/2021 3:30:00 AM 20 68 0.107 7.2 2.59 8.62
8/16/2021 3:45:00 AM 19.94 67.892 0.107 7.2 2.6 8.63
8/16/2021 4:00:00 AM 19.88 67.784 0.107 7.2 2.65 8.65
8/16/2021 4:15:00 AM 19.84 67.712 0.108 7.2 2.62 8.66
8/16/2021 4:30:00 AM 19.8 67.64 0.108 7.2 2.55 8.67
8/16/2021 4:45:00 AM 19.76 67.568 0.108 7.2 2.7 8.68
8/16/2021 5:00:00 AM 19.72 67.496 0.108 7.2 2.52 8.68
8/16/2021 5:15:00 AM 19.68 67.424 0.108 7.2 2.55 8.7
8/16/2021 5:30:00 AM 19.64 67.352 0.108 7.2 2.62 8.71
8/16/2021 5:45:00 AM 19.6 67.28 0.108 7.2 2.67 8.72
8/16/2021 6:00:00 AM 19.56 67.208 0.108 7.2 2.38 8.73
8/16/2021 6:15:00 AM 19.52 67.136 0.108 7.2 2.49 8.73
8/16/2021 6:30:00 AM 19.48 67.064 0.108 7.2 2.42 8.74
8/16/2021 6:45:00 AM 19.45 67.01 0.108 7.2 2.48 8.77
8/16/2021 7:00:00 AM 19.42 66.956 0.109 7.2 2.37 8.8
8/16/2021 7:15:00 AM 19.39 66.902 0.109 7.21 2.38 8.85
8/16/2021 7:30:00 AM 19.38 66.884 0.109 7.22 2.4 8.92
8/16/2021 7:45:00 AM 19.38 66.884 0.109 7.23 2.33 9
8/16/2021 8:00:00 AM 19.39 66.902 0.109 7.24 2.59 9.09
8/16/2021 8:15:00 AM 19.41 66.938 0.108 7.26 2.29 9.18
8/16/2021 8:30:00 AM 19.43 66.974 0.108 7.27 2.37 9.26
8/16/2021 8:45:00 AM 19.46 67.028 0.108 7.29 2.33 9.33
8/16/2021 9:00:00 AM 19.51 67.118 0.108 7.3 2.39 9.41
8/16/2021 9:15:00 AM 19.57 67.226 0.108 7.32 2.26 9.5
8/16/2021 9:30:00 AM 19.67 67.406 0.108 7.35 2.43 9.59
8/16/2021 9:45:00 AM 19.77 67.586 0.108 7.38 2.37 9.66
8/16/2021 10:00:00 AM 19.86 67.748 0.108 7.4 2.27 9.72
8/16/2021 10:15:00 AM 19.95 67.91 0.108 7.42 2.49 9.75
8/16/2021 10:30:00 AM 20.01 68.018 0.108 7.43 2.22 9.74
8/16/2021 10:45:00 AM 20.07 68.126 0.108 7.45 2.33 9.73
8/16/2021 11:00:00 AM 20.16 68.288 0.108 7.46 2.31 9.77
8/16/2021 11:15:00 AM 20.23 68.414 0.107 7.48 2.34 9.79
8/16/2021 11:30:00 AM 20.37 68.666 0.107 7.51 2.41 9.82
8/16/2021 11:45:00 AM 20.48 68.864 0.107 7.53 2.46 9.84
8/16/2021 12:00:00 PM 20.59 69.062 0.107 7.55 2.38 9.85
8/16/2021 12:15:00 PM 20.64 69.152 0.107 7.56 2.42 9.83
8/16/2021 12:30:00 PM 20.72 69.296 0.106 7.57 2.32 9.83
8/16/2021 12:45:00 PM 20.8 69.44 0.106 7.58 2.39 9.82
8/16/2021 1:00:00 PM 20.9 69.62 0.106 7.6 2.39 9.83
8/16/2021 1:15:00 PM 20.99 69.782 0.106 7.61 2.33 9.81
8/16/2021 1:30:00 PM 21.05 69.89 0.106 7.61 2.31 9.74
8/16/2021 1:45:00 PM 21.07 69.926 0.106 7.61 2.39 9.71
8/16/2021 2:00:00 PM 21.09 69.962 0.106 7.6 2.26 9.67
8/16/2021 2:15:00 PM 21.09 69.962 0.106 7.58 2.27 9.6
8/16/2021 2:30:00 PM 21.12 70.016 0.106 7.57 2.25 9.55
8/16/2021 2:45:00 PM 21.14 70.052 0.106 7.56 2.2 9.53
8/16/2021 3:00:00 PM 21.19 70.142 0.106 7.57 2.25 9.55
8/16/2021 3:15:00 PM 21.23 70.214 0.106 7.58 2.19 9.55
8/16/2021 3:30:00 PM 21.28 70.304 0.106 7.58 2.22 9.53
8/16/2021 3:45:00 PM 21.32 70.376 0.106 7.58 2.25 9.52
8/16/2021 4:00:00 PM 21.35 70.43 0.106 7.58 2.4 9.5
8/16/2021 4:15:00 PM 21.37 70.466 0.106 7.57 2.27 9.44
8/16/2021 4:30:00 PM 21.39 70.502 0.106 7.56 2.22 9.4
8/16/2021 4:45:00 PM 21.39 70.502 0.106 7.54 2.3 9.35
8/16/2021 5:00:00 PM 21.39 70.502 0.106 7.51 2.28 9.29
8/16/2021 5:15:00 PM 21.39 70.502 0.106 7.5 2.29 9.24
8/16/2021 5:30:00 PM 21.39 70.502 0.106 7.48 2.22 9.21
8/16/2021 5:45:00 PM 21.38 70.484 0.106 7.46 2.37 9.15
8/16/2021 6:00:00 PM 21.36 70.448 0.107 7.44 2.21 9.05
8/16/2021 6:15:00 PM 21.32 70.376 0.107 7.41 2.25 8.94
8/16/2021 6:30:00 PM 21.28 70.304 0.107 7.38 2.21 8.84
8/16/2021 6:45:00 PM 21.25 70.25 0.107 7.36 2.23 8.78
8/16/2021 7:00:00 PM 21.22 70.196 0.108 7.34 2.22 8.76
8/16/2021 7:15:00 PM 21.2 70.16 0.108 7.33 2.22 8.73
8/16/2021 7:30:00 PM 21.17 70.106 0.108 7.32 2.3 8.68
8/16/2021 7:45:00 PM 21.15 70.07 0.108 7.3 2.17 8.63
8/16/2021 8:00:00 PM 21.12 70.016 0.108 7.29 2.26 8.58
8/16/2021 8:15:00 PM 21.08 69.944 0.108 7.28 2.34 8.53
8/16/2021 8:30:00 PM 21.05 69.89 0.108 7.27 2.34 8.49
8/16/2021 8:45:00 PM 21.02 69.836 0.109 7.26 2.47 8.47
8/16/2021 9:00:00 PM 20.99 69.782 0.109 7.25 2.59 8.46
8/16/2021 9:15:00 PM 20.96 69.728 0.109 7.24 2.45 8.46
8/16/2021 9:30:00 PM 20.93 69.674 0.109 7.23 2.47 8.44
8/16/2021 9:45:00 PM 20.91 69.638 0.109 7.23 2.59 8.45
8/16/2021 10:00:00 PM 20.88 69.584 0.109 7.22 2.45 8.45
8/16/2021 10:15:00 PM 20.85 69.53 0.109 7.22 2.45 8.45
8/16/2021 10:30:00 PM 20.83 69.494 0.109 7.22 2.51 8.44
8/16/2021 10:45:00 PM 20.8 69.44 0.109 7.21 2.5 8.45
8/16/2021 11:00:00 PM 20.77 69.386 0.11 7.21 2.51 8.45
8/16/2021 11:15:00 PM 20.75 69.35 0.11 7.2 2.43 8.45
8/16/2021 11:30:00 PM 20.73 69.314 0.11 7.2 2.61 8.45
8/16/2021 11:45:00 PM 20.7 69.26 0.11 7.2 2.48 8.46
8/17/2021 12:00:00 AM 20.67 69.206 0.109 7.2 2.61 8.47
8/17/2021 12:15:00 AM 20.65 69.17 0.109 7.18 2.97 8.46
8/17/2021 12:30:00 AM 20.63 69.134 0.109 7.18 2.74 8.46
8/17/2021 12:45:00 AM 20.61 69.098 0.109 7.18 2.66 8.46
8/17/2021 1:00:00 AM 20.59 69.062 0.11 7.18 2.5 8.46
8/17/2021 1:15:00 AM 20.57 69.026 0.11 7.18 2.6 8.47
8/17/2021 1:30:00 AM 20.55 68.99 0.11 7.18 2.63 8.49
8/17/2021 1:45:00 AM 20.52 68.936 0.109 7.18 3.45 8.51
8/17/2021 2:00:00 AM 20.5 68.9 0.108 7.17 3.09 8.5
8/17/2021 2:15:00 AM 20.48 68.864 0.108 7.16 2.95 8.49
8/17/2021 2:30:00 AM 20.46 68.828 0.108 7.16 2.83 8.48
8/17/2021 2:45:00 AM 20.44 68.792 0.108 7.16 3.15 8.49
8/17/2021 3:00:00 AM 20.42 68.756 0.108 7.16 3.27 8.49
8/17/2021 3:15:00 AM 20.41 68.738 0.109 7.16 3.05 8.5
8/17/2021 3:30:00 AM 20.39 68.702 0.108 7.16 3.7 8.5
8/17/2021 3:45:00 AM 20.38 68.684 0.108 7.15 3.54 8.5
8/17/2021 4:00:00 AM 20.37 68.666 0.108 7.15 3.34 8.5
8/17/2021 4:15:00 AM 20.35 68.63 0.108 7.15 3.5 8.5
8/17/2021 4:30:00 AM 20.34 68.612 0.109 7.15 2.98 8.51
8/17/2021 4:45:00 AM 20.33 68.594 0.109 7.15 2.99 8.51
8/17/2021 5:00:00 AM 20.32 68.576 0.109 7.15 2.84 8.52
8/17/2021 5:15:00 AM 20.31 68.558 0.109 7.15 2.7 8.52
8/17/2021 5:30:00 AM 20.3 68.54 0.109 7.15 2.86 8.52
8/17/2021 5:45:00 AM 20.29 68.522 0.109 7.14 2.84 8.53
8/17/2021 6:00:00 AM 20.28 68.504 0.109 7.14 2.88 8.53
8/17/2021 6:15:00 AM 20.27 68.486 0.109 7.14 2.82 8.53
8/17/2021 6:30:00 AM 20.27 68.486 0.109 7.14 2.8 8.54
8/17/2021 6:45:00 AM 20.26 68.468 0.11 7.14 2.75 8.55
8/17/2021 7:00:00 AM 20.25 68.45 0.109 7.14 2.71 8.57
8/17/2021 7:15:00 AM 20.25 68.45 0.109 7.15 2.62 8.6
8/17/2021 7:30:00 AM 20.26 68.468 0.109 7.15 2.69 8.66
8/17/2021 7:45:00 AM 20.27 68.486 0.11 7.17 2.68 8.72
8/17/2021 8:00:00 AM 20.29 68.522 0.11 7.17 2.59 8.78
8/17/2021 8:15:00 AM 20.31 68.558 0.11 7.19 2.59 8.84
8/17/2021 8:30:00 AM 20.33 68.594 0.11 7.2 2.57 8.92
8/17/2021 8:45:00 AM 20.36 68.648 0.11 7.21 2.54 8.98
8/17/2021 9:00:00 AM 20.41 68.738 0.11 7.23 2.54 9.08
8/17/2021 9:15:00 AM 20.47 68.846 0.109 7.25 2.53 9.18
8/17/2021 9:30:00 AM 20.54 68.972 0.109 7.27 2.59 9.26
8/17/2021 9:45:00 AM 20.61 69.098 0.109 7.29 2.44 9.33
8/17/2021 10:00:00 AM 20.68 69.224 0.109 7.31 2.4 9.38
8/17/2021 10:15:00 AM 20.76 69.368 0.109 7.33 2.47 9.45
8/17/2021 10:30:00 AM 20.84 69.512 0.109 7.35 2.47 9.49
8/17/2021 10:45:00 AM 20.92 69.656 0.109 7.37 2.6 9.52
8/17/2021 11:00:00 AM 20.96 69.728 0.109 7.38 2.57 9.49
8/17/2021 11:15:00 AM 21 69.8 0.109 7.38 2.5 9.47
8/17/2021 11:30:00 AM 21.09 69.962 0.109 7.4 2.36 9.52
8/17/2021 11:45:00 AM 21.22 70.196 0.109 7.43 2.58 9.58
8/17/2021 12:00:00 PM 21.46 70.628 0.108 7.46 2.45 9.65
8/17/2021 12:15:00 PM 21.7 71.06 0.108 7.49 2.41 9.69
8/17/2021 12:30:00 PM 21.85 71.33 0.108 7.52 2.52 9.68
8/17/2021 12:45:00 PM 21.99 71.582 0.108 7.55 2.6 9.69
8/17/2021 1:00:00 PM 22.1 71.78 0.107 7.57 2.55 9.68
8/17/2021 1:15:00 PM 22.26 72.068 0.107 7.59 2.47 9.68
8/17/2021 1:30:00 PM 22.49 72.482 0.107 7.61 2.5 9.68
8/17/2021 1:45:00 PM 22.62 72.716 0.107 7.62 2.46 9.65
8/17/2021 2:00:00 PM 22.78 73.004 0.107 7.64 2.5 9.63
8/17/2021 2:15:00 PM 22.96 73.328 0.107 7.67 2.45 9.62
8/17/2021 2:30:00 PM 23.07 73.526 0.106 7.67 2.44 9.55
8/17/2021 2:45:00 PM 23.1 73.58 0.106 7.65 2.59 9.44
8/17/2021 3:00:00 PM 23.02 73.436 0.106 7.61 2.42 9.32
8/17/2021 3:15:00 PM 22.91 73.238 0.105 7.56 2.66 9.18
8/17/2021 3:30:00 PM 22.87 73.166 0.105 7.51 2.67 9.09
8/17/2021 3:45:00 PM 22.82 73.076 0.104 7.47 2.67 8.98
8/17/2021 4:00:00 PM 22.82 73.076 0.104 7.45 2.76 8.94
8/17/2021 4:15:00 PM 22.81 73.058 0.104 7.41 2.83 8.86
8/17/2021 4:30:00 PM 22.81 73.058 0.103 7.39 3.11 8.77
8/17/2021 4:45:00 PM 22.81 73.058 0.104 7.37 3.37 8.67
8/17/2021 5:00:00 PM 22.8 73.04 0.104 7.34 3.33 8.57
8/17/2021 5:15:00 PM 22.81 73.058 0.104 7.33 3.6 8.56
8/17/2021 5:30:00 PM 22.84 73.112 0.104 7.34 4.14 8.61
8/17/2021 5:45:00 PM 22.87 73.166 0.103 7.35 4.29 8.67
8/17/2021 6:00:00 PM 22.9 73.22 0.103 7.37 4 8.73
8/17/2021 6:15:00 PM 22.92 73.256 0.103 7.38 3.55 8.75
8/17/2021 6:30:00 PM 22.92 73.256 0.103 7.38 3.51 8.73
8/17/2021 6:45:00 PM 22.88 73.184 0.103 7.37 3.23 8.65
8/17/2021 7:00:00 PM 22.83 73.094 0.103 7.35 3.28 8.54
8/17/2021 7:15:00 PM 22.78 73.004 0.104 7.32 3.26 8.45
8/17/2021 7:30:00 PM 22.74 72.932 0.104 7.31 3.33 8.4
8/17/2021 7:45:00 PM 22.7 72.86 0.104 7.3 3.28 8.38
8/17/2021 8:00:00 PM 22.67 72.806 0.105 7.3 3.22 8.34
8/17/2021 8:15:00 PM 22.64 72.752 0.105 7.28 3.46 8.31
8/17/2021 8:30:00 PM 22.6 72.68 0.105 7.27 3.37 8.27
8/17/2021 8:45:00 PM 22.55 72.59 0.105 7.26 3.53 8.24
8/17/2021 9:00:00 PM 22.51 72.518 0.105 7.25 3.8 8.23
8/17/2021 9:15:00 PM 22.46 72.42799 0.105 7.24 3.81 8.23
8/17/2021 9:30:00 PM 22.42 72.356 0.105 7.23 3.66 8.22
8/17/2021 9:45:00 PM 22.37 72.266 0.105 7.22 3.98 8.22
8/17/2021 10:00:00 PM 22.33 72.194 0.105 7.21 3.59 8.21
8/17/2021 10:15:00 PM 22.29 72.122 0.105 7.21 3.54 8.21
8/17/2021 10:30:00 PM 22.25 72.05 0.105 7.21 3.76 8.23
8/17/2021 10:45:00 PM 22.21 71.978 0.105 7.21 3.66 8.23
8/17/2021 11:00:00 PM 22.18 71.924 0.105 7.2 3.87 8.23
8/17/2021 11:15:00 PM 22.13 71.834 0.103 7.19 5.9 8.27
8/17/2021 11:30:00 PM 22.08 71.744 0.102 7.18 7.43 8.27
8/17/2021 11:45:00 PM 22.02 71.636 0.102 7.17 9.14 8.26
8/18/2021 12:00:00 AM 21.97 71.546 0.102 7.18 12.07 8.26
8/18/2021 12:15:00 AM 21.93 71.474 0.102 7.18 14.14 8.27
8/18/2021 12:30:00 AM 21.89 71.402 0.102 7.18 13.33 8.27
8/18/2021 12:45:00 AM 21.85 71.33 0.101 7.17 12.89 8.28
8/18/2021 1:00:00 AM 21.8 71.24 0.101 7.16 11.51 8.3
8/18/2021 1:15:00 AM 21.76 71.168 0.101 7.14 11.93 8.3
8/18/2021 1:30:00 AM 21.7 71.06 0.101 7.13 11.24 8.31
8/18/2021 1:45:00 AM 21.65 70.97 0.101 7.14 11.92 8.33
8/18/2021 2:00:00 AM 21.59 70.862 0.1 7.14 11.62 8.34
8/18/2021 2:15:00 AM 21.53 70.754 0.1 7.15 10.73 8.36
8/18/2021 2:30:00 AM 21.48 70.664 0.099 7.15 10.44 8.39
8/18/2021 2:45:00 AM 21.44 70.592 0.099 7.16 10.01 8.41
8/18/2021 3:00:00 AM 21.39 70.502 0.099 7.15 9.66 8.42
8/18/2021 3:15:00 AM 21.35 70.43 0.099 7.15 9.95 8.44
8/18/2021 3:30:00 AM 21.31 70.358 0.099 7.16 12.11 8.46
8/18/2021 3:45:00 AM 21.28 70.304 0.099 7.16 17.94 8.46
8/18/2021 4:00:00 AM 21.24 70.232 0.098 7.17 27.67 8.48
8/18/2021 4:15:00 AM 21.22 70.196 0.102 7.13 59.96 8.45
8/18/2021 4:30:00 AM 21.16 70.088 0.101 7.14 73.44 8.49
8/18/2021 4:45:00 AM 21.12 70.016 0.1 7.16 56.92 8.53
8/18/2021 5:00:00 AM 21.06 69.908 0.098 7.17 41.74 8.55
8/18/2021 5:15:00 AM 21 69.8 0.098 7.17 30.58 8.59
8/18/2021 5:30:00 AM 20.98 69.764 0.098 7.18 25.51 8.6
8/18/2021 5:45:00 AM 20.97 69.746 0.097 7.19 21.69 8.62
8/18/2021 6:00:00 AM 20.94 69.692 0.097 7.19 19.75 8.63
8/18/2021 6:15:00 AM 20.9 69.62 0.097 7.18 19.02 8.64
8/18/2021 6:30:00 AM 20.86 69.548 0.098 7.19 17.96 8.65
8/18/2021 6:45:00 AM 20.82 69.476 0.098 7.18 17.39 8.65
8/18/2021 7:00:00 AM 20.79 69.422 0.099 7.19 14.79 8.67
8/18/2021 7:15:00 AM 20.77 69.386 0.099 7.18 15.25 8.68
8/18/2021 7:30:00 AM 20.74 69.332 0.098 7.19 15.98 8.7
8/18/2021 7:45:00 AM 20.72 69.296 0.098 7.19 24.61 8.72
8/18/2021 8:00:00 AM 20.7 69.26 0.098 7.19 34.13 8.74
8/18/2021 8:15:00 AM 20.67 69.206 0.097 7.2 39.04 8.76
8/18/2021 8:30:00 AM 20.64 69.152 0.097 7.21 31.85 8.78
8/18/2021 8:45:00 AM 20.62 69.116 0.097 7.21 27.79 8.8
8/18/2021 9:00:00 AM 20.6 69.08 0.096 7.21 27.43 8.83
8/18/2021 9:15:00 AM 20.59 69.062 0.096 7.22 24.14 8.87
8/18/2021 9:30:00 AM 20.58 69.044 0.096 7.23 21.51 8.9
8/18/2021 9:45:00 AM 20.58 69.044 0.096 7.24 19.3 8.93
8/18/2021 10:00:00 AM 20.56 69.008 0.096 7.25 17.9 8.95
8/18/2021 10:15:00 AM 20.54 68.972 0.095 7.26 16.93 8.96
8/18/2021 10:30:00 AM 20.52 68.936 0.094 7.26 16.35 8.97
8/18/2021 10:45:00 AM 20.5 68.9 0.094 7.26 16.29 8.98
8/18/2021 11:00:00 AM 20.47 68.846 0.093 7.26 17.47 8.99
8/18/2021 11:15:00 AM 20.46 68.828 0.093 7.27 17.47 9.01
8/18/2021 11:30:00 AM 20.43 68.774 0.093 7.27 17.43 9
8/18/2021 11:45:00 AM 20.39 68.702 0.093 7.26 19.59 9
8/18/2021 12:00:00 PM 20.34 68.612 0.093 7.26 21.05 8.99
8/18/2021 12:15:00 PM 20.28 68.504 0.092 7.24 22.86 8.99
8/18/2021 12:30:00 PM 20.22 68.396 0.092 7.24 22.46 8.98
8/18/2021 12:45:00 PM 20.16 68.288 0.092 7.22 23.06 8.97
8/18/2021 1:00:00 PM 20.09 68.162 0.092 7.2 27.22 8.97
8/18/2021 1:15:00 PM 20.03 68.054 0.092 7.18 39.6 8.95
8/18/2021 1:30:00 PM 19.97 67.946 0.091 7.17 45.11 8.95
8/18/2021 1:45:00 PM 19.92 67.856 0.091 7.17 43.48 8.97
8/18/2021 2:00:00 PM 19.86 67.748 0.091 7.15 39.48 8.99
8/18/2021 2:15:00 PM 19.8 67.64 0.091 7.16 40.45 9
8/18/2021 2:30:00 PM 19.74 67.532 0.091 7.13 45.17 9
8/18/2021 2:45:00 PM 19.67 67.406 0.09 7.12 47.71 8.99
8/18/2021 3:00:00 PM 19.62 67.316 0.089 7.11 50.45 9
8/18/2021 3:15:00 PM 19.58 67.244 0.087 7.09 61.92 9
8/18/2021 3:30:00 PM 19.55 67.19 0.085 7.06 74.93 9
8/18/2021 3:45:00 PM 19.49 67.082 0.081 7.01 107.43 8.99
8/18/2021 4:00:00 PM 19.37 66.866 0.078 6.96 144.15 8.99
8/18/2021 4:15:00 PM 19.12 66.416 0.071 6.93 235.02 9.02
8/18/2021 4:30:00 PM 18.92 66.056 0.067 6.84 354.58 9.05
8/18/2021 4:45:00 PM 18.83 65.894 0.067 6.81 314.41 9.06
8/18/2021 5:00:00 PM 18.79 65.82201 0.069 6.84 221.66 9.07
8/18/2021 5:15:00 PM 18.73 65.714 0.071 6.86 174.41 9.09
8/18/2021 5:30:00 PM 18.68 65.624 0.073 6.87 140.55 9.11
8/18/2021 5:45:00 PM 18.64 65.552 0.074 6.89 116.95 9.12
8/18/2021 6:00:00 PM 18.62 65.516 0.075 6.89 103.79 9.12
8/18/2021 6:15:00 PM 18.57 65.426 0.075 6.9 95.35 9.13
8/18/2021 6:30:00 PM 18.54 65.372 0.076 6.9 90.24 9.14
8/18/2021 6:45:00 PM 18.5 65.3 0.076 6.92 90.93 9.14
8/18/2021 7:00:00 PM 18.48 65.264 0.077 6.93 89.42 9.15
8/18/2021 7:15:00 PM 18.47 65.246 0.077 6.9 84.61 9.15
8/18/2021 7:30:00 PM 18.46 65.228 0.078 6.92 80.25 9.15
8/18/2021 7:45:00 PM 18.44 65.192 0.078 6.89 78.81 9.15
8/18/2021 8:00:00 PM 18.41 65.138 0.079 6.91 75.99 9.14
8/18/2021 8:15:00 PM 18.37 65.066 0.08 6.91 74.49 9.15
8/18/2021 8:30:00 PM 18.35 65.03 0.081 6.91 72.27 9.15
8/18/2021 8:45:00 PM 18.33 64.994 0.082 6.91 71.54 9.15
8/18/2021 9:00:00 PM 18.32 64.976 0.082 6.9 71.8 9.16
8/18/2021 9:15:00 PM 18.28 64.904 0.083 6.93 71.92 9.16
8/18/2021 9:30:00 PM 18.26 64.868 0.083 6.94 87.35 9.16
8/18/2021 9:45:00 PM 18.26 64.868 0.083 6.92 72.51 9.16
8/18/2021 10:00:00 PM 18.24 64.832 0.083 6.9 69.47 9.17
8/18/2021 10:15:00 PM 18.21 64.778 0.083 6.92 68.06 9.18
8/18/2021 10:30:00 PM 18.18 64.724 0.082 6.92 66.56 9.19
8/18/2021 10:45:00 PM 18.15 64.67 0.082 6.92 64.93 9.19
8/18/2021 11:00:00 PM 18.12 64.616 0.082 6.92 61.83 9.2
8/18/2021 11:15:00 PM 18.07 64.526 0.082 6.91 59.3 9.22
8/18/2021 11:30:00 PM 18.04 64.472 0.082 6.92 57.52 9.23
8/18/2021 11:45:00 PM 18.01 64.418 0.081 6.94 56.2 9.24
8/19/2021 12:00:00 AM 17.96 64.328 0.081 6.93 53.18 9.25
8/19/2021 12:15:00 AM 17.92 64.256 0.081 6.93 50.62 9.26
8/19/2021 12:30:00 AM 17.88 64.184 0.08 6.93 48.37 9.27
8/19/2021 12:45:00 AM 17.85 64.13 0.08 6.94 46.36 9.29
8/19/2021 1:00:00 AM 17.81 64.058 0.08 6.94 45.24 9.3
8/19/2021 1:15:00 AM 17.77 63.986 0.08 6.95 42.91 9.31
8/19/2021 1:30:00 AM 17.73 63.914 0.08 6.96 42.9 9.32
8/19/2021 1:45:00 AM 17.69 63.842 0.08 6.96 52.03 9.34
8/19/2021 2:00:00 AM 17.66 63.788 0.08 6.96 38.61 9.35
8/19/2021 2:15:00 AM 17.63 63.734 0.08 6.95 36.88 9.35
8/19/2021 2:30:00 AM 17.58 63.644 0.08 6.97 36.21 9.37
8/19/2021 2:45:00 AM 17.55 63.59 0.08 6.97 34.95 9.38
8/19/2021 3:00:00 AM 17.51 63.518 0.08 6.97 33.28 9.39
8/19/2021 3:15:00 AM 17.48 63.464 0.08 6.97 32.6 9.4
8/19/2021 3:30:00 AM 17.45 63.41 0.08 6.97 31.55 9.41
8/19/2021 3:45:00 AM 17.42 63.356 0.079 6.98 30.06 9.42
8/19/2021 4:00:00 AM 17.39 63.302 0.079 6.96 29.63 9.43
8/19/2021 4:15:00 AM 17.36 63.248 0.079 6.98 28.46 9.44
8/19/2021 4:30:00 AM 17.32 63.176 0.079 6.97 27.03 9.45
8/19/2021 4:45:00 AM 17.3 63.14 0.079 6.97 25.8 9.46
8/19/2021 5:00:00 AM 17.26 63.068 0.079 6.97 26.13 9.47
8/19/2021 5:15:00 AM 17.24 63.032 0.079 6.96 24.29 9.47
8/19/2021 5:30:00 AM 17.22 62.996 0.079 6.96 23.8 9.47
8/19/2021 5:45:00 AM 17.19 62.942 0.079 6.96 23.25 9.49
8/19/2021 6:00:00 AM 17.17 62.906 0.079 6.96 21.64 9.49
8/19/2021 6:15:00 AM 17.14 62.852 0.078 6.95 22.86 9.5
8/19/2021 6:30:00 AM 17.13 62.834 0.078 6.96 21.23 9.51
8/19/2021 6:45:00 AM 17.11 62.798 0.078 6.96 21.09 9.51
8/19/2021 7:00:00 AM 17.08 62.744 0.078 6.96 20.22 9.52
8/19/2021 7:15:00 AM 17.07 62.726 0.078 6.97 20.66 9.54
8/19/2021 7:30:00 AM 17.06 62.708 0.078 6.96 19.98 9.54
8/19/2021 7:45:00 AM 17.06 62.708 0.078 6.97 19.41 9.57
8/19/2021 8:00:00 AM 17.06 62.708 0.078 6.96 19.18 9.58
8/19/2021 8:15:00 AM 17.06 62.708 0.078 6.96 18.46 9.6
8/19/2021 8:30:00 AM 17.06 62.708 0.078 6.97 18.08 9.61
8/19/2021 8:45:00 AM 17.06 62.708 0.078 6.98 17.56 9.63
8/19/2021 9:00:00 AM 17.07 62.726 0.078 6.98 16.86 9.64
8/19/2021 9:15:00 AM 17.07 62.726 0.078 6.99 16.68 9.65
8/19/2021 9:30:00 AM 17.07 62.726 0.078 7 16.41 9.66
8/19/2021 9:45:00 AM 17.1 62.78 0.078 6.99 15.87 9.69
8/19/2021 10:00:00 AM 17.1 62.78 0.078 7 15.97 9.68
8/19/2021 10:15:00 AM 17.1 62.78 0.078 7 16.07 9.7
8/19/2021 10:30:00 AM 17.13 62.834 0.078 7.01 15.43 9.72
8/19/2021 10:45:00 AM 17.19 62.942 0.078 7.01 15.1 9.75
8/19/2021 11:00:00 AM 17.23 63.014 0.078 7.03 15.6 9.77
8/19/2021 11:15:00 AM 17.27 63.086 0.078 7.03 14.94 9.78
8/19/2021 11:30:00 AM 17.4 63.32 0.077 7.04 14.44 9.81
8/19/2021 11:45:00 AM 17.51 63.518 0.077 7.06 14.43 9.83
8/19/2021 12:00:00 PM 17.56 63.608 0.077 7.07 14.29 9.83
8/19/2021 12:15:00 PM 17.64 63.752 0.077 7.08 14.49 9.83
8/19/2021 12:30:00 PM 17.71 63.878 0.077 7.09 14.09 9.85
8/19/2021 12:45:00 PM 17.81 64.058 0.077 7.09 14.1 9.85
8/19/2021 1:00:00 PM 17.88 64.184 0.077 7.1 13.88 9.84
8/19/2021 1:15:00 PM 17.9 64.22 0.077 7.1 13.59 9.82
8/19/2021 1:30:00 PM 18.09 64.562 0.077 7.1 13.4 9.82
8/19/2021 1:45:00 PM 18.22 64.796 0.077 7.11 12.98 9.81
8/19/2021 2:00:00 PM 18.32 64.976 0.077 7.13 13.16 9.82
8/19/2021 2:15:00 PM 18.38 65.084 0.077 7.12 12.92 9.79
8/19/2021 2:30:00 PM 18.52 65.336 0.077 7.14 12.48 9.79
8/19/2021 2:45:00 PM 18.56 65.408 0.077 7.15 12.41 9.78
8/19/2021 3:00:00 PM 18.63 65.534 0.077 7.14 12.01 9.8
8/19/2021 3:15:00 PM 18.77 65.786 0.077 7.16 12.01 9.79
8/19/2021 3:30:00 PM 18.87 65.966 0.077 7.17 11.91 9.77
8/19/2021 3:45:00 PM 18.97 66.146 0.077 7.17 11.67 9.75
8/19/2021 4:00:00 PM 18.98 66.164 0.077 7.17 11.62 9.71
8/19/2021 4:15:00 PM 18.97 66.146 0.077 7.17 11.8 9.69
8/19/2021 4:30:00 PM 18.96 66.128 0.077 7.18 11.45 9.68
8/19/2021 4:45:00 PM 19.02 66.236 0.076 7.18 11.3 9.69
8/19/2021 5:00:00 PM 19.07 66.326 0.076 7.18 11.36 9.68
8/19/2021 5:15:00 PM 19.08 66.344 0.076 7.19 11.04 9.65
8/19/2021 5:30:00 PM 19.08 66.344 0.076 7.18 10.86 9.61
8/19/2021 5:45:00 PM 19.04 66.272 0.076 7.17 10.7 9.57
8/19/2021 6:00:00 PM 19 66.2 0.076 7.16 10.8 9.54
8/19/2021 6:15:00 PM 18.99 66.182 0.076 7.15 10.86 9.52
8/19/2021 6:30:00 PM 18.97 66.146 0.076 7.14 10.65 9.49
8/19/2021 6:45:00 PM 18.96 66.128 0.076 7.14 10.45 9.45
8/19/2021 7:00:00 PM 18.92 66.056 0.077 7.13 10.45 9.42
8/19/2021 7:15:00 PM 18.87 65.966 0.077 7.12 10.58 9.39
8/19/2021 7:30:00 PM 18.81 65.858 0.077 7.11 10.43 9.36
8/19/2021 7:45:00 PM 18.74 65.732 0.077 7.09 10.29 9.34
8/19/2021 8:00:00 PM 18.69 65.642 0.077 7.09 10.35 9.33
8/19/2021 8:15:00 PM 18.63 65.534 0.077 7.07 10.22 9.31
8/19/2021 8:30:00 PM 18.58 65.444 0.077 7.07 10.38 9.3
8/19/2021 8:45:00 PM 18.55 65.39 0.077 7.06 11.21 9.28
8/19/2021 9:00:00 PM 18.51 65.318 0.077 7.07 10.32 9.28
8/19/2021 9:15:00 PM 18.48 65.264 0.077 7.06 10.19 9.27
8/19/2021 9:30:00 PM 18.44 65.192 0.077 7.05 9.98 9.27
8/19/2021 9:45:00 PM 18.41 65.138 0.077 7.04 10.14 9.27
8/19/2021 10:00:00 PM 18.38 65.084 0.077 7.04 9.8 9.27
8/19/2021 10:15:00 PM 18.34 65.012 0.077 7.04 10.29 9.28
8/19/2021 10:30:00 PM 18.31 64.958 0.077 7.03 9.9 9.29
8/19/2021 10:45:00 PM 18.27 64.886 0.077 7.04 9.52 9.28
8/19/2021 11:00:00 PM 18.22 64.796 0.077 7.04 9.7 9.3
8/19/2021 11:15:00 PM 18.18 64.724 0.077 7.03 9.32 9.31
8/19/2021 11:30:00 PM 18.15 64.67 0.077 7.05 9.35 9.31
8/19/2021 11:45:00 PM 18.09 64.562 0.077 7.05 9.26 9.31
8/20/2021 12:00:00 AM 18.05 64.49 0.077 7.04 9.25 9.32
8/20/2021 12:15:00 AM 18.02 64.436 0.077 7.03 9.31 9.33
8/20/2021 12:30:00 AM 17.98 64.364 0.077 7.03 8.93 9.34
8/20/2021 12:45:00 AM 17.95 64.31 0.077 7.03 9.01 9.35
8/20/2021 1:00:00 AM 17.91 64.238 0.077 7.03 9.31 9.35
8/20/2021 1:15:00 AM 17.88 64.184 0.077 7.03 8.97 9.36
8/20/2021 1:30:00 AM 17.84 64.112 0.077 7.02 8.75 9.37
8/20/2021 1:45:00 AM 17.82 64.076 0.077 7.02 8.9 9.37
8/20/2021 2:00:00 AM 17.78 64.004 0.077 7.03 8.61 9.38
8/20/2021 2:15:00 AM 17.76 63.968 0.077 7.03 9.02 9.38
8/20/2021 2:30:00 AM 17.72 63.896 0.077 7.03 8.49 9.39
8/20/2021 2:45:00 AM 17.69 63.842 0.077 7.02 9.72 9.39
8/20/2021 3:00:00 AM 17.66 63.788 0.077 7.05 8.25 9.4
8/20/2021 3:15:00 AM 17.63 63.734 0.077 7.05 8.44 9.41
8/20/2021 3:30:00 AM 17.61 63.698 0.077 7.04 8.28 9.41
8/20/2021 3:45:00 AM 17.58 63.644 0.077 7.04 8.22 9.42
8/20/2021 4:00:00 AM 17.55 63.59 0.077 7.03 8.1 9.43
8/20/2021 4:15:00 AM 17.53 63.554 0.077 7.03 8.16 9.43
8/20/2021 4:30:00 AM 17.5 63.5 0.077 7.03 7.93 9.44
8/20/2021 4:45:00 AM 17.48 63.464 0.077 7.03 7.98 9.44
8/20/2021 5:00:00 AM 17.46 63.428 0.077 7.03 8.1 9.45
8/20/2021 5:15:00 AM 17.44 63.392 0.077 7.03 7.95 9.45
8/20/2021 5:30:00 AM 17.42 63.356 0.077 7.03 7.73 9.46
8/20/2021 5:45:00 AM 17.4 63.32 0.077 7.04 7.7 9.46
8/20/2021 6:00:00 AM 17.38 63.284 0.077 7.04 7.77 9.47
8/20/2021 6:15:00 AM 17.36 63.248 0.077 7.04 7.86 9.47
8/20/2021 6:30:00 AM 17.34 63.212 0.077 7.05 7.77 9.48
8/20/2021 6:45:00 AM 17.32 63.176 0.077 7.05 7.96 9.48
8/20/2021 7:00:00 AM 17.3 63.14 0.077 7.06 7.56 9.49
8/20/2021 7:15:00 AM 17.27 63.086 0.077 7.06 7.89 9.5
8/20/2021 7:30:00 AM 17.25 63.05 0.077 7.06 7.52 9.52
8/20/2021 7:45:00 AM 17.24 63.032 0.077 7.07 7.58 9.54
8/20/2021 8:00:00 AM 17.23 63.014 0.077 7.08 7.28 9.57
8/20/2021 8:15:00 AM 17.23 63.014 0.077 7.09 7.52 9.62
8/20/2021 8:30:00 AM 17.23 63.014 0.077 7.1 7.27 9.65
8/20/2021 8:45:00 AM 17.23 63.014 0.077 7.1 7.07 9.68
8/20/2021 9:00:00 AM 17.24 63.032 0.077 7.11 7 9.73
8/20/2021 9:15:00 AM 17.26 63.068 0.077 7.12 6.74 9.79
8/20/2021 9:30:00 AM 17.28 63.104 0.077 7.14 6.62 9.83
8/20/2021 9:45:00 AM 17.3 63.14 0.077 7.15 6.53 9.86
8/20/2021 10:00:00 AM 17.32 63.176 0.077 7.15 6.58 9.88
8/20/2021 10:15:00 AM 17.37 63.266 0.077 7.16 6.25 9.91
8/20/2021 10:30:00 AM 17.43 63.374 0.077 7.17 6.34 9.91
8/20/2021 10:45:00 AM 17.5 63.5 0.077 7.17 6.46 9.91
8/20/2021 11:00:00 AM 17.56 63.608 0.077 7.19 6.02 9.93
8/20/2021 11:15:00 AM 17.66 63.788 0.077 7.2 6.1 9.96
8/20/2021 11:30:00 AM 17.79 64.022 0.077 7.21 6.11 9.97
8/20/2021 11:45:00 AM 17.93 64.274 0.077 7.22 6.02 9.97
8/20/2021 12:00:00 PM 18.06 64.508 0.077 7.23 6.11 9.97
8/20/2021 12:15:00 PM 18.2 64.76 0.077 7.25 5.99 9.99
8/20/2021 12:30:00 PM 18.26 64.868 0.077 7.25 5.82 9.98
8/20/2021 12:45:00 PM 18.36 65.048 0.077 7.26 5.79 9.96
8/20/2021 1:00:00 PM 18.56 65.408 0.077 7.27 5.93 9.95
8/20/2021 1:15:00 PM 18.67 65.606 0.077 7.28 5.98 9.94
8/20/2021 1:30:00 PM 18.65 65.57 0.077 7.29 5.65 9.92
8/20/2021 1:45:00 PM 18.72 65.696 0.077 7.3 5.64 9.91
8/20/2021 2:00:00 PM 18.99 66.182 0.077 7.31 5.6 9.9
8/20/2021 2:15:00 PM 19.26 66.668 0.077 7.32 5.77 9.87
8/20/2021 2:30:00 PM 19.44 66.992 0.077 7.33 5.54 9.83
8/20/2021 2:45:00 PM 19.63 67.334 0.077 7.33 5.6 9.8
8/20/2021 3:00:00 PM 19.85 67.73 0.077 7.34 5.48 9.77
8/20/2021 3:15:00 PM 20.05 68.09 0.077 7.35 5.54 9.73
8/20/2021 3:30:00 PM 20.26 68.468 0.077 7.35 5.57 9.71
8/20/2021 3:45:00 PM 20.4 68.72 0.077 7.36 5.46 9.7
8/20/2021 4:00:00 PM 20.46 68.828 0.077 7.37 5.38 9.66
8/20/2021 4:15:00 PM 20.51 68.918 0.077 7.36 5.26 9.63
8/20/2021 4:30:00 PM 20.57 69.026 0.077 7.36 5.54 9.6
8/20/2021 4:45:00 PM 20.69 69.242 0.077 7.37 5.24 9.59
8/20/2021 5:00:00 PM 20.78 69.404 0.077 7.37 5.35 9.56
8/20/2021 5:15:00 PM 20.77 69.386 0.077 7.37 5.33 9.54
8/20/2021 5:30:00 PM 20.76 69.368 0.077 7.36 5.47 9.5
8/20/2021 5:45:00 PM 20.77 69.386 0.077 7.36 5.33 9.48
8/20/2021 6:00:00 PM 20.72 69.296 0.077 7.35 5.19 9.45
8/20/2021 6:15:00 PM 20.69 69.242 0.077 7.34 5.3 9.41
8/20/2021 6:30:00 PM 20.67 69.206 0.077 7.33 5.19 9.37
8/20/2021 6:45:00 PM 20.63 69.134 0.077 7.31 5.52 9.3
8/20/2021 7:00:00 PM 20.59 69.062 0.077 7.29 5.23 9.23
8/20/2021 7:15:00 PM 20.55 68.99 0.077 7.26 5.26 9.18
8/20/2021 7:30:00 PM 20.5 68.9 0.077 7.24 5.3 9.13
8/20/2021 7:45:00 PM 20.46 68.828 0.078 7.23 5.44 9.07
8/20/2021 8:00:00 PM 20.42 68.756 0.078 7.22 5.36 9.02
8/20/2021 8:15:00 PM 20.37 68.666 0.078 7.21 5.3 8.99
8/20/2021 8:30:00 PM 20.31 68.558 0.078 7.19 5.59 8.96
8/20/2021 8:45:00 PM 20.24 68.432 0.078 7.18 5.62 8.94
8/20/2021 9:00:00 PM 20.17 68.306 0.078 7.18 5.51 8.93
8/20/2021 9:15:00 PM 20.1 68.18 0.078 7.17 5.68 8.92
8/20/2021 9:30:00 PM 20.03 68.054 0.078 7.16 5.66 8.92
8/20/2021 9:45:00 PM 19.97 67.946 0.078 7.16 5.57 8.92
8/20/2021 10:00:00 PM 19.92 67.856 0.078 7.15 5.52 8.93
8/20/2021 10:15:00 PM 19.87 67.766 0.078 7.14 5.79 8.93
8/20/2021 10:30:00 PM 19.82 67.676 0.078 7.14 5.71 8.94
8/20/2021 10:45:00 PM 19.77 67.586 0.078 7.13 5.42 8.94
8/20/2021 11:00:00 PM 19.73 67.514 0.078 7.13 5.35 8.95
8/20/2021 11:15:00 PM 19.68 67.424 0.079 7.13 5.72 8.95
8/20/2021 11:30:00 PM 19.63 67.334 0.079 7.13 5.37 8.96
8/20/2021 11:45:00 PM 19.59 67.262 0.079 7.12 5.67 8.96
8/21/2021 12:00:00 AM 19.54 67.172 0.079 7.12 5.63 8.97
8/21/2021 12:15:00 AM 19.5 67.1 0.079 7.12 5.7 8.98
8/21/2021 12:30:00 AM 19.45 67.01 0.079 7.11 5.5 8.99
8/21/2021 12:45:00 AM 19.41 66.938 0.079 7.12 5.48 9
8/21/2021 1:00:00 AM 19.38 66.884 0.079 7.11 5.36 9
8/21/2021 1:15:00 AM 19.34 66.812 0.079 7.11 5.61 9.01
8/21/2021 1:30:00 AM 19.3 66.74 0.079 7.11 5.55 9.02
8/21/2021 1:45:00 AM 19.26 66.668 0.079 7.11 5.35 9.03
8/21/2021 2:00:00 AM 19.22 66.596 0.079 7.11 5.46 9.04
8/21/2021 2:15:00 AM 19.18 66.524 0.079 7.11 5.34 9.04
8/21/2021 2:30:00 AM 19.14 66.452 0.079 7.11 5.22 9.05
8/21/2021 2:45:00 AM 19.11 66.398 0.079 7.1 5.2 9.06
8/21/2021 3:00:00 AM 19.07 66.326 0.079 7.11 5.2 9.07
8/21/2021 3:15:00 AM 19.03 66.254 0.079 7.11 5.21 9.07
8/21/2021 3:30:00 AM 18.99 66.182 0.079 7.11 5.12 9.08
8/21/2021 3:45:00 AM 18.95 66.11 0.079 7.11 5.09 9.09
8/21/2021 4:00:00 AM 18.92 66.056 0.079 7.11 5.21 9.1
8/21/2021 4:15:00 AM 18.88 65.984 0.079 7.11 5.11 9.11
8/21/2021 4:30:00 AM 18.84 65.912 0.079 7.11 5.09 9.12
8/21/2021 4:45:00 AM 18.8 65.84 0.079 7.11 5.14 9.12
8/21/2021 5:00:00 AM 18.77 65.786 0.08 7.11 4.93 9.13
8/21/2021 5:15:00 AM 18.74 65.732 0.08 7.1 4.95 9.14
8/21/2021 5:30:00 AM 18.7 65.66 0.08 7.1 5.1 9.14
8/21/2021 5:45:00 AM 18.67 65.606 0.08 7.1 4.99 9.16
8/21/2021 6:00:00 AM 18.64 65.552 0.08 7.1 4.98 9.16
8/21/2021 6:15:00 AM 18.61 65.498 0.08 7.1 5.12 9.17
8/21/2021 6:30:00 AM 18.58 65.444 0.08 7.09 5.13 9.17
8/21/2021 6:45:00 AM 18.55 65.39 0.08 7.1 4.87 9.18
8/21/2021 7:00:00 AM 18.52 65.336 0.08 7.1 4.96 9.2
8/21/2021 7:15:00 AM 18.5 65.3 0.08 7.1 4.92 9.22
8/21/2021 7:30:00 AM 18.48 65.264 0.08 7.1 4.82 9.24
8/21/2021 7:45:00 AM 18.48 65.264 0.08 7.11 4.95 9.28
8/21/2021 8:00:00 AM 18.47 65.246 0.08 7.12 4.74 9.32
8/21/2021 8:15:00 AM 18.46 65.228 0.08 7.13 4.7 9.38
8/21/2021 8:30:00 AM 18.47 65.246 0.08 7.14 4.61 9.43
8/21/2021 8:45:00 AM 18.48 65.264 0.079 7.15 4.55 9.49
8/21/2021 9:00:00 AM 18.52 65.336 0.079 7.17 4.65 9.57
8/21/2021 9:15:00 AM 18.61 65.498 0.079 7.19 4.49 9.65
8/21/2021 9:30:00 AM 18.62 65.516 0.079 7.21 4.55 9.68
8/21/2021 9:45:00 AM 18.68 65.624 0.079 7.23 4.34 9.72
8/21/2021 10:00:00 AM 18.71 65.67799 0.079 7.24 4.35 9.74
8/21/2021 10:15:00 AM 18.75 65.75 0.079 7.25 4.29 9.75
8/21/2021 10:30:00 AM 18.87 65.966 0.079 7.25 4.32 9.76
8/21/2021 10:45:00 AM 18.97 66.146 0.079 7.26 4.31 9.75
8/21/2021 11:00:00 AM 19.08 66.344 0.079 7.27 4.3 9.75
8/21/2021 11:15:00 AM 19.1 66.38 0.079 7.28 4.15 9.72
8/21/2021 11:30:00 AM 19.27 66.686 0.079 7.29 3.99 9.75
8/21/2021 11:45:00 AM 19.37 66.866 0.079 7.31 3.91 9.74
8/21/2021 12:00:00 PM 19.36 66.848 0.079 7.31 4.08 9.7
8/21/2021 12:15:00 PM 19.49 67.082 0.079 7.31 3.91 9.71
8/21/2021 12:30:00 PM 19.65 67.37 0.079 7.33 4.06 9.75
8/21/2021 12:45:00 PM 19.72 67.496 0.079 7.36 3.94 9.77
8/21/2021 1:00:00 PM 19.76 67.568 0.078 7.37 4.06 9.78
8/21/2021 1:15:00 PM 19.77 67.586 0.079 7.38 3.86 9.79
8/21/2021 1:30:00 PM 19.82 67.676 0.078 7.39 3.91 9.78
8/21/2021 1:45:00 PM 19.97 67.946 0.078 7.4 3.75 9.74
8/21/2021 2:00:00 PM 20.1 68.18 0.078 7.39 3.85 9.66
8/21/2021 2:15:00 PM 20.11 68.198 0.078 7.39 4.1 9.59
8/21/2021 2:30:00 PM 20.07 68.126 0.077 7.38 4.17 9.56
8/21/2021 2:45:00 PM 20.07 68.126 0.077 7.36 4.99 9.59
8/21/2021 3:00:00 PM 20.09 68.162 0.077 7.36 5.91 9.65
8/21/2021 3:15:00 PM 20.25 68.45 0.077 7.37 5.49 9.69
8/21/2021 3:30:00 PM 20.31 68.558 0.078 7.39 4.78 9.71
8/21/2021 3:45:00 PM 20.33 68.594 0.078 7.39 4.66 9.68
8/21/2021 4:00:00 PM 20.41 68.738 0.078 7.39 4.49 9.64
8/21/2021 4:15:00 PM 20.57 69.026 0.078 7.41 4.59 9.63
8/21/2021 4:30:00 PM 20.78 69.404 0.078 7.42 4.82 9.61
8/21/2021 4:45:00 PM 20.88 69.584 0.078 7.41 4.58 9.55
8/21/2021 5:00:00 PM 20.97 69.746 0.078 7.4 5.03 9.51
8/21/2021 5:15:00 PM 20.96 69.728 0.078 7.38 8.33 9.4
8/21/2021 5:30:00 PM 20.91 69.638 0.078 7.34 10.11 9.31
8/21/2021 5:45:00 PM 20.92 69.656 0.078 7.33 9.6 9.28
8/21/2021 6:00:00 PM 20.93 69.674 0.078 7.31 9.89 9.25
8/21/2021 6:15:00 PM 20.92 69.656 0.078 7.3 8.92 9.21
8/21/2021 6:30:00 PM 20.89 69.602 0.077 7.29 8.36 9.17
8/21/2021 6:45:00 PM 20.84 69.512 0.078 7.28 7.62 9.13
8/21/2021 7:00:00 PM 20.79 69.422 0.078 7.25 7.2 9.09
8/21/2021 7:15:00 PM 20.74 69.332 0.078 7.25 7.07 9.05
8/21/2021 7:30:00 PM 20.69 69.242 0.078 7.23 7.14 9.03
8/21/2021 7:45:00 PM 20.62 69.116 0.078 7.22 6.65 8.99
8/21/2021 8:00:00 PM 20.53 68.954 0.078 7.21 7 8.94
8/21/2021 8:15:00 PM 20.44 68.792 0.078 7.19 6.73 8.9
8/21/2021 8:30:00 PM 20.37 68.666 0.078 7.18 6.77 8.88
8/21/2021 8:45:00 PM 20.31 68.558 0.078 7.17 6.88 8.86
8/21/2021 9:00:00 PM 20.26 68.468 0.079 7.16 6.37 8.85
8/21/2021 9:15:00 PM 20.2 68.36 0.079 7.16 6.3 8.84
8/21/2021 9:30:00 PM 20.15 68.27 0.08 7.15 6.04 8.84
8/21/2021 9:45:00 PM 20.09 68.162 0.08 7.15 5.78 8.83
8/21/2021 10:00:00 PM 20.04 68.07201 0.081 7.14 5.69 8.84
8/21/2021 10:15:00 PM 19.98 67.964 0.081 7.14 5.63 8.85
8/21/2021 10:30:00 PM 19.93 67.874 0.082 7.14 5.44 8.85
8/21/2021 10:45:00 PM 19.87 67.766 0.082 7.14 4.97 8.86
8/21/2021 11:00:00 PM 19.81 67.658 0.082 7.14 4.98 8.87
8/21/2021 11:15:00 PM 19.75 67.55 0.082 7.14 5.19 8.88
8/21/2021 11:30:00 PM 19.7 67.46 0.082 7.14 4.76 8.89
8/21/2021 11:45:00 PM 19.65 67.37 0.083 7.14 4.87 8.9
8/22/2021 12:00:00 AM 19.61 67.298 0.082 7.14 4.85 8.91
8/22/2021 12:15:00 AM 19.57 67.226 0.083 7.13 4.82 8.92
8/22/2021 12:30:00 AM 19.53 67.154 0.083 7.14 4.86 8.93
8/22/2021 12:45:00 AM 19.51 67.118 0.083 7.13 4.69 8.93
8/22/2021 1:00:00 AM 19.49 67.082 0.083 7.13 5.31 8.93
8/22/2021 1:15:00 AM 19.48 67.064 0.083 7.15 5.69 8.94
8/22/2021 1:30:00 AM 19.45 67.01 0.083 7.15 5.78 8.96
8/22/2021 1:45:00 AM 19.42 66.956 0.083 7.15 5.95 8.96
8/22/2021 2:00:00 AM 19.39 66.902 0.083 7.14 5.76 8.97
8/22/2021 2:15:00 AM 19.37 66.866 0.083 7.14 5.49 8.98
8/22/2021 2:30:00 AM 19.35 66.83 0.082 7.14 5.54 8.99
8/22/2021 2:45:00 AM 19.32 66.776 0.082 7.14 5.66 9
8/22/2021 3:00:00 AM 19.3 66.74 0.082 7.14 5.68 9.01
8/22/2021 3:15:00 AM 19.28 66.704 0.082 7.14 5.63 9.01
8/22/2021 3:30:00 AM 19.26 66.668 0.082 7.15 5.95 9.02
8/22/2021 3:45:00 AM 19.23 66.614 0.082 7.14 5.33 9.02
8/22/2021 4:00:00 AM 19.21 66.578 0.082 7.14 6.93 9.02
8/22/2021 4:15:00 AM 19.2 66.56 0.082 7.14 5.37 9.03
8/22/2021 4:30:00 AM 19.19 66.542 0.082 7.14 4.92 9.03
8/22/2021 4:45:00 AM 19.19 66.542 0.082 7.14 4.99 9.03
8/22/2021 5:00:00 AM 19.18 66.524 0.082 7.14 4.76 9.04
8/22/2021 5:15:00 AM 19.17 66.506 0.082 7.14 4.7 9.04
8/22/2021 5:30:00 AM 19.16 66.488 0.083 7.13 4.78 9.04
8/22/2021 5:45:00 AM 19.14 66.452 0.083 7.13 4.76 9.04
8/22/2021 6:00:00 AM 19.12 66.416 0.083 7.13 4.82 9.05
8/22/2021 6:15:00 AM 19.11 66.398 0.083 7.13 4.78 9.05
8/22/2021 6:30:00 AM 19.09 66.362 0.083 7.13 4.81 9.06
8/22/2021 6:45:00 AM 19.07 66.326 0.083 7.13 4.75 9.06
8/22/2021 7:00:00 AM 19.05 66.29 0.083 7.13 4.65 9.07
8/22/2021 7:15:00 AM 19.03 66.254 0.083 7.13 4.53 9.11
8/22/2021 7:30:00 AM 19 66.2 0.083 7.14 4.45 9.13
8/22/2021 7:45:00 AM 18.98 66.164 0.083 7.15 4.47 9.16
8/22/2021 8:00:00 AM 18.96 66.128 0.083 7.15 4.81 9.2
8/22/2021 8:15:00 AM 18.95 66.11 0.083 7.17 4.28 9.24
8/22/2021 8:30:00 AM 18.94 66.092 0.083 7.18 4.11 9.3
8/22/2021 8:45:00 AM 18.94 66.092 0.083 7.19 4.21 9.37
8/22/2021 9:00:00 AM 18.94 66.092 0.083 7.21 4.07 9.43
8/22/2021 9:15:00 AM 18.98 66.164 0.083 7.22 4.07 9.53
8/22/2021 9:30:00 AM 19.05 66.29 0.082 7.25 4.18 9.63
8/22/2021 9:45:00 AM 19.05 66.29 0.082 7.27 4.38 9.67
8/22/2021 10:00:00 AM 19.06 66.308 0.082 7.28 4.29 9.7
8/22/2021 10:15:00 AM 19.11 66.398 0.081 7.3 4.38 9.75
8/22/2021 10:30:00 AM 19.14 66.452 0.08 7.31 4.72 9.78
8/22/2021 10:45:00 AM 19.21 66.578 0.08 7.33 4.64 9.81
8/22/2021 11:00:00 AM 19.25 66.65 0.079 7.34 4.89 9.83
8/22/2021 11:15:00 AM 19.38 66.884 0.078 7.35 5.27 9.84
8/22/2021 11:30:00 AM 19.48 67.064 0.077 7.36 5.42 9.84
8/22/2021 11:45:00 AM 19.57 67.226 0.077 7.38 5.49 9.85
8/22/2021 12:00:00 PM 19.73 67.514 0.076 7.38 5.99 9.86
8/22/2021 12:15:00 PM 19.85 67.73 0.076 7.4 5.89 9.86
8/22/2021 12:30:00 PM 19.95 67.91 0.075 7.41 6 9.83
8/22/2021 12:45:00 PM 20.03 68.054 0.075 7.42 5.96 9.8
8/22/2021 1:00:00 PM 20.28 68.504 0.075 7.43 6.1 9.82
8/22/2021 1:15:00 PM 20.46 68.828 0.074 7.45 6.23 9.8
8/22/2021 1:30:00 PM 20.51 68.918 0.074 7.46 5.88 9.78
8/22/2021 1:45:00 PM 20.6 69.08 0.074 7.47 6.06 9.79
8/22/2021 2:00:00 PM 20.69 69.242 0.074 7.48 5.58 9.77
8/22/2021 2:15:00 PM 20.69 69.242 0.074 7.49 5.79 9.75
8/22/2021 2:30:00 PM 20.92 69.656 0.073 7.51 5.79 9.77
8/22/2021 2:45:00 PM 20.95 69.71 0.073 7.51 5.82 9.71
8/22/2021 3:00:00 PM 21.02 69.836 0.073 7.49 5.33 9.63
8/22/2021 3:15:00 PM 21.09 69.962 0.073 7.48 5.38 9.56
8/22/2021 3:30:00 PM 21.16 70.088 0.073 7.49 4.99 9.6
8/22/2021 3:45:00 PM 21.19 70.142 0.073 7.5 4.96 9.59
8/22/2021 4:00:00 PM 21.2 70.16 0.073 7.5 4.83 9.57
8/22/2021 4:15:00 PM 21.19 70.142 0.073 7.49 4.81 9.54
8/22/2021 4:30:00 PM 21.19 70.142 0.074 7.48 4.75 9.5
8/22/2021 4:45:00 PM 21.18 70.124 0.073 7.45 4.75 9.38
8/22/2021 5:00:00 PM 21.19 70.142 0.074 7.41 4.66 9.31
8/22/2021 5:15:00 PM 21.2 70.16 0.074 7.39 4.61 9.24
8/22/2021 5:30:00 PM 21.19 70.142 0.074 7.36 4.54 9.17
8/22/2021 5:45:00 PM 21.19 70.142 0.074 7.34 5.1 9.15
8/22/2021 6:00:00 PM 21.18 70.124 0.074 7.34 4.62 9.13
8/22/2021 6:15:00 PM 21.16 70.088 0.074 7.31 4.54 9.11
8/22/2021 6:30:00 PM 21.14 70.052 0.074 7.3 4.44 9.07
8/22/2021 6:45:00 PM 21.11 69.998 0.074 7.29 4.4 9.06
8/22/2021 7:00:00 PM 21.09 69.962 0.075 7.28 4.44 9.02
8/22/2021 7:15:00 PM 21.06 69.908 0.075 7.26 4.41 8.96
8/22/2021 7:30:00 PM 21.03 69.854 0.075 7.23 4.52 8.93
8/22/2021 7:45:00 PM 21 69.8 0.075 7.22 4.41 8.89
8/22/2021 8:00:00 PM 20.96 69.728 0.075 7.2 4.39 8.84
8/22/2021 8:15:00 PM 20.92 69.656 0.075 7.19 4.55 8.8
8/22/2021 8:30:00 PM 20.88 69.584 0.075 7.18 4.55 8.78
8/22/2021 8:45:00 PM 20.83 69.494 0.075 7.17 4.62 8.76
8/22/2021 9:00:00 PM 20.78 69.404 0.075 7.16 4.61 8.74
8/22/2021 9:15:00 PM 20.73 69.314 0.075 7.15 4.93 8.74
8/22/2021 9:30:00 PM 20.68 69.224 0.075 7.14 4.68 8.73
8/22/2021 9:45:00 PM 20.63 69.134 0.076 7.14 4.69 8.73
8/22/2021 10:00:00 PM 20.58 69.044 0.076 7.14 4.57 8.73
8/22/2021 10:15:00 PM 20.52 68.936 0.076 7.13 4.84 8.73
8/22/2021 10:30:00 PM 20.47 68.846 0.076 7.13 4.73 8.74
8/22/2021 10:45:00 PM 20.42 68.756 0.076 7.12 4.57 8.74
8/22/2021 11:00:00 PM 20.36 68.648 0.076 7.12 4.5 8.75
8/22/2021 11:15:00 PM 20.3 68.54 0.076 7.12 4.49 8.76
8/22/2021 11:30:00 PM 20.24 68.432 0.076 7.12 4.55 8.76
8/22/2021 11:45:00 PM 20.19 68.342 0.076 7.12 4.5 8.77
8/23/2021 12:00:00 AM 20.13 68.234 0.076 7.11 4.79 8.78
8/23/2021 12:15:00 AM 20.08 68.144 0.076 7.11 4.59 8.79
8/23/2021 12:30:00 AM 20.02 68.036 0.076 7.11 7.08 8.8
8/23/2021 12:45:00 AM 19.97 67.946 0.076 7.11 4.41 8.82
8/23/2021 1:00:00 AM 19.92 67.856 0.076 7.11 4.45 8.82
8/23/2021 1:15:00 AM 19.87 67.766 0.077 7.11 4.39 8.83
8/23/2021 1:30:00 AM 19.82 67.676 0.077 7.11 5.38 8.84
8/23/2021 1:45:00 AM 19.77 67.586 0.077 7.11 4.36 8.85
8/23/2021 2:00:00 AM 19.73 67.514 0.077 7.11 4.27 8.86
8/23/2021 2:15:00 AM 19.68 67.424 0.077 7.1 4.32 8.87
8/23/2021 2:30:00 AM 19.64 67.352 0.077 7.11 4.28 8.88
8/23/2021 2:45:00 AM 19.6 67.28 0.077 7.11 4.45 8.88
8/23/2021 3:00:00 AM 19.56 67.208 0.077 7.11 4.25 8.89
8/23/2021 3:15:00 AM 19.52 67.136 0.077 7.11 4.22 8.9
8/23/2021 3:30:00 AM 19.48 67.064 0.077 7.11 4.23 8.9
8/23/2021 3:45:00 AM 19.44 66.992 0.077 7.11 4.23 8.92
8/23/2021 4:00:00 AM 19.41 66.938 0.077 7.11 4.16 8.93
8/23/2021 4:15:00 AM 19.38 66.884 0.077 7.11 4.04 8.93
8/23/2021 4:30:00 AM 19.35 66.83 0.077 7.11 4.15 8.94
8/23/2021 4:45:00 AM 19.31 66.758 0.077 7.1 4.04 8.95
8/23/2021 5:00:00 AM 19.28 66.704 0.077 7.1 4.09 8.96
8/23/2021 5:15:00 AM 19.25 66.65 0.077 7.11 3.99 8.97
8/23/2021 5:30:00 AM 19.22 66.596 0.077 7.11 4.42 8.97
8/23/2021 5:45:00 AM 19.19 66.542 0.077 7.1 4.21 8.98
8/23/2021 6:00:00 AM 19.15 66.47 0.078 7.1 4.03 8.99
8/23/2021 6:15:00 AM 19.11 66.398 0.078 7.11 4.23 9
8/23/2021 6:30:00 AM 19.07 66.326 0.078 7.1 4.33 9.01
8/23/2021 6:45:00 AM 19.03 66.254 0.078 7.11 4.18 9.03
8/23/2021 7:00:00 AM 19 66.2 0.077 7.11 4.11 9.06
8/23/2021 7:15:00 AM 18.98 66.164 0.078 7.12 4.18 9.12
8/23/2021 7:30:00 AM 18.96 66.128 0.078 7.13 4.1 9.16
8/23/2021 7:45:00 AM 18.95 66.11 0.077 7.14 3.85 9.2
8/23/2021 8:00:00 AM 18.95 66.11 0.077 7.15 3.74 9.26
8/23/2021 8:15:00 AM 18.96 66.128 0.077 7.16 3.65 9.34
8/23/2021 8:30:00 AM 18.98 66.164 0.077 7.18 3.7 9.42
8/23/2021 8:45:00 AM 19.01 66.218 0.077 7.2 3.82 9.49
8/23/2021 9:00:00 AM 19.04 66.272 0.077 7.21 3.72 9.54
8/23/2021 9:15:00 AM 19.11 66.398 0.077 7.24 3.88 9.6
8/23/2021 9:30:00 AM 19.18 66.524 0.077 7.25 3.78 9.64
8/23/2021 9:45:00 AM 19.26 66.668 0.077 7.27 3.88 9.69
8/23/2021 10:00:00 AM 19.35 66.83 0.077 7.29 3.56 9.73
8/23/2021 10:15:00 AM 19.45 67.01 0.077 7.32 3.4 9.74
8/23/2021 10:30:00 AM 19.55 67.19 0.077 7.33 3.47 9.75
8/23/2021 10:45:00 AM 19.66 67.388 0.076 7.36 3.54 9.78
8/23/2021 11:00:00 AM 19.75 67.55 0.076 7.38 3.59 9.78
8/23/2021 11:15:00 AM 19.94 67.892 0.076 7.4 3.63 9.79
8/23/2021 11:30:00 AM 20.09 68.162 0.076 7.43 3.52 9.81
8/23/2021 11:45:00 AM 20.14 68.252 0.076 7.44 3.5 9.8
8/23/2021 12:00:00 PM 20.33 68.594 0.076 7.46 3.38 9.8
8/23/2021 12:15:00 PM 20.51 68.918 0.076 7.48 3.29 9.8
8/23/2021 12:30:00 PM 20.61 69.098 0.076 7.49 3.44 9.78
8/23/2021 12:45:00 PM 20.7 69.26 0.076 7.5 3.45 9.78
8/23/2021 1:00:00 PM 20.89 69.602 0.076 7.51 3.39 9.76
8/23/2021 1:15:00 PM 21.07 69.926 0.076 7.53 3.24 9.73
8/23/2021 1:30:00 PM 21.24 70.232 0.076 7.54 3.34 9.71
8/23/2021 1:45:00 PM 21.47 70.646 0.076 7.55 3.26 9.69
8/23/2021 2:00:00 PM 21.64 70.952 0.076 7.56 3.14 9.65
8/23/2021 2:15:00 PM 21.86 71.348 0.076 7.58 3.14 9.64
8/23/2021 2:30:00 PM 21.99 71.582 0.076 7.59 3.23 9.6
8/23/2021 2:45:00 PM 22.11 71.798 0.076 7.6 3.15 9.59
8/23/2021 3:00:00 PM 22.3 72.14 0.076 7.63 3.29 9.58
8/23/2021 3:15:00 PM 22.49 72.482 0.076 7.63 3.27 9.55
8/23/2021 3:30:00 PM 22.7 72.86 0.076 7.65 3.19 9.53
8/23/2021 3:45:00 PM 22.86 73.148 0.076 7.65 3.34 9.48
8/23/2021 4:00:00 PM 22.9 73.22 0.076 7.63 3.25 9.39
8/23/2021 4:15:00 PM 23.03 73.454 0.075 7.62 3.13 9.37
8/23/2021 4:30:00 PM 23.24 73.832 0.075 7.63 3.22 9.33
8/23/2021 4:45:00 PM 23.37 74.066 0.075 7.62 3.11 9.28
8/23/2021 5:00:00 PM 23.46 74.228 0.075 7.6 3.22 9.21
8/23/2021 5:15:00 PM 23.52 74.336 0.075 7.59 3.08 9.16
8/23/2021 5:30:00 PM 23.54 74.372 0.075 7.58 3.21 9.11
8/23/2021 5:45:00 PM 23.53 74.354 0.076 7.55 3.18 9.05
8/23/2021 6:00:00 PM 23.49 74.282 0.076 7.52 3.11 8.97
8/23/2021 6:15:00 PM 23.43 74.174 0.076 7.49 3.16 8.9
8/23/2021 6:30:00 PM 23.36 74.048 0.076 7.46 3.18 8.84
8/23/2021 6:45:00 PM 23.29 73.922 0.076 7.42 2.86 8.77
8/23/2021 7:00:00 PM 23.18 73.724 0.076 7.38 3.16 8.71
8/23/2021 7:15:00 PM 23.06 73.508 0.076 7.36 3.22 8.65
8/23/2021 7:30:00 PM 22.94 73.292 0.076 7.33 3.27 8.61
8/23/2021 7:45:00 PM 22.81 73.058 0.077 7.31 3.22 8.57
8/23/2021 8:00:00 PM 22.69 72.842 0.077 7.28 3.1 8.52
8/23/2021 8:15:00 PM 22.58 72.644 0.077 7.26 3.42 8.48
8/23/2021 8:30:00 PM 22.48 72.464 0.077 7.24 3.25 8.45
8/23/2021 8:45:00 PM 22.38 72.284 0.077 7.23 3.51 8.44
8/23/2021 9:00:00 PM 22.29 72.122 0.077 7.22 3.22 8.43
8/23/2021 9:15:00 PM 22.2 71.96 0.078 7.21 3.29 8.42
8/23/2021 9:30:00 PM 22.12 71.816 0.078 7.19 3.34 8.43
8/23/2021 9:45:00 PM 22.04 71.672 0.078 7.19 3.32 8.43
8/23/2021 10:00:00 PM 21.96 71.528 0.078 7.18 3.53 8.43
8/23/2021 10:15:00 PM 21.88 71.384 0.078 7.18 3.49 8.45
8/23/2021 10:30:00 PM 21.8 71.24 0.078 7.17 3.44 8.45
8/23/2021 10:45:00 PM 21.72 71.096 0.078 7.17 3.54 8.46
8/23/2021 11:00:00 PM 21.64 70.952 0.079 7.16 3.39 8.48
8/23/2021 11:15:00 PM 21.56 70.808 0.079 7.16 3.46 8.49
8/23/2021 11:30:00 PM 21.48 70.664 0.079 7.16 3.38 8.5
8/23/2021 11:45:00 PM 21.41 70.538 0.079 7.15 3.43 8.51
8/24/2021 12:00:00 AM 21.33 70.394 0.079 7.15 3.54 8.53
8/24/2021 12:15:00 AM 21.26 70.268 0.079 7.15 3.43 8.54
8/24/2021 12:30:00 AM 21.19 70.142 0.079 7.15 3.46 8.56
8/24/2021 12:45:00 AM 21.12 70.016 0.079 7.14 3.44 8.57
8/24/2021 1:00:00 AM 21.05 69.89 0.079 7.14 3.29 8.58
8/24/2021 1:15:00 AM 20.98 69.764 0.079 7.14 3.49 8.59
8/24/2021 1:30:00 AM 20.92 69.656 0.079 7.13 3.47 8.61
8/24/2021 1:45:00 AM 20.86 69.548 0.079 7.14 3.27 8.61
8/24/2021 2:00:00 AM 20.79 69.422 0.079 7.14 3.48 8.63
8/24/2021 2:15:00 AM 20.73 69.314 0.079 7.13 3.26 8.64
8/24/2021 2:30:00 AM 20.67 69.206 0.079 7.13 3.37 8.66
8/24/2021 2:45:00 AM 20.61 69.098 0.079 7.13 3.5 8.67
8/24/2021 3:00:00 AM 20.55 68.99 0.08 7.13 3.42 8.68
8/24/2021 3:15:00 AM 20.49 68.882 0.079 7.13 4.37 8.69
8/24/2021 3:30:00 AM 20.44 68.792 0.079 7.12 3.72 8.7
8/24/2021 3:45:00 AM 20.4 68.72 0.079 7.13 3.38 8.71
8/24/2021 4:00:00 AM 20.36 68.648 0.079 7.13 3.29 8.73
8/24/2021 4:15:00 AM 20.32 68.576 0.079 7.12 3.42 8.74
8/24/2021 4:30:00 AM 20.28 68.504 0.079 7.13 3.31 8.75
8/24/2021 4:45:00 AM 20.24 68.432 0.08 7.13 3.6 8.76
8/24/2021 5:00:00 AM 20.2 68.36 0.08 7.13 3.24 8.77
8/24/2021 5:15:00 AM 20.16 68.288 0.08 7.13 3.24 8.78
8/24/2021 5:30:00 AM 20.12 68.216 0.08 7.13 3.47 8.79
8/24/2021 5:45:00 AM 20.08 68.144 0.08 7.13 3.4 8.8
8/24/2021 6:00:00 AM 20.04 68.07201 0.08 7.13 3.32 8.8
8/24/2021 6:15:00 AM 20.01 68.018 0.08 7.14 3.32 8.81
8/24/2021 6:30:00 AM 19.97 67.946 0.08 7.13 3.26 8.82
8/24/2021 6:45:00 AM 19.94 67.892 0.08 7.14 3.31 8.84
8/24/2021 7:00:00 AM 19.9 67.82 0.08 7.14 3.26 8.87
8/24/2021 7:15:00 AM 19.87 67.766 0.08 7.14 3.12 8.9
8/24/2021 7:30:00 AM 19.84 67.712 0.08 7.16 3.16 8.95
8/24/2021 7:45:00 AM 19.83 67.694 0.08 7.16 3.15 9
8/24/2021 8:00:00 AM 19.81 67.658 0.08 7.18 3.22 9.07
8/24/2021 8:15:00 AM 19.8 67.64 0.08 7.19 3.02 9.14
8/24/2021 8:30:00 AM 19.8 67.64 0.079 7.21 3.02 9.23
8/24/2021 8:45:00 AM 19.8 67.64 0.079 7.23 3.19 9.3
8/24/2021 9:00:00 AM 19.82 67.676 0.079 7.25 2.97 9.4
8/24/2021 9:15:00 AM 19.86 67.748 0.079 7.28 3.01 9.51
8/24/2021 9:30:00 AM 19.93 67.874 0.079 7.31 2.96 9.59
8/24/2021 9:45:00 AM 19.97 67.946 0.079 7.33 2.96 9.62
8/24/2021 10:00:00 AM 20.03 68.054 0.079 7.35 2.96 9.64
8/24/2021 10:15:00 AM 20.09 68.162 0.079 7.36 2.93 9.64
8/24/2021 10:30:00 AM 20.17 68.306 0.079 7.37 2.97 9.65
8/24/2021 10:45:00 AM 20.25 68.45 0.079 7.38 2.93 9.66
8/24/2021 11:00:00 AM 20.34 68.612 0.078 7.39 3.02 9.67
8/24/2021 11:15:00 AM 20.44 68.792 0.078 7.41 3.03 9.67
8/24/2021 11:30:00 AM 20.58 69.044 0.078 7.42 3.02 9.67
8/24/2021 11:45:00 AM 20.75 69.35 0.078 7.43 3.12 9.67
8/24/2021 12:00:00 PM 20.92 69.656 0.078 7.45 3.02 9.65
8/24/2021 12:15:00 PM 21.09 69.962 0.078 7.47 2.93 9.65
8/24/2021 12:30:00 PM 21.27 70.286 0.078 7.48 3.09 9.64
8/24/2021 12:45:00 PM 21.46 70.628 0.078 7.49 3.06 9.62
8/24/2021 1:00:00 PM 21.64 70.952 0.078 7.51 3.09 9.59
8/24/2021 1:15:00 PM 21.83 71.294 0.078 7.51 2.85 9.56
8/24/2021 1:30:00 PM 22.02 71.636 0.078 7.52 2.94 9.53
8/24/2021 1:45:00 PM 22.23 72.014 0.078 7.53 2.89 9.51
8/24/2021 2:00:00 PM 22.43 72.374 0.078 7.54 2.83 9.49
8/24/2021 2:15:00 PM 22.64 72.752 0.078 7.56 2.83 9.47
8/24/2021 2:30:00 PM 22.86 73.148 0.078 7.57 2.82 9.45
8/24/2021 2:45:00 PM 23.05 73.49 0.078 7.59 2.83 9.43
8/24/2021 3:00:00 PM 23.24 73.832 0.078 7.59 2.81 9.4
8/24/2021 3:15:00 PM 23.43 74.174 0.078 7.61 9.14 9.37
8/24/2021 3:30:00 PM 23.6 74.48 0.078 7.62 2.72 9.35
8/24/2021 3:45:00 PM 23.77 74.786 0.078 7.62 2.74 9.32
8/24/2021 4:00:00 PM 23.92 75.056 0.078 7.64 2.68 9.29
8/24/2021 4:15:00 PM 24.03 75.254 0.078 7.64 2.77 9.25
8/24/2021 4:30:00 PM 24.06 75.308 0.078 7.62 2.8 9.19
8/24/2021 4:45:00 PM 24.15 75.47 0.078 7.62 2.56 9.15
8/24/2021 5:00:00 PM 24.24 75.632 0.078 7.61 2.74 9.12
8/24/2021 5:15:00 PM 24.33 75.794 0.078 7.61 2.8 9.09
8/24/2021 5:30:00 PM 24.35 75.83 0.078 7.6 2.71 9.03
8/24/2021 5:45:00 PM 24.36 75.848 0.078 7.58 2.72 8.99
8/24/2021 6:00:00 PM 24.42 75.956 0.078 7.57 2.66 8.98
8/24/2021 6:15:00 PM 24.45 76.01 0.078 7.55 2.69 8.93
8/24/2021 6:30:00 PM 24.41 75.938 0.078 7.52 2.75 8.84
8/24/2021 6:45:00 PM 24.35 75.83 0.078 7.48 2.79 8.74
8/24/2021 7:00:00 PM 24.27 75.686 0.079 7.43 2.71 8.65
8/24/2021 7:15:00 PM 24.21 75.578 0.079 7.4 2.66 8.58
8/24/2021 7:30:00 PM 24.12 75.416 0.079 7.37 2.64 8.5
8/24/2021 7:45:00 PM 24.04 75.272 0.079 7.34 2.74 8.42
8/24/2021 8:00:00 PM 23.94 75.092 0.08 7.31 2.76 8.35
8/24/2021 8:15:00 PM 23.83 74.894 0.08 7.28 2.71 8.3
8/24/2021 8:30:00 PM 23.72 74.696 0.08 7.26 2.95 8.25
8/24/2021 8:45:00 PM 23.62 74.516 0.08 7.24 3.17 8.22
8/24/2021 9:00:00 PM 23.51 74.318 0.081 7.23 2.87 8.22
8/24/2021 9:15:00 PM 23.41 74.138 0.081 7.22 3.08 8.21
8/24/2021 9:30:00 PM 23.31 73.958 0.081 7.21 3.08 8.21
8/24/2021 9:45:00 PM 23.22 73.796 0.081 7.2 2.84 8.21
8/24/2021 10:00:00 PM 23.12 73.616 0.081 7.2 2.92 8.22
8/24/2021 10:15:00 PM 23.02 73.436 0.081 7.19 3.15 8.23
8/24/2021 10:30:00 PM 22.93 73.274 0.081 7.19 3.02 8.24
8/24/2021 10:45:00 PM 22.83 73.094 0.082 7.18 2.94 8.26
8/24/2021 11:00:00 PM 22.74 72.932 0.082 7.18 3.08 8.27
8/24/2021 11:15:00 PM 22.65 72.77 0.082 7.18 3 8.29
8/24/2021 11:30:00 PM 22.55 72.59 0.082 7.17 3.03 8.3
8/24/2021 11:45:00 PM 22.46 72.42799 0.082 7.17 3.05 8.32
8/25/2021 12:00:00 AM 22.37 72.266 0.082 7.17 3.07 8.34
8/25/2021 12:15:00 AM 22.29 72.122 0.082 7.17 3.16 8.35
8/25/2021 12:30:00 AM 22.2 71.96 0.082 7.17 3.07 8.37
8/25/2021 12:45:00 AM 22.11 71.798 0.082 7.16 3.07 8.39
8/25/2021 1:00:00 AM 22.02 71.636 0.083 7.17 3.05 8.4
8/25/2021 1:15:00 AM 21.95 71.51 0.083 7.16 3.04 8.42
8/25/2021 1:30:00 AM 21.89 71.402 0.083 7.16 3.02 8.43
8/25/2021 1:45:00 AM 21.83 71.294 0.083 7.16 3.15 8.45
8/25/2021 2:00:00 AM 21.77 71.186 0.083 7.16 3.02 8.46
8/25/2021 2:15:00 AM 21.71 71.078 0.083 7.16 3.25 8.47
8/25/2021 2:30:00 AM 21.65 70.97 0.083 7.16 3.08 8.49
8/25/2021 2:45:00 AM 21.59 70.862 0.083 7.16 3.26 8.5
8/25/2021 3:00:00 AM 21.53 70.754 0.083 7.16 3.23 8.51
8/25/2021 3:15:00 AM 21.48 70.664 0.083 7.16 3.18 8.52
8/25/2021 3:30:00 AM 21.42 70.556 0.083 7.17 3.26 8.54
8/25/2021 3:45:00 AM 21.37 70.466 0.083 7.17 3.24 8.55
8/25/2021 4:00:00 AM 21.32 70.376 0.083 7.17 3.07 8.56
8/25/2021 4:15:00 AM 21.28 70.304 0.083 7.16 3.03 8.56
8/25/2021 4:30:00 AM 21.23 70.214 0.083 7.17 3.07 8.58
8/25/2021 4:45:00 AM 21.18 70.124 0.083 7.16 3.06 8.59
8/25/2021 5:00:00 AM 21.13 70.034 0.083 7.17 2.98 8.59
8/25/2021 5:15:00 AM 21.09 69.962 0.083 7.16 3.08 8.61
8/25/2021 5:30:00 AM 21.04 69.872 0.083 7.16 3.07 8.62
8/25/2021 5:45:00 AM 20.99 69.782 0.083 7.16 2.97 8.63
8/25/2021 6:00:00 AM 20.94 69.692 0.083 7.16 3.12 8.64
8/25/2021 6:15:00 AM 20.9 69.62 0.083 7.16 3.02 8.65
8/25/2021 6:30:00 AM 20.86 69.548 0.083 7.16 3 8.65
8/25/2021 6:45:00 AM 20.82 69.476 0.083 7.16 3.08 8.66
8/25/2021 7:00:00 AM 20.77 69.386 0.083 7.16 2.9 8.69
8/25/2021 7:15:00 AM 20.74 69.332 0.083 7.17 2.86 8.73
8/25/2021 7:30:00 AM 20.71 69.278 0.083 7.18 2.87 8.78
8/25/2021 7:45:00 AM 20.68 69.224 0.083 7.19 2.9 8.83
8/25/2021 8:00:00 AM 20.66 69.188 0.083 7.2 2.85 8.89
8/25/2021 8:15:00 AM 20.65 69.17 0.083 7.21 2.84 8.98
8/25/2021 8:30:00 AM 20.64 69.152 0.083 7.23 2.8 9.05
8/25/2021 8:45:00 AM 20.64 69.152 0.083 7.25 2.74 9.15
8/25/2021 9:00:00 AM 20.64 69.152 0.083 7.26 2.86 9.21
8/25/2021 9:15:00 AM 20.66 69.188 0.083 7.29 2.84 9.31
8/25/2021 9:30:00 AM 20.71 69.278 0.082 7.32 2.79 9.44
8/25/2021 9:45:00 AM 20.78 69.404 0.082 7.35 2.88 9.54
8/25/2021 10:00:00 AM 20.86 69.548 0.082 7.38 2.86 9.59
8/25/2021 10:15:00 AM 20.9 69.62 0.082 7.4 2.81 9.6
8/25/2021 10:30:00 AM 20.96 69.728 0.082 7.41 2.76 9.61
8/25/2021 10:45:00 AM 21.04 69.872 0.082 7.42 2.68 9.62
8/25/2021 11:00:00 AM 21.15 70.07 0.082 7.43 2.67 9.63
8/25/2021 11:15:00 AM 21.26 70.268 0.082 7.45 2.81 9.63
8/25/2021 11:30:00 AM 21.39 70.502 0.082 7.46 2.73 9.64
8/25/2021 11:45:00 AM 21.53 70.754 0.082 7.48 2.83 9.63
8/25/2021 12:00:00 PM 21.69 71.042 0.082 7.49 2.79 9.63
8/25/2021 12:15:00 PM 21.83 71.294 0.082 7.51 2.76 9.62
8/25/2021 12:30:00 PM 22.04 71.672 0.082 7.53 2.72 9.62
8/25/2021 12:45:00 PM 22.14 71.852 0.082 7.54 2.78 9.58
8/25/2021 1:00:00 PM 22.34 72.212 0.082 7.56 2.7 9.58
8/25/2021 1:15:00 PM 22.5 72.5 0.081 7.59 2.72 9.58
8/25/2021 1:30:00 PM 22.67 72.806 0.081 7.61 2.73 9.6
8/25/2021 1:45:00 PM 22.96 73.328 0.081 7.65 2.7 9.61
8/25/2021 2:00:00 PM 23.21 73.778 0.081 7.68 2.75 9.59
8/25/2021 2:15:00 PM 23.47 74.246 0.081 7.7 2.61 9.55
8/25/2021 2:30:00 PM 23.7 74.66 0.081 7.73 2.64 9.53
8/25/2021 2:45:00 PM 23.92 75.056 0.081 7.74 2.59 9.48
8/25/2021 3:00:00 PM 24.13 75.434 0.081 7.74 2.63 9.43
8/25/2021 3:15:00 PM 24.31 75.758 0.081 7.75 2.54 9.39
8/25/2021 3:30:00 PM 24.5 76.1 0.081 7.76 2.65 9.34
8/25/2021 3:45:00 PM 24.69 76.442 0.081 7.76 2.56 9.29
8/25/2021 4:00:00 PM 24.86 76.748 0.081 7.76 2.56 9.24
8/25/2021 4:15:00 PM 25.01 77.018 0.081 7.75 2.52 9.19
8/25/2021 4:30:00 PM 25.13 77.234 0.081 7.74 2.68 9.14
8/25/2021 4:45:00 PM 25.18 77.324 0.081 7.72 2.5 9.07
8/25/2021 5:00:00 PM 25.14 77.252 0.081 7.67 2.48 8.96
8/25/2021 5:15:00 PM 25.15 77.27 0.081 7.66 2.45 8.94
8/25/2021 5:30:00 PM 25.16 77.288 0.081 7.64 2.55 8.89
8/25/2021 5:45:00 PM 25.11 77.198 0.082 7.61 2.63 8.82
8/25/2021 6:00:00 PM 25.08 77.144 0.082 7.58 2.51 8.77
8/25/2021 6:15:00 PM 25.06 77.108 0.082 7.55 2.61 8.71
8/25/2021 6:30:00 PM 25.01 77.018 0.082 7.51 2.5 8.63
8/25/2021 6:45:00 PM 24.93 76.874 0.082 7.47 2.56 8.54
8/25/2021 7:00:00 PM 24.85 76.73 0.082 7.43 2.55 8.46
8/25/2021 7:15:00 PM 24.77 76.586 0.082 7.39 2.46 8.39
8/25/2021 7:30:00 PM 24.68 76.424 0.083 7.36 2.45 8.31
8/25/2021 7:45:00 PM 24.58 76.244 0.083 7.32 2.54 8.24
8/25/2021 8:00:00 PM 24.47 76.046 0.083 7.29 2.51 8.19
8/25/2021 8:15:00 PM 24.36 75.848 0.084 7.27 2.57 8.15
8/25/2021 8:30:00 PM 24.26 75.668 0.084 7.25 2.74 8.12
8/25/2021 8:45:00 PM 24.14 75.452 0.084 7.25 2.74 8.1
8/25/2021 9:00:00 PM 24.02 75.236 0.084 7.23 2.79 8.09
8/25/2021 9:15:00 PM 23.9 75.02 0.084 7.22 2.77 8.09
8/25/2021 9:30:00 PM 23.79 74.82201 0.085 7.21 2.75 8.1
8/25/2021 9:45:00 PM 23.69 74.642 0.085 7.21 2.84 8.11
8/25/2021 10:00:00 PM 23.59 74.462 0.085 7.21 2.85 8.12
8/25/2021 10:15:00 PM 23.5 74.3 0.085 7.2 2.81 8.12
8/25/2021 10:30:00 PM 23.42 74.156 0.085 7.2 2.75 8.13
8/25/2021 10:45:00 PM 23.35 74.03 0.085 7.19 2.91 8.14
8/25/2021 11:00:00 PM 23.27 73.886 0.086 7.19 2.79 8.16
8/25/2021 11:15:00 PM 23.19 73.742 0.086 7.19 3 8.17
8/25/2021 11:30:00 PM 23.12 73.616 0.086 7.18 2.79 8.18
8/25/2021 11:45:00 PM 23.04 73.472 0.086 7.18 2.86 8.2
8/26/2021 12:00:00 AM 22.96 73.328 0.086 7.18 2.77 8.21
8/26/2021 12:15:00 AM 22.89 73.202 0.086 7.18 2.83 8.22
8/26/2021 12:30:00 AM 22.81 73.058 0.086 7.18 3.08 8.24
8/26/2021 12:45:00 AM 22.74 72.932 0.086 7.17 2.92 8.25
8/26/2021 1:00:00 AM 22.68 72.824 0.087 7.17 2.84 8.26
8/26/2021 1:15:00 AM 22.63 72.734 0.087 7.17 2.89 8.27
8/26/2021 1:30:00 AM 22.58 72.644 0.087 7.17 2.82 8.28
8/26/2021 1:45:00 AM 22.53 72.554 0.087 7.17 2.91 8.29
8/26/2021 2:00:00 AM 22.48 72.464 0.087 7.17 2.92 8.3
8/26/2021 2:15:00 AM 22.44 72.392 0.087 7.17 2.86 8.31
8/26/2021 2:30:00 AM 22.39 72.302 0.087 7.17 2.87 8.32
8/26/2021 2:45:00 AM 22.35 72.23 0.087 7.17 2.87 8.34
8/26/2021 3:00:00 AM 22.31 72.158 0.088 7.17 2.86 8.34
8/26/2021 3:15:00 AM 22.26 72.068 0.088 7.17 2.96 8.35
8/26/2021 3:30:00 AM 22.22 71.996 0.088 7.17 2.85 8.36
8/26/2021 3:45:00 AM 22.17 71.906 0.088 7.18 2.83 8.37
8/26/2021 4:00:00 AM 22.13 71.834 0.088 7.18 2.81 8.39
8/26/2021 4:15:00 AM 22.08 71.744 0.088 7.18 2.79 8.39
8/26/2021 4:30:00 AM 22.03 71.654 0.088 7.18 2.91 8.41
8/26/2021 4:45:00 AM 21.98 71.564 0.088 7.18 2.8 8.42
8/26/2021 5:00:00 AM 21.93 71.474 0.088 7.18 2.82 8.42
8/26/2021 5:15:00 AM 21.88 71.384 0.088 7.17 2.82 8.44
8/26/2021 5:30:00 AM 21.83 71.294 0.088 7.17 2.82 8.45
8/26/2021 5:45:00 AM 21.78 71.204 0.088 7.17 2.78 8.46
8/26/2021 6:00:00 AM 21.73 71.114 0.088 7.17 2.79 8.47
8/26/2021 6:15:00 AM 21.69 71.042 0.088 7.17 2.82 8.48
8/26/2021 6:30:00 AM 21.64 70.952 0.088 7.17 2.86 8.49
8/26/2021 6:45:00 AM 21.6 70.88 0.088 7.17 2.99 8.51
8/26/2021 7:00:00 AM 21.56 70.808 0.088 7.18 2.7 8.53
8/26/2021 7:15:00 AM 21.52 70.736 0.088 7.18 2.75 8.56
8/26/2021 7:30:00 AM 21.49 70.682 0.088 7.19 2.72 8.62
8/26/2021 7:45:00 AM 21.47 70.646 0.088 7.2 2.68 8.7
8/26/2021 8:00:00 AM 21.45 70.61 0.088 7.22 2.59 8.79
8/26/2021 8:15:00 AM 21.46 70.628 0.088 7.24 2.73 8.93
8/26/2021 8:30:00 AM 21.47 70.646 0.087 7.27 2.64 9.06
8/26/2021 8:45:00 AM 21.49 70.682 0.087 7.3 2.66 9.15
8/26/2021 9:00:00 AM 21.52 70.736 0.087 7.33 2.69 9.25
8/26/2021 9:15:00 AM 21.55 70.79 0.087 7.35 2.58 9.33
8/26/2021 9:30:00 AM 21.58 70.844 0.086 7.38 2.61 9.39
8/26/2021 9:45:00 AM 21.63 70.934 0.086 7.41 2.57 9.47
8/26/2021 10:00:00 AM 21.71 71.078 0.086 7.44 2.62 9.53
8/26/2021 10:15:00 AM 21.84 71.312 0.086 7.48 2.61 9.61
8/26/2021 10:30:00 AM 21.95 71.51 0.086 7.52 2.69 9.66
8/26/2021 10:45:00 AM 22.05 71.69 0.085 7.55 2.61 9.68
8/26/2021 11:00:00 AM 22.14 71.852 0.085 7.58 2.73 9.7
8/26/2021 11:15:00 AM 22.27 72.086 0.085 7.6 2.67 9.7
8/26/2021 11:30:00 AM 22.46 72.42799 0.085 7.62 2.59 9.68
8/26/2021 11:45:00 AM 22.55 72.59 0.085 7.62 2.56 9.62
8/26/2021 12:00:00 PM 22.73 72.914 0.085 7.62 2.55 9.58
8/26/2021 12:15:00 PM 22.96 73.328 0.085 7.63 2.55 9.55
8/26/2021 12:30:00 PM 23.15 73.67 0.085 7.66 2.58 9.55
8/26/2021 12:45:00 PM 23.34 74.012 0.085 7.68 2.54 9.53
8/26/2021 1:00:00 PM 23.53 74.354 0.084 7.68 2.58 9.47
8/26/2021 1:15:00 PM 23.71 74.67799 0.084 7.69 2.58 9.43
8/26/2021 1:30:00 PM 23.92 75.056 0.084 7.69 2.57 9.4
8/26/2021 1:45:00 PM 24.13 75.434 0.084 7.7 2.57 9.36
8/26/2021 2:00:00 PM 24.37 75.866 0.084 7.72 2.52 9.34
8/26/2021 2:15:00 PM 24.54 76.172 0.084 7.75 2.6 9.34
8/26/2021 2:30:00 PM 24.63 76.334 0.084 7.78 2.51 9.33
8/26/2021 2:45:00 PM 24.71 76.478 0.084 7.8 2.58 9.32
8/26/2021 3:00:00 PM 24.89 76.802 0.084 7.79 2.52 9.27
8/26/2021 3:15:00 PM 24.98 76.964 0.084 7.77 2.51 9.16
8/26/2021 3:30:00 PM 25 77 0.084 7.73 2.38 9.08
8/26/2021 3:45:00 PM 25.05 77.09 0.084 7.72 2.53 9.09
8/26/2021 4:00:00 PM 25.07 77.126 0.083 7.73 2.47 9.09
8/26/2021 4:15:00 PM 24.98 76.964 0.083 7.72 2.48 9.05
8/26/2021 4:30:00 PM 25 77 0.083 7.7 2.47 9.02
8/26/2021 4:45:00 PM 25.2 77.36 0.083 7.72 2.48 9.05
8/26/2021 5:00:00 PM 25.4 77.72 0.083 7.73 2.48 9.02
8/26/2021 5:15:00 PM 25.48 77.864 0.083 7.72 2.5 8.95
8/26/2021 5:30:00 PM 25.49 77.882 0.083 7.69 2.53 8.87
8/26/2021 5:45:00 PM 25.45 77.81 0.083 7.64 2.38 8.76
8/26/2021 6:00:00 PM 25.42 77.756 0.083 7.58 2.37 8.65
8/26/2021 6:15:00 PM 25.39 77.702 0.083 7.54 2.41 8.59
8/26/2021 6:30:00 PM 25.36 77.648 0.083 7.51 2.45 8.52
8/26/2021 6:45:00 PM 25.35 77.63 0.083 7.47 2.51 8.47
8/26/2021 7:00:00 PM 25.34 77.612 0.084 7.45 2.43 8.43
8/26/2021 7:15:00 PM 25.33 77.594 0.084 7.43 2.42 8.38
8/26/2021 7:30:00 PM 25.27 77.486 0.084 7.41 2.66 8.3
8/26/2021 7:45:00 PM 25.16 77.288 0.084 7.37 2.67 8.21
8/26/2021 8:00:00 PM 25.05 77.09 0.084 7.33 2.66 8.12
8/26/2021 8:15:00 PM 24.95 76.91 0.084 7.31 2.71 8.04
8/26/2021 8:30:00 PM 24.86 76.748 0.084 7.28 2.84 8
8/26/2021 8:45:00 PM 24.77 76.586 0.085 7.27 2.93 7.97
8/26/2021 9:00:00 PM 24.68 76.424 0.085 7.25 2.85 7.95
8/26/2021 9:15:00 PM 24.59 76.262 0.085 7.24 2.82 7.94
8/26/2021 9:30:00 PM 24.5 76.1 0.085 7.23 2.87 7.94
8/26/2021 9:45:00 PM 24.4 75.92 0.086 7.22 2.76 7.94
8/26/2021 10:00:00 PM 24.3 75.74 0.086 7.21 2.82 7.94
8/26/2021 10:15:00 PM 24.22 75.596 0.086 7.21 2.78 7.95
8/26/2021 10:30:00 PM 24.13 75.434 0.086 7.2 2.85 7.96
8/26/2021 10:45:00 PM 24.05 75.29 0.086 7.2 2.88 7.97
8/26/2021 11:00:00 PM 23.97 75.146 0.086 7.19 2.88 7.98
8/26/2021 11:15:00 PM 23.89 75.002 0.087 7.19 2.81 7.99
8/26/2021 11:30:00 PM 23.82 74.876 0.087 7.19 2.9 8.01
8/26/2021 11:45:00 PM 23.74 74.732 0.087 7.19 2.96 8.02
8/27/2021 12:00:00 AM 23.66 74.588 0.087 7.19 2.85 8.04
8/27/2021 12:15:00 AM 23.59 74.462 0.087 7.19 2.92 8.06
8/27/2021 12:30:00 AM 23.51 74.318 0.087 7.19 2.88 8.07
8/27/2021 12:45:00 AM 23.44 74.192 0.087 7.19 2.81 8.09
8/27/2021 1:00:00 AM 23.37 74.066 0.088 7.19 2.99 8.1
8/27/2021 1:15:00 AM 23.3 73.94 0.088 7.19 2.77 8.11
8/27/2021 1:30:00 AM 23.23 73.814 0.088 7.19 2.94 8.13
8/27/2021 1:45:00 AM 23.16 73.688 0.088 7.19 2.97 8.14
8/27/2021 2:00:00 AM 23.11 73.598 0.088 7.19 2.86 8.15
8/27/2021 2:15:00 AM 23.06 73.508 0.088 7.19 3.24 8.16
8/27/2021 2:30:00 AM 23 73.4 0.089 7.19 2.99 8.17
8/27/2021 2:45:00 AM 22.95 73.31 0.088 7.19 2.87 8.18
8/27/2021 3:00:00 AM 22.89 73.202 0.089 7.19 2.88 8.19
8/27/2021 3:15:00 AM 22.83 73.094 0.089 7.19 2.85 8.2
8/27/2021 3:30:00 AM 22.78 73.004 0.089 7.19 2.89 8.21
8/27/2021 3:45:00 AM 22.73 72.914 0.089 7.19 2.87 8.22
8/27/2021 4:00:00 AM 22.67 72.806 0.089 7.19 2.98 8.23
8/27/2021 4:15:00 AM 22.62 72.716 0.089 7.19 2.96 8.24
8/27/2021 4:30:00 AM 22.56 72.608 0.089 7.19 2.87 8.26
8/27/2021 4:45:00 AM 22.51 72.518 0.089 7.19 2.93 8.27
8/27/2021 5:00:00 AM 22.47 72.446 0.089 7.19 2.72 8.28
8/27/2021 5:15:00 AM 22.42 72.356 0.089 7.19 2.84 8.29
8/27/2021 5:30:00 AM 22.38 72.284 0.09 7.19 2.87 8.29
8/27/2021 5:45:00 AM 22.34 72.212 0.09 7.19 2.97 8.31
8/27/2021 6:00:00 AM 22.3 72.14 0.09 7.19 2.9 8.32
8/27/2021 6:15:00 AM 22.26 72.068 0.09 7.19 2.87 8.32
8/27/2021 6:30:00 AM 22.22 71.996 0.09 7.19 2.82 8.34
8/27/2021 6:45:00 AM 22.17 71.906 0.09 7.19 2.84 8.35
8/27/2021 7:00:00 AM 22.14 71.852 0.09 7.2 2.97 8.38
8/27/2021 7:15:00 AM 22.1 71.78 0.09 7.2 2.79 8.43
8/27/2021 7:30:00 AM 22.07 71.726 0.09 7.21 2.76 8.5
8/27/2021 7:45:00 AM 22.05 71.69 0.09 7.22 2.78 8.57
8/27/2021 8:00:00 AM 22.03 71.654 0.089 7.24 2.72 8.64
8/27/2021 8:15:00 AM 22.02 71.636 0.089 7.26 2.72 8.74
8/27/2021 8:30:00 AM 22.02 71.636 0.089 7.28 2.82 8.86
8/27/2021 8:45:00 AM 22.03 71.654 0.089 7.31 2.72 8.98
8/27/2021 9:00:00 AM 22.05 71.69 0.089 7.33 2.71 9.08
8/27/2021 9:15:00 AM 22.08 71.744 0.089 7.36 2.7 9.16
8/27/2021 9:30:00 AM 22.13 71.834 0.088 7.39 2.76 9.25
8/27/2021 9:45:00 AM 22.17 71.906 0.088 7.43 2.74 9.34
8/27/2021 10:00:00 AM 22.18 71.924 0.09 7.18 10.37 9.19
8/27/2021 10:15:00 AM 22.2 71.96 0.092 7.32 8.59 9.2
8/27/2021 10:30:00 AM 22.26 72.068 0.09 7.4 7.49 9.25
8/27/2021 10:45:00 AM 22.29 72.122 0.089 7.44 6.77 9.28
8/27/2021 11:00:00 AM 22.31 72.158 0.088 7.47 6.26 9.32
8/27/2021 11:15:00 AM 22.37 72.266 0.088 7.51 5.3 9.38
8/27/2021 11:30:00 AM 22.42 72.356 0.087 7.55 5.36 9.42
8/27/2021 11:45:00 AM 22.46 72.42799 0.087 7.57 4.59 9.45
8/27/2021 12:00:00 PM 22.48 72.464 0.086 7.6 4.64 9.46
8/27/2021 12:15:00 PM 22.57 72.626 0.086 7.62 4.28 9.46
8/27/2021 12:30:00 PM 22.75 72.95 0.086 7.64 4.2 9.47
8/27/2021 12:45:00 PM 22.86 73.148 0.085 7.66 4.01 9.46
8/27/2021 1:00:00 PM 22.98 73.364 0.085 7.69 3.73 9.46
8/27/2021 1:15:00 PM 23.12 73.616 0.085 7.71 3.69 9.45
8/27/2021 1:30:00 PM 23.26 73.868 0.084 7.73 3.8 9.46
8/27/2021 1:45:00 PM 23.43 74.174 0.084 7.76 3.53 9.47
8/27/2021 2:00:00 PM 23.63 74.534 0.084 7.79 3.89 9.46
8/27/2021 2:15:00 PM 23.82 74.876 0.084 7.82 3.4 9.43
8/27/2021 2:30:00 PM 24.1 75.38 0.084 7.83 3.42 9.39
8/27/2021 2:45:00 PM 24.31 75.758 0.084 7.83 3.36 9.32
8/27/2021 3:00:00 PM 24.4 75.92 0.084 7.8 3.5 9.23
8/27/2021 3:15:00 PM 24.6 76.28 0.084 7.8 3.25 9.21
8/27/2021 3:30:00 PM 24.79 76.622 0.084 7.81 3.19 9.15
8/27/2021 3:45:00 PM 24.76 76.568 0.084 7.77 3.14 9.04
8/27/2021 4:00:00 PM 24.8 76.64 0.084 7.74 3.17 9.01
8/27/2021 4:15:00 PM 24.98 76.964 0.084 7.75 3.01 9.01
8/27/2021 4:30:00 PM 25.06 77.108 0.084 7.75 3.08 9
8/27/2021 4:45:00 PM 25.05 77.09 0.084 7.74 3.06 8.95
8/27/2021 5:00:00 PM 24.92 76.856 0.085 7.7 3.01 8.87
8/27/2021 5:15:00 PM 24.82 76.676 0.085 7.66 3.12 8.79
8/27/2021 5:30:00 PM 24.73 76.514 0.085 7.6 2.99 8.69
8/27/2021 5:45:00 PM 24.65 76.37 0.085 7.56 3.23 8.61
8/27/2021 6:00:00 PM 24.61 76.298 0.085 7.52 2.86 8.55
8/27/2021 6:15:00 PM 24.54 76.172 0.086 7.48 2.89 8.46
8/27/2021 6:30:00 PM 24.48 76.064 0.086 7.44 2.93 8.39
8/27/2021 6:45:00 PM 24.41 75.938 0.086 7.42 3.09 8.35
8/27/2021 7:00:00 PM 24.34 75.812 0.087 7.4 2.87 8.3
8/27/2021 7:15:00 PM 24.26 75.668 0.087 7.37 2.91 8.24
8/27/2021 7:30:00 PM 24.19 75.542 0.088 7.35 3.03 8.21
8/27/2021 7:45:00 PM 24.11 75.398 0.088 7.33 2.95 8.19
8/27/2021 8:00:00 PM 24.03 75.254 0.088 7.32 3.07 8.17
8/27/2021 8:15:00 PM 23.96 75.128 0.089 7.3 3.18 8.15
8/27/2021 8:30:00 PM 23.88 74.984 0.089 7.29 3.33 8.13
8/27/2021 8:45:00 PM 23.81 74.858 0.09 7.28 3.43 8.13
8/27/2021 9:00:00 PM 23.74 74.732 0.09 7.26 3.55 8.13
8/27/2021 9:15:00 PM 23.66 74.588 0.09 7.26 3.53 8.13
8/27/2021 9:30:00 PM 23.59 74.462 0.091 7.25 3.78 8.13
8/27/2021 9:45:00 PM 23.53 74.354 0.091 7.25 3.83 8.15
8/27/2021 10:00:00 PM 23.47 74.246 0.092 7.24 4.08 8.15
8/27/2021 10:15:00 PM 23.4 74.12 0.092 7.24 4.13 8.15
8/27/2021 10:30:00 PM 23.35 74.03 0.093 7.23 4.44 8.16
8/27/2021 10:45:00 PM 23.29 73.922 0.093 7.23 4.47 8.17
8/27/2021 11:00:00 PM 23.24 73.832 0.094 7.23 4.84 8.18
8/27/2021 11:15:00 PM 23.19 73.742 0.095 7.22 5.09 8.18
8/27/2021 11:30:00 PM 23.14 73.652 0.096 7.23 5.33 8.19
8/27/2021 11:45:00 PM 23.09 73.562 0.097 7.22 5.77 8.2
8/28/2021 12:00:00 AM 23.05 73.49 0.098 7.22 6.02 8.21
8/28/2021 12:15:00 AM 23.01 73.418 0.099 7.23 6.28 8.21
8/28/2021 12:30:00 AM 22.98 73.364 0.1 7.23 6.77 8.22
8/28/2021 12:45:00 AM 22.95 73.31 0.102 7.23 7.25 8.23
8/28/2021 1:00:00 AM 22.92 73.256 0.104 7.25 7.93 8.23
8/28/2021 1:15:00 AM 22.89 73.202 0.106 7.25 7.93 8.25
8/28/2021 1:30:00 AM 22.85 73.13 0.107 7.25 8.24 8.26
8/28/2021 1:45:00 AM 22.81 73.058 0.11 7.25 8.57 8.26
8/28/2021 2:00:00 AM 22.78 73.004 0.111 7.25 8.4 8.27
8/28/2021 2:15:00 AM 22.74 72.932 0.113 7.25 8.82 8.28
8/28/2021 2:30:00 AM 22.7 72.86 0.115 7.26 8.81 8.28
8/28/2021 2:45:00 AM 22.66 72.788 0.117 7.26 8.58 8.29
8/28/2021 3:00:00 AM 22.63 72.734 0.119 7.27 8.67 8.3
8/28/2021 3:15:00 AM 22.59 72.662 0.121 7.27 9.14 8.3
8/28/2021 3:30:00 AM 22.56 72.608 0.122 7.27 8.69 8.3
8/28/2021 3:45:00 AM 22.52 72.536 0.124 7.28 8.29 8.31
8/28/2021 4:00:00 AM 22.48 72.464 0.125 7.28 8.46 8.32
8/28/2021 4:15:00 AM 22.44 72.392 0.126 7.29 8.49 8.32
8/28/2021 4:30:00 AM 22.41 72.338 0.127 7.29 8.29 8.33
8/28/2021 4:45:00 AM 22.37 72.266 0.127 7.29 8.09 8.34
8/28/2021 5:00:00 AM 22.34 72.212 0.127 7.29 8 8.35
8/28/2021 5:15:00 AM 22.3 72.14 0.128 7.29 7.73 8.35
8/28/2021 5:30:00 AM 22.27 72.086 0.127 7.29 7.92 8.36
8/28/2021 5:45:00 AM 22.24 72.032 0.127 7.29 7.68 8.37
8/28/2021 6:00:00 AM 22.2 71.96 0.127 7.29 7.83 8.37
8/28/2021 6:15:00 AM 22.16 71.888 0.126 7.29 7.63 8.39
8/28/2021 6:30:00 AM 22.12 71.816 0.126 7.28 7.95 8.4
8/28/2021 6:45:00 AM 22.09 71.762 0.125 7.28 8.21 8.42
8/28/2021 7:00:00 AM 22.05 71.69 0.125 7.28 8.15 8.44
8/28/2021 7:15:00 AM 22.02 71.636 0.125 7.28 8.5 8.48
8/28/2021 7:30:00 AM 21.99 71.582 0.124 7.29 8.16 8.52
8/28/2021 7:45:00 AM 21.97 71.546 0.123 7.3 8.28 8.56
8/28/2021 8:00:00 AM 21.96 71.528 0.123 7.31 7.68 8.61
8/28/2021 8:15:00 AM 21.94 71.492 0.122 7.32 7.72 8.65
8/28/2021 8:30:00 AM 21.94 71.492 0.121 7.33 7.47 8.71
8/28/2021 8:45:00 AM 21.95 71.51 0.121 7.35 7.59 8.79
8/28/2021 9:00:00 AM 21.96 71.528 0.12 7.37 7.34 8.87
8/28/2021 9:15:00 AM 21.97 71.546 0.119 7.39 7.15 8.94
8/28/2021 9:30:00 AM 22.01 71.618 0.118 7.41 6.94 9.05
8/28/2021 9:45:00 AM 22.05 71.69 0.117 7.44 6.83 9.14
8/28/2021 10:00:00 AM 22.08 71.744 0.116 7.47 6.85 9.21
8/28/2021 10:15:00 AM 22.12 71.816 0.116 7.5 6.74 9.28
8/28/2021 10:30:00 AM 22.2 71.96 0.115 7.53 6.36 9.35
8/28/2021 10:45:00 AM 22.27 72.086 0.114 7.57 6.25 9.43
8/28/2021 11:00:00 AM 22.43 72.374 0.113 7.61 6.37 9.48
8/28/2021 11:15:00 AM 22.48 72.464 0.112 7.63 6.18 9.48
8/28/2021 11:30:00 AM 22.6 72.68 0.112 7.66 6.2 9.5
8/28/2021 11:45:00 AM 22.71 72.878 0.111 7.67 6.08 9.48
8/28/2021 12:00:00 PM 22.84 73.112 0.11 7.68 6.05 9.48
8/28/2021 12:15:00 PM 22.98 73.364 0.11 7.7 5.72 9.47
8/28/2021 12:30:00 PM 23.16 73.688 0.109 7.72 5.65 9.47
8/28/2021 12:45:00 PM 23.38 74.084 0.108 7.75 5.52 9.46
8/28/2021 1:00:00 PM 23.55 74.39 0.107 7.76 5.64 9.43
8/28/2021 1:15:00 PM 23.71 74.67799 0.107 7.79 5.34 9.43
8/28/2021 1:30:00 PM 23.83 74.894 0.106 7.79 5.47 9.42
8/28/2021 1:45:00 PM 23.97 75.146 0.106 7.82 5.45 9.4
8/28/2021 2:00:00 PM 23.98 75.164 0.105 7.79 5.34 9.29
8/28/2021 2:15:00 PM 24.22 75.596 0.105 7.82 5.09 9.37
8/28/2021 2:30:00 PM 24.3 75.74 0.105 7.85 4.88 9.34
8/28/2021 2:45:00 PM 24.17 75.506 0.104 7.79 5.09 9.16
8/28/2021 3:00:00 PM 24.13 75.434 0.104 7.72 4.82 9.01
8/28/2021 3:15:00 PM 24.1 75.38 0.103 7.66 4.92 8.89
8/28/2021 3:30:00 PM 24.08 75.344 0.103 7.63 4.78 8.84
8/28/2021 3:45:00 PM 24.07 75.326 0.103 7.63 4.84 8.87
8/28/2021 4:00:00 PM 24.04 75.272 0.102 7.63 4.59 8.86
8/28/2021 4:15:00 PM 24.03 75.254 0.102 7.62 4.57 8.86
8/28/2021 4:30:00 PM 24 75.2 0.102 7.62 4.69 8.85
8/28/2021 4:45:00 PM 23.94 75.092 0.102 7.58 4.7 8.74
8/28/2021 5:00:00 PM 23.89 75.002 0.101 7.55 4.53 8.67
8/28/2021 5:15:00 PM 23.88 74.984 0.101 7.54 4.51 8.75
8/28/2021 5:30:00 PM 23.94 75.092 0.101 7.58 4.45 8.89
8/28/2021 5:45:00 PM 23.98 75.164 0.1 7.61 4.67 8.91
8/28/2021 6:00:00 PM 23.96 75.128 0.1 7.61 4.51 8.87
8/28/2021 6:15:00 PM 23.92 75.056 0.1 7.58 4.5 8.8
8/28/2021 6:30:00 PM 23.87 74.966 0.1 7.54 4.47 8.7
8/28/2021 6:45:00 PM 23.85 74.93 0.1 7.51 4.42 8.66
8/28/2021 7:00:00 PM 23.81 74.858 0.1 7.49 4.59 8.58
8/28/2021 7:15:00 PM 23.78 74.804 0.1 7.46 4.61 8.53
8/28/2021 7:30:00 PM 23.75 74.75 0.1 7.44 4.54 8.47
8/28/2021 7:45:00 PM 23.7 74.66 0.1 7.42 4.34 8.42
8/28/2021 8:00:00 PM 23.62 74.516 0.1 7.4 4.29 8.35
8/28/2021 8:15:00 PM 23.54 74.372 0.1 7.38 4.42 8.31
8/28/2021 8:30:00 PM 23.47 74.246 0.1 7.36 4.52 8.28
8/28/2021 8:45:00 PM 23.39 74.102 0.1 7.34 4.56 8.26
8/28/2021 9:00:00 PM 23.33 73.994 0.1 7.32 4.82 8.24
8/28/2021 9:15:00 PM 23.26 73.868 0.1 7.31 4.38 8.23
8/28/2021 9:30:00 PM 23.21 73.778 0.1 7.3 4.47 8.23
8/28/2021 9:45:00 PM 23.15 73.67 0.099 7.29 4.3 8.22
8/28/2021 10:00:00 PM 23.11 73.598 0.099 7.28 4.19 8.23
8/28/2021 10:15:00 PM 23.07 73.526 0.099 7.28 4.38 8.23
8/28/2021 10:30:00 PM 23.03 73.454 0.099 7.27 4.2 8.23
8/28/2021 10:45:00 PM 22.99 73.382 0.099 7.27 4.43 8.24
8/28/2021 11:00:00 PM 22.97 73.346 0.102 7.22 11.4 8.22
8/28/2021 11:15:00 PM 22.96 73.328 0.102 7.24 13.37 8.25
8/28/2021 11:30:00 PM 22.96 73.328 0.1 7.26 11.62 8.28
8/28/2021 11:45:00 PM 22.92 73.256 0.1 7.27 10.45 8.29
8/29/2021 12:00:00 AM 22.88 73.184 0.1 7.28 9.37 8.32
8/29/2021 12:15:00 AM 22.82 73.076 0.1 7.28 8.94 8.34
8/29/2021 12:30:00 AM 22.73 72.914 0.1 7.28 8.64 8.36
8/29/2021 12:45:00 AM 22.65 72.77 0.1 7.28 8.12 8.38
8/29/2021 1:00:00 AM 22.6 72.68 0.1 7.28 8.01 8.39
8/29/2021 1:15:00 AM 22.56 72.608 0.101 7.28 7.73 8.4
8/29/2021 1:30:00 AM 22.52 72.536 0.101 7.28 7.49 8.41
8/29/2021 1:45:00 AM 22.49 72.482 0.101 7.28 7.46 8.41
8/29/2021 2:00:00 AM 22.46 72.42799 0.102 7.28 7.8 8.42
8/29/2021 2:15:00 AM 22.43 72.374 0.102 7.27 7.3 8.42
8/29/2021 2:30:00 AM 22.41 72.338 0.102 7.27 7.14 8.42
8/29/2021 2:45:00 AM 22.39 72.302 0.102 7.26 6.89 8.43
8/29/2021 3:00:00 AM 22.37 72.266 0.102 7.27 6.86 8.43
8/29/2021 3:15:00 AM 22.34 72.212 0.102 7.27 6.64 8.43
8/29/2021 3:30:00 AM 22.32 72.176 0.102 7.26 6.86 8.43
8/29/2021 3:45:00 AM 22.29 72.122 0.102 7.25 6.56 8.43
8/29/2021 4:00:00 AM 22.26 72.068 0.102 7.25 6.44 8.43
8/29/2021 4:15:00 AM 22.23 72.014 0.102 7.25 6.69 8.43
8/29/2021 4:30:00 AM 22.2 71.96 0.101 7.25 6.43 8.44
8/29/2021 4:45:00 AM 22.17 71.906 0.101 7.24 6.39 8.44
8/29/2021 5:00:00 AM 22.15 71.87 0.1 7.24 6.42 8.44
8/29/2021 5:15:00 AM 22.12 71.816 0.1 7.23 6.15 8.45
8/29/2021 5:30:00 AM 22.09 71.762 0.1 7.24 6.12 8.46
8/29/2021 5:45:00 AM 22.06 71.708 0.1 7.23 6.05 8.46
8/29/2021 6:00:00 AM 22.03 71.654 0.1 7.23 5.92 8.47
8/29/2021 6:15:00 AM 22.01 71.618 0.1 7.23 6.05 8.47
8/29/2021 6:30:00 AM 21.98 71.564 0.1 7.22 6.04 8.48
8/29/2021 6:45:00 AM 21.95 71.51 0.101 7.23 5.86 8.49
8/29/2021 7:00:00 AM 21.93 71.474 0.101 7.23 5.9 8.51
8/29/2021 7:15:00 AM 21.92 71.456 0.1 7.24 5.84 8.56
8/29/2021 7:30:00 AM 21.9 71.42 0.1 7.25 5.84 8.59
8/29/2021 7:45:00 AM 21.87 71.366 0.1 7.25 6.03 8.57
8/29/2021 8:00:00 AM 21.86 71.348 0.099 7.25 6.17 8.6
8/29/2021 8:15:00 AM 21.84 71.312 0.098 7.25 6.57 8.65
8/29/2021 8:30:00 AM 21.83 71.294 0.096 7.26 7.39 8.66
8/29/2021 8:45:00 AM 21.84 71.312 0.094 7.28 7.93 8.75
8/29/2021 9:00:00 AM 21.86 71.348 0.092 7.3 8.63 8.86
8/29/2021 9:15:00 AM 21.86 71.348 0.09 7.32 9.87 8.91
8/29/2021 9:30:00 AM 21.86 71.348 0.088 7.32 12.03 8.93
8/29/2021 9:45:00 AM 21.84 71.312 0.084 7.33 13.82 8.93
8/29/2021 10:00:00 AM 21.88 71.384 0.082 7.34 14.54 9.02
8/29/2021 10:15:00 AM 21.86 71.348 0.081 7.35 15.15 9.03
8/29/2021 10:30:00 AM 21.87 71.366 0.079 7.37 14.65 9.08
8/29/2021 10:45:00 AM 21.89 71.402 0.078 7.39 14.74 9.14
8/29/2021 11:00:00 AM 21.9 71.42 0.077 7.41 14.67 9.16
8/29/2021 11:15:00 AM 21.87 71.366 0.077 7.39 14.35 9.11
8/29/2021 11:30:00 AM 21.88 71.384 0.076 7.39 14.72 9.13
8/29/2021 11:45:00 AM 21.87 71.366 0.076 7.39 14.94 9.15
8/29/2021 12:00:00 PM 21.9 71.42 0.076 7.42 15.02 9.21
8/29/2021 12:15:00 PM 21.88 71.384 0.076 7.42 14.9 9.18
8/29/2021 12:30:00 PM 21.96 71.528 0.075 7.44 14.95 9.26
8/29/2021 12:45:00 PM 22.05 71.69 0.075 7.48 14.96 9.33
8/29/2021 1:00:00 PM 22.12 71.816 0.075 7.49 14.56 9.31
8/29/2021 1:15:00 PM 22.11 71.798 0.075 7.47 14.12 9.22
8/29/2021 1:30:00 PM 22.1 71.78 0.075 7.45 13.83 9.16
8/29/2021 1:45:00 PM 22.15 71.87 0.075 7.46 13.35 9.22
8/29/2021 2:00:00 PM 22.16 71.888 0.075 7.47 13.2 9.21
8/29/2021 2:15:00 PM 22.15 71.87 0.075 7.47 13.23 9.17
8/29/2021 2:30:00 PM 22.14 71.852 0.075 7.46 12.54 9.12
8/29/2021 2:45:00 PM 22.19 71.942 0.074 7.48 12.17 9.19
8/29/2021 3:00:00 PM 22.39 72.302 0.074 7.52 12.01 9.27
8/29/2021 3:15:00 PM 22.4 72.32 0.073 7.54 11.4 9.27
8/29/2021 3:30:00 PM 22.49 72.482 0.073 7.55 11.74 9.3
8/29/2021 3:45:00 PM 22.52 72.536 0.071 7.54 11.91 9.25
8/29/2021 4:00:00 PM 22.72 72.896 0.07 7.55 12.77 9.27
8/29/2021 4:15:00 PM 22.81 73.058 0.069 7.55 12.77 9.24
8/29/2021 4:30:00 PM 22.78 73.004 0.068 7.52 12.91 9.15
8/29/2021 4:45:00 PM 22.77 72.986 0.067 7.48 13.09 9.07
8/29/2021 5:00:00 PM 22.76 72.968 0.067 7.42 13.27 8.95
8/29/2021 5:15:00 PM 22.74 72.932 0.066 7.38 12.75 8.88
8/29/2021 5:30:00 PM 22.69 72.842 0.066 7.33 12.75 8.79
8/29/2021 5:45:00 PM 22.64 72.752 0.066 7.29 12.02 8.73
8/29/2021 6:00:00 PM 22.6 72.68 0.066 7.26 11.92 8.68
8/29/2021 6:15:00 PM 22.56 72.608 0.066 7.24 11.5 8.64
8/29/2021 6:30:00 PM 22.5 72.5 0.066 7.21 11.65 8.61
8/29/2021 6:45:00 PM 22.45 72.41 0.067 7.2 12.03 8.59
8/29/2021 7:00:00 PM 22.39 72.302 0.067 7.2 13.67 8.59
8/29/2021 7:15:00 PM 22.28 72.104 0.069 7.18 40.44 8.57
8/29/2021 7:30:00 PM 22.11 71.798 0.073 7.11 44.54 8.54
8/29/2021 7:45:00 PM 21.98 71.564 0.076 7.09 55.91 8.56
8/29/2021 8:00:00 PM 21.88 71.384 0.077 7.09 51.97 8.57
8/29/2021 8:15:00 PM 21.79 71.222 0.077 7.11 47.28 8.57
8/29/2021 8:30:00 PM 21.7 71.06 0.076 7.11 47.25 8.58
8/29/2021 8:45:00 PM 21.59 70.862 0.074 7.11 46.9 8.59
8/29/2021 9:00:00 PM 21.49 70.682 0.072 7.11 46.53 8.6
8/29/2021 9:15:00 PM 21.39 70.502 0.071 7.11 46.71 8.62
8/29/2021 9:30:00 PM 21.3 70.34 0.072 7.12 45.61 8.63
8/29/2021 9:45:00 PM 21.23 70.214 0.073 7.13 46.56 8.64
8/29/2021 10:00:00 PM 21.17 70.106 0.074 7.15 44.75 8.66
8/29/2021 10:15:00 PM 21.12 70.016 0.076 7.15 44.81 8.67
8/29/2021 10:30:00 PM 21.07 69.926 0.077 7.16 45.29 8.68
8/29/2021 10:45:00 PM 21.02 69.836 0.077 7.17 46.96 8.69
8/29/2021 11:00:00 PM 20.98 69.764 0.077 7.17 48.08 8.69
8/29/2021 11:15:00 PM 20.93 69.674 0.077 7.18 51.17 8.71
8/29/2021 11:30:00 PM 20.88 69.584 0.077 7.18 55.58 8.71
8/29/2021 11:45:00 PM 20.84 69.512 0.076 7.18 56.09 8.71
8/30/2021 12:00:00 AM 20.8 69.44 0.075 7.18 57.6 8.72
8/30/2021 12:15:00 AM 20.76 69.368 0.075 7.18 57.96 8.73
8/30/2021 12:30:00 AM 20.73 69.314 0.074 7.18 59.01 8.73
8/30/2021 12:45:00 AM 20.7 69.26 0.074 7.18 57.15 8.74
8/30/2021 1:00:00 AM 20.66 69.188 0.074 7.18 56.86 8.75
8/30/2021 1:15:00 AM 20.63 69.134 0.074 7.18 54.02 8.75
8/30/2021 1:30:00 AM 20.6 69.08 0.074 7.18 53.26 8.76
8/30/2021 1:45:00 AM 20.57 69.026 0.074 7.18 51.88 8.77
8/30/2021 2:00:00 AM 20.54 68.972 0.074 7.18 48.96 8.77
8/30/2021 2:15:00 AM 20.51 68.918 0.074 7.18 48.36 8.78
8/30/2021 2:30:00 AM 20.48 68.864 0.074 7.18 46.63 8.78
8/30/2021 2:45:00 AM 20.45 68.81 0.075 7.18 46.19 8.79
8/30/2021 3:00:00 AM 20.43 68.774 0.075 7.18 43.81 8.8
8/30/2021 3:15:00 AM 20.37 68.666 0.074 7.18 42.32 8.84
8/30/2021 3:30:00 AM 20.33 68.594 0.073 7.17 42.43 8.85
8/30/2021 3:45:00 AM 20.31 68.558 0.073 7.16 42.09 8.84
8/30/2021 4:00:00 AM 20.28 68.504 0.073 7.16 38.94 8.83
8/30/2021 4:15:00 AM 20.26 68.468 0.073 7.15 37.44 8.83
8/30/2021 4:30:00 AM 20.24 68.432 0.074 7.16 36.18 8.83
8/30/2021 4:45:00 AM 20.21 68.378 0.074 7.15 36.02 8.83
8/30/2021 5:00:00 AM 20.18 68.324 0.074 7.16 34.75 8.83
8/30/2021 5:15:00 AM 20.15 68.27 0.074 7.16 34.8 8.84
8/30/2021 5:30:00 AM 20.13 68.234 0.074 7.16 49.6 8.84
8/30/2021 5:45:00 AM 20.1 68.18 0.073 7.15 73.36 8.84
8/30/2021 6:00:00 AM 20.08 68.144 0.073 7.14 74.58 8.84
8/30/2021 6:15:00 AM 20.05 68.09 0.073 7.14 64.74 8.84
8/30/2021 6:30:00 AM 20.02 68.036 0.074 7.14 55.25 8.85
8/30/2021 6:45:00 AM 20 68 0.074 7.14 47.07 8.86
8/30/2021 7:00:00 AM 19.98 67.964 0.074 7.14 40.34 8.88
8/30/2021 7:15:00 AM 19.96 67.92799 0.074 7.14 35.76 8.88
8/30/2021 7:30:00 AM 19.94 67.892 0.074 7.16 34.48 8.9
8/30/2021 7:45:00 AM 19.92 67.856 0.075 7.16 33.67 8.92
8/30/2021 8:00:00 AM 19.91 67.838 0.075 7.15 34.43 8.94
8/30/2021 8:15:00 AM 19.88 67.784 0.075 7.16 33.49 8.96
8/30/2021 8:30:00 AM 19.85 67.73 0.075 7.17 31.77 8.97
8/30/2021 8:45:00 AM 19.82 67.676 0.076 7.17 31.17 8.99
8/30/2021 9:00:00 AM 19.82 67.676 0.076 7.18 29 9.04
8/30/2021 9:15:00 AM 19.8 67.64 0.076 7.18 27.47 9.05
8/30/2021 9:30:00 AM 19.81 67.658 0.076 7.18 26.46 9.09
8/30/2021 9:45:00 AM 19.83 67.694 0.075 7.19 26.27 9.14
8/30/2021 10:00:00 AM 19.81 67.658 0.075 7.18 25.31 9.13
8/30/2021 10:15:00 AM 19.8 67.64 0.074 7.19 25.55 9.14
8/30/2021 10:30:00 AM 19.77 67.586 0.074 7.19 24.95 9.13
8/30/2021 10:45:00 AM 19.77 67.586 0.073 7.18 24.95 9.14
8/30/2021 11:00:00 AM 19.76 67.568 0.072 7.19 26.07 9.17
8/30/2021 11:15:00 AM 19.77 67.586 0.072 7.2 24.82 9.19
8/30/2021 11:30:00 AM 19.84 67.712 0.071 7.21 24.87 9.24
8/30/2021 11:45:00 AM 19.89 67.802 0.071 7.23 25.16 9.27
8/30/2021 12:00:00 PM 19.9 67.82 0.071 7.23 24.34 9.25
8/30/2021 12:15:00 PM 19.93 67.874 0.07 7.24 23.95 9.27
8/30/2021 12:30:00 PM 19.96 67.92799 0.07 7.25 24.07 9.28
8/30/2021 12:45:00 PM 20 68 0.069 7.26 23.29 9.31
8/30/2021 1:00:00 PM 20.05 68.09 0.069 7.27 22.75 9.34
8/30/2021 1:15:00 PM 20.09 68.162 0.068 7.29 22.12 9.35
8/30/2021 1:30:00 PM 20.2 68.36 0.068 7.3 21.51 9.38
8/30/2021 1:45:00 PM 20.27 68.486 0.068 7.32 20.78 9.4
8/30/2021 2:00:00 PM 20.45 68.81 0.069 7.34 19.3 9.44
8/30/2021 2:15:00 PM 20.58 69.044 0.069 7.36 18.81 9.45
8/30/2021 2:30:00 PM 20.74 69.332 0.069 7.37 18.07 9.46
8/30/2021 2:45:00 PM 20.89 69.602 0.069 7.39 17.3 9.47
8/30/2021 3:00:00 PM 20.99 69.782 0.069 7.4 16.62 9.43
8/30/2021 3:15:00 PM 21.15 70.07 0.069 7.42 16.56 9.44
8/30/2021 3:30:00 PM 21.26 70.268 0.069 7.43 16.88 9.43
8/30/2021 3:45:00 PM 21.34 70.412 0.069 7.44 16.95 9.41
8/30/2021 4:00:00 PM 21.43 70.574 0.069 7.45 16.99 9.39
8/30/2021 4:15:00 PM 21.49 70.682 0.069 7.44 16.74 9.35
8/30/2021 4:30:00 PM 21.55 70.79 0.069 7.43 17.09 9.29
8/30/2021 4:45:00 PM 21.59 70.862 0.069 7.43 16.92 9.25
8/30/2021 5:00:00 PM 21.64 70.952 0.069 7.43 17.19 9.22
8/30/2021 5:15:00 PM 21.64 70.952 0.07 7.42 16.86 9.18
8/30/2021 5:30:00 PM 21.59 70.862 0.07 7.4 16.59 9.1
8/30/2021 5:45:00 PM 21.58 70.844 0.071 7.39 16.47 9.08
8/30/2021 6:00:00 PM 21.54 70.772 0.071 7.38 16.01 9.03
8/30/2021 6:15:00 PM 21.5 70.7 0.071 7.36 15.49 8.98
8/30/2021 6:30:00 PM 21.48 70.664 0.072 7.34 14.87 8.94
8/30/2021 6:45:00 PM 21.46 70.628 0.072 7.33 14.82 8.91
8/30/2021 7:00:00 PM 21.43 70.574 0.072 7.31 14.09 8.87
8/30/2021 7:15:00 PM 21.39 70.502 0.073 7.29 13.75 8.83
8/30/2021 7:30:00 PM 21.35 70.43 0.073 7.27 13.42 8.79
8/30/2021 7:45:00 PM 21.32 70.376 0.073 7.26 13.4 8.77
8/30/2021 8:00:00 PM 21.28 70.304 0.073 7.25 12.95 8.74
8/30/2021 8:15:00 PM 21.24 70.232 0.073 7.24 12.6 8.72
8/30/2021 8:30:00 PM 21.19 70.142 0.073 7.23 12.83 8.71
8/30/2021 8:45:00 PM 21.15 70.07 0.073 7.22 12.83 8.71
8/30/2021 9:00:00 PM 21.1 69.98 0.073 7.21 12.84 8.7
8/30/2021 9:15:00 PM 21.06 69.908 0.073 7.21 12.41 8.7
8/30/2021 9:30:00 PM 21.02 69.836 0.073 7.21 12.42 8.7
8/30/2021 9:45:00 PM 20.98 69.764 0.073 7.21 12.5 8.7
8/30/2021 10:00:00 PM 20.93 69.674 0.073 7.2 12.24 8.71
8/30/2021 10:15:00 PM 20.89 69.602 0.073 7.2 12.27 8.71
8/30/2021 10:30:00 PM 20.85 69.53 0.073 7.2 11.98 8.71
8/30/2021 10:45:00 PM 20.8 69.44 0.073 7.19 12.34 8.72
8/30/2021 11:00:00 PM 20.75 69.35 0.073 7.19 11.64 8.73
8/30/2021 11:15:00 PM 20.71 69.278 0.073 7.19 11.7 8.74
8/30/2021 11:30:00 PM 20.66 69.188 0.073 7.19 11.33 8.74
8/30/2021 11:45:00 PM 20.61 69.098 0.073 7.19 10.79 8.75
8/31/2021 12:00:00 AM 20.57 69.026 0.073 7.19 10.77 8.75
8/31/2021 12:15:00 AM 20.52 68.936 0.073 7.19 12.27 8.76
8/31/2021 12:30:00 AM 20.48 68.864 0.073 7.19 10.5 8.77
8/31/2021 12:45:00 AM 20.43 68.774 0.073 7.18 11.05 8.78
8/31/2021 1:00:00 AM 20.39 68.702 0.073 7.19 10.52 8.79
8/31/2021 1:15:00 AM 20.35 68.63 0.073 7.18 10.36 8.8
8/31/2021 1:30:00 AM 20.31 68.558 0.073 7.19 10.12 8.81
8/31/2021 1:45:00 AM 20.27 68.486 0.073 7.18 10.09 8.82
8/31/2021 2:00:00 AM 20.23 68.414 0.073 7.18 9.83 8.83
8/31/2021 2:15:00 AM 20.18 68.324 0.073 7.18 9.71 8.84
8/31/2021 2:30:00 AM 20.14 68.252 0.073 7.18 9.49 8.85
8/31/2021 2:45:00 AM 20.1 68.18 0.073 7.18 9.4 8.86
8/31/2021 3:00:00 AM 20.05 68.09 0.073 7.18 9.36 8.87
8/31/2021 3:15:00 AM 20.01 68.018 0.073 7.18 9.37 8.88
8/31/2021 3:30:00 AM 19.96 67.92799 0.073 7.18 9.1 8.88
8/31/2021 3:45:00 AM 19.92 67.856 0.073 7.18 9.08 8.89
8/31/2021 4:00:00 AM 19.87 67.766 0.073 7.18 8.82 8.9
8/31/2021 4:15:00 AM 19.82 67.676 0.074 7.18 8.68 8.91
8/31/2021 4:30:00 AM 19.77 67.586 0.074 7.18 8.85 8.92
8/31/2021 4:45:00 AM 19.72 67.496 0.074 7.18 8.73 8.93
8/31/2021 5:00:00 AM 19.67 67.406 0.074 7.18 8.38 8.94
8/31/2021 5:15:00 AM 19.62 67.316 0.074 7.17 8.48 8.95
8/31/2021 5:30:00 AM 19.56 67.208 0.074 7.18 8.5 8.96
8/31/2021 5:45:00 AM 19.52 67.136 0.074 7.18 8.51 8.97
8/31/2021 6:00:00 AM 19.47 67.046 0.074 7.18 8.2 8.98
8/31/2021 6:15:00 AM 19.42 66.956 0.074 7.17 8.35 8.99
8/31/2021 6:30:00 AM 19.38 66.884 0.074 7.18 8.75 9
8/31/2021 6:45:00 AM 19.33 66.794 0.074 7.18 8.24 9.01
8/31/2021 7:00:00 AM 19.28 66.704 0.074 7.18 8.12 9.03
8/31/2021 7:15:00 AM 19.24 66.632 0.074 7.18 8.18 9.05
8/31/2021 7:30:00 AM 19.2 66.56 0.074 7.18 7.9 9.07
8/31/2021 7:45:00 AM 19.16 66.488 0.074 7.2 7.67 9.11
8/31/2021 8:00:00 AM 19.12 66.416 0.074 7.2 7.56 9.14
8/31/2021 8:15:00 AM 19.1 66.38 0.074 7.2 7.53 9.19
8/31/2021 8:30:00 AM 19.07 66.326 0.074 7.21 7.35 9.23
8/31/2021 8:45:00 AM 19.05 66.29 0.074 7.22 7.19 9.28
8/31/2021 9:00:00 AM 19.04 66.272 0.074 7.24 7.21 9.34
8/31/2021 9:15:00 AM 19.03 66.254 0.074 7.26 6.82 9.4
8/31/2021 9:30:00 AM 19.03 66.254 0.073 7.27 6.77 9.46
8/31/2021 9:45:00 AM 19.05 66.29 0.073 7.3 6.85 9.53
8/31/2021 10:00:00 AM 19.09 66.362 0.073 7.32 6.67 9.61
8/31/2021 10:15:00 AM 19.11 66.398 0.073 7.34 6.66 9.65
8/31/2021 10:30:00 AM 19.14 66.452 0.073 7.37 6.48 9.71
8/31/2021 10:45:00 AM 19.18 66.524 0.073 7.4 6.39 9.76
8/31/2021 11:00:00 AM 19.24 66.632 0.073 7.43 6.3 9.81
8/31/2021 11:15:00 AM 19.28 66.704 0.072 7.45 6.14 9.83
8/31/2021 11:30:00 AM 19.33 66.794 0.072 7.46 6.29 9.83
8/31/2021 11:45:00 AM 19.39 66.902 0.072 7.47 5.92 9.83
8/31/2021 12:00:00 PM 19.45 67.01 0.072 7.49 5.82 9.84
8/31/2021 12:15:00 PM 19.53 67.154 0.072 7.51 5.71 9.85
8/31/2021 12:30:00 PM 19.63 67.334 0.072 7.52 5.8 9.85
8/31/2021 12:45:00 PM 19.74 67.532 0.072 7.53 5.64 9.83
8/31/2021 1:00:00 PM 19.88 67.784 0.072 7.55 5.6 9.84
8/31/2021 1:15:00 PM 20.04 68.07201 0.072 7.57 5.6 9.85
8/31/2021 1:30:00 PM 20.2 68.36 0.072 7.6 5.62 9.84
8/31/2021 1:45:00 PM 20.33 68.594 0.072 7.61 5.41 9.82
8/31/2021 2:00:00 PM 20.48 68.864 0.072 7.62 5.26 9.79
8/31/2021 2:15:00 PM 20.55 68.99 0.072 7.62 5.3 9.74
8/31/2021 2:30:00 PM 20.66 69.188 0.072 7.62 5.37 9.72
8/31/2021 2:45:00 PM 20.73 69.314 0.072 7.63 5.37 9.7
8/31/2021 3:00:00 PM 20.87 69.566 0.071 7.64 5.34 9.67
8/31/2021 3:15:00 PM 20.97 69.746 0.071 7.63 5.28 9.63
8/31/2021 3:30:00 PM 21.08 69.944 0.071 7.63 5.22 9.61
8/31/2021 3:45:00 PM 21.21 70.17799 0.071 7.64 5.05 9.62
8/31/2021 4:00:00 PM 21.29 70.32201 0.071 7.66 5.21 9.6
8/31/2021 4:15:00 PM 21.3 70.34 0.071 7.64 5.1 9.53
8/31/2021 4:30:00 PM 21.37 70.466 0.071 7.63 5.05 9.5
8/31/2021 4:45:00 PM 21.39 70.502 0.071 7.62 5.1 9.44
8/31/2021 5:00:00 PM 21.44 70.592 0.071 7.62 5.17 9.43
8/31/2021 5:15:00 PM 21.47 70.646 0.071 7.61 4.98 9.41
8/31/2021 5:30:00 PM 21.45 70.61 0.071 7.59 4.95 9.37
8/31/2021 5:45:00 PM 21.42 70.556 0.071 7.57 28.57 9.33
8/31/2021 6:00:00 PM 21.37 70.466 0.071 7.54 5.15 9.26
8/31/2021 6:15:00 PM 21.35 70.43 0.071 7.51 4.93 9.2
8/31/2021 6:30:00 PM 21.31 70.358 0.071 7.48 4.9 9.14
8/31/2021 6:45:00 PM 21.27 70.286 0.071 7.45 5.07 9.1
8/31/2021 7:00:00 PM 21.23 70.214 0.071 7.42 4.92 9.04
8/31/2021 7:15:00 PM 21.17 70.106 0.071 7.39 4.88 8.97
8/31/2021 7:30:00 PM 21.11 69.998 0.072 7.36 5.05 8.9
8/31/2021 7:45:00 PM 21.03 69.854 0.072 7.34 5.02 8.86
8/31/2021 8:00:00 PM 20.96 69.728 0.072 7.32 4.92 8.83
8/31/2021 8:15:00 PM 20.88 69.584 0.072 7.3 4.94 8.81
8/31/2021 8:30:00 PM 20.81 69.458 0.072 7.28 5.18 8.79
8/31/2021 8:45:00 PM 20.73 69.314 0.072 7.27 5.16 8.78
8/31/2021 9:00:00 PM 20.66 69.188 0.072 7.26 5.03 8.78
8/31/2021 9:15:00 PM 20.59 69.062 0.072 7.25 5.39 8.78
8/31/2021 9:30:00 PM 20.53 68.954 0.072 7.23 5.2 8.78
8/31/2021 9:45:00 PM 20.48 68.864 0.072 7.23 5.22 8.78
8/31/2021 10:00:00 PM 20.43 68.774 0.072 7.22 5.2 8.78
8/31/2021 10:15:00 PM 20.39 68.702 0.072 7.22 5.12 8.78
8/31/2021 10:30:00 PM 20.36 68.648 0.072 7.21 5.04 8.79
8/31/2021 10:45:00 PM 20.32 68.576 0.072 7.2 5.11 8.79
8/31/2021 11:00:00 PM 20.28 68.504 0.072 7.2 5.21 8.79
8/31/2021 11:15:00 PM 20.25 68.45 0.072 7.19 20.74 8.79
8/31/2021 11:30:00 PM 20.21 68.378 0.072 7.19 5.07 8.8
8/31/2021 11:45:00 PM 20.18 68.324 0.072 7.19 5.13 8.8
9/1/2021 12:00:00 AM 20.15 68.27 0.072 7.18 5.14 8.81
9/1/2021 12:15:00 AM 20.11 68.198 0.072 7.18 5.1 8.81
9/1/2021 12:30:00 AM 20.08 68.144 0.073 7.18 5.03 8.82
9/1/2021 12:45:00 AM 20.04 68.07201 0.073 7.18 5.09 8.82
9/1/2021 1:00:00 AM 20.01 68.018 0.073 7.17 4.95 8.83
9/1/2021 1:15:00 AM 19.97 67.946 0.073 7.17 4.86 8.83
9/1/2021 1:30:00 AM 19.93 67.874 0.073 7.17 5.01 8.85
9/1/2021 1:45:00 AM 19.89 67.802 0.073 7.16 4.94 8.85
9/1/2021 2:00:00 AM 19.85 67.73 0.073 7.16 5.02 8.86
9/1/2021 2:15:00 AM 19.81 67.658 0.073 7.16 4.95 8.87
9/1/2021 2:30:00 AM 19.78 67.604 0.073 7.16 4.98 8.87
9/1/2021 2:45:00 AM 19.74 67.532 0.073 7.16 4.94 8.87
9/1/2021 3:00:00 AM 19.7 67.46 0.073 7.15 4.89 8.88
9/1/2021 3:15:00 AM 19.67 67.406 0.073 7.16 4.88 8.89
9/1/2021 3:30:00 AM 19.64 67.352 0.073 7.15 5.04 8.9
9/1/2021 3:45:00 AM 19.61 67.298 0.073 7.15 4.95 8.9
9/1/2021 4:00:00 AM 19.58 67.244 0.073 7.16 4.87 8.91
9/1/2021 4:15:00 AM 19.55 67.19 0.073 7.15 4.72 8.91
9/1/2021 4:30:00 AM 19.52 67.136 0.073 7.15 4.72 8.92
9/1/2021 4:45:00 AM 19.48 67.064 0.073 7.16 4.7 8.93
9/1/2021 5:00:00 AM 19.45 67.01 0.073 7.15 4.85 8.94
9/1/2021 5:15:00 AM 19.42 66.956 0.073 7.15 5.03 8.95
9/1/2021 5:30:00 AM 19.38 66.884 0.073 7.15 5.02 8.95
9/1/2021 5:45:00 AM 19.34 66.812 0.073 7.15 5.03 8.96
9/1/2021 6:00:00 AM 19.3 66.74 0.073 7.15 5.07 8.97
9/1/2021 6:15:00 AM 19.26 66.668 0.073 7.15 4.98 8.97
9/1/2021 6:30:00 AM 19.23 66.614 0.073 7.15 5.26 8.98
9/1/2021 6:45:00 AM 19.19 66.542 0.072 7.15 5.07 8.98
9/1/2021 7:00:00 AM 19.15 66.47 0.073 7.16 5.12 8.99
9/1/2021 7:15:00 AM 19.11 66.398 0.072 7.16 5.21 9.01
9/1/2021 7:30:00 AM 19.07 66.326 0.072 7.17 4.98 9.03
9/1/2021 7:45:00 AM 19.03 66.254 0.072 7.17 4.95 9.06
9/1/2021 8:00:00 AM 18.99 66.182 0.072 7.18 4.98 9.09
9/1/2021 8:15:00 AM 18.96 66.128 0.072 7.18 4.83 9.13
9/1/2021 8:30:00 AM 18.93 66.074 0.072 7.19 4.72 9.17
9/1/2021 8:45:00 AM 18.9 66.02 0.072 7.2 4.75 9.21
9/1/2021 9:00:00 AM 18.87 65.966 0.072 7.22 4.88 9.25
9/1/2021 9:15:00 AM 18.84 65.912 0.072 7.22 4.75 9.27
9/1/2021 9:30:00 AM 18.82 65.876 0.072 7.23 5.15 9.31
9/1/2021 9:45:00 AM 18.81 65.858 0.072 7.25 5.3 9.36
9/1/2021 10:00:00 AM 18.8 65.84 0.072 7.26 5.42 9.42
9/1/2021 10:15:00 AM 18.8 65.84 0.072 7.28 5.44 9.49
9/1/2021 10:30:00 AM 18.79 65.82201 0.072 7.3 5.29 9.52
9/1/2021 10:45:00 AM 18.79 65.82201 0.072 7.31 5.31 9.56
9/1/2021 11:00:00 AM 18.79 65.82201 0.072 7.32 5.14 9.6
9/1/2021 11:15:00 AM 18.77 65.786 0.072 7.32 5.25 9.58
9/1/2021 11:30:00 AM 18.77 65.786 0.072 7.33 5.43 9.59
9/1/2021 11:45:00 AM 18.76 65.768 0.072 7.33 5.26 9.61
9/1/2021 12:00:00 PM 18.76 65.768 0.072 7.35 5.33 9.65
9/1/2021 12:15:00 PM 18.77 65.786 0.072 7.37 4.8 9.7
9/1/2021 12:30:00 PM 18.76 65.768 0.072 7.38 4.95 9.69
9/1/2021 12:45:00 PM 18.74 65.732 0.071 7.37 4.82 9.65
9/1/2021 1:00:00 PM 18.71 65.67799 0.071 7.36 4.93 9.59
9/1/2021 1:15:00 PM 18.69 65.642 0.071 7.35 5.03 9.55
9/1/2021 1:30:00 PM 18.68 65.624 0.071 7.34 5.15 9.56
9/1/2021 1:45:00 PM 18.66 65.588 0.071 7.35 5.24 9.58
9/1/2021 2:00:00 PM 18.64 65.552 0.071 7.36 4.76 9.61
9/1/2021 2:15:00 PM 18.61 65.498 0.071 7.36 4.98 9.62
9/1/2021 2:30:00 PM 18.59 65.462 0.071 7.37 5.01 9.63
9/1/2021 2:45:00 PM 18.57 65.426 0.071 7.37 4.99 9.63
9/1/2021 3:00:00 PM 18.55 65.39 0.07 7.38 5.04 9.65
9/1/2021 3:15:00 PM 18.53 65.354 0.07 7.38 4.97 9.64
9/1/2021 3:30:00 PM 18.52 65.336 0.07 7.38 4.83 9.63
9/1/2021 3:45:00 PM 18.5 65.3 0.07 7.37 5.01 9.61
9/1/2021 4:00:00 PM 18.47 65.246 0.07 7.35 5.08 9.56
9/1/2021 4:15:00 PM 18.46 65.228 0.07 7.34 4.75 9.56
9/1/2021 4:30:00 PM 18.44 65.192 0.07 7.35 5.2 9.58
9/1/2021 4:45:00 PM 18.42 65.156 0.07 7.34 5.49 9.56
9/1/2021 5:00:00 PM 18.41 65.138 0.07 7.34 5.62 9.56
9/1/2021 5:15:00 PM 18.39 65.102 0.07 7.34 5.7 9.56
9/1/2021 5:30:00 PM 18.38 65.084 0.07 7.34 5.99 9.57
9/1/2021 5:45:00 PM 18.37 65.066 0.07 7.35 6.5 9.59
9/1/2021 6:00:00 PM 18.34 65.012 0.07 7.34 7.03 9.55
9/1/2021 6:15:00 PM 18.31 64.958 0.07 7.33 7.36 9.53
9/1/2021 6:30:00 PM 18.28 64.904 0.07 7.32 7.54 9.5
9/1/2021 6:45:00 PM 18.25 64.85 0.07 7.31 7 9.47
9/1/2021 7:00:00 PM 18.22 64.796 0.07 7.3 6.34 9.48
9/1/2021 7:15:00 PM 18.2 64.76 0.07 7.3 6.4 9.49
9/1/2021 7:30:00 PM 18.16 64.688 0.07 7.29 6.36 9.46
9/1/2021 7:45:00 PM 18.12 64.616 0.07 7.29 6.54 9.44
9/1/2021 8:00:00 PM 18.09 64.562 0.07 7.28 5.93 9.42
9/1/2021 8:15:00 PM 18.04 64.472 0.07 7.27 5.72 9.4
9/1/2021 8:30:00 PM 18 64.4 0.07 7.25 6.22 9.39
9/1/2021 8:45:00 PM 17.94 64.292 0.07 7.24 6.29 9.38
9/1/2021 9:00:00 PM 17.88 64.184 0.07 7.24 6.03 9.37
9/1/2021 9:15:00 PM 17.82 64.076 0.07 7.23 6.25 9.37
9/1/2021 9:30:00 PM 17.76 63.968 0.07 7.22 6.46 9.38
9/1/2021 9:45:00 PM 17.7 63.86 0.07 7.22 6.11 9.38
9/1/2021 10:00:00 PM 17.63 63.734 0.07 7.21 6.18 9.39
9/1/2021 10:15:00 PM 17.56 63.608 0.071 7.21 5.98 9.39
9/1/2021 10:30:00 PM 17.5 63.5 0.071 7.21 5.97 9.4
9/1/2021 10:45:00 PM 17.43 63.374 0.071 7.2 5.78 9.42
9/1/2021 11:00:00 PM 17.36 63.248 0.071 7.2 5.52 9.43
9/1/2021 11:15:00 PM 17.3 63.14 0.071 7.2 5.65 9.44
9/1/2021 11:30:00 PM 17.23 63.014 0.071 7.19 5.54 9.45
9/1/2021 11:45:00 PM 17.16 62.888 0.071 7.19 5.5 9.46
9/2/2021 12:00:00 AM 17.09 62.762 0.071 7.19 5.49 9.48
9/2/2021 12:15:00 AM 17.02 62.636 0.071 7.19 5.52 9.49
9/2/2021 12:30:00 AM 16.96 62.528 0.071 7.19 5.45 9.51
9/2/2021 12:45:00 AM 16.89 62.402 0.072 7.19 5.46 9.52
9/2/2021 1:00:00 AM 16.82 62.276 0.072 7.19 5.65 9.54
9/2/2021 1:15:00 AM 16.75 62.15 0.072 7.19 5.43 9.55
9/2/2021 1:30:00 AM 16.68 62.024 0.072 7.19 5.6 9.57
9/2/2021 1:45:00 AM 16.62 61.916 0.072 7.19 5.49 9.59
9/2/2021 2:00:00 AM 16.56 61.808 0.072 7.19 5.59 9.6
9/2/2021 2:15:00 AM 16.49 61.682 0.072 7.19 5.24 9.62
9/2/2021 2:30:00 AM 16.43 61.574 0.072 7.19 5.42 9.63
9/2/2021 2:45:00 AM 16.38 61.484 0.073 7.19 5.34 9.64
9/2/2021 3:00:00 AM 16.32 61.376 0.073 7.19 5.19 9.65
9/2/2021 3:15:00 AM 16.26 61.268 0.073 7.19 5.18 9.67
9/2/2021 3:30:00 AM 16.21 61.178 0.073 7.19 5.25 9.68
9/2/2021 3:45:00 AM 16.15 61.07 0.073 7.19 5.17 9.7
9/2/2021 4:00:00 AM 16.09 60.962 0.073 7.19 5.15 9.72
9/2/2021 4:15:00 AM 16.03 60.854 0.073 7.19 5.19 9.73
9/2/2021 4:30:00 AM 15.98 60.764 0.073 7.19 5.1 9.75
9/2/2021 4:45:00 AM 15.92 60.656 0.074 7.19 5.02 9.76
9/2/2021 5:00:00 AM 15.87 60.566 0.074 7.19 5.11 9.78
9/2/2021 5:15:00 AM 15.81 60.458 0.074 7.19 5.33 9.79
9/2/2021 5:30:00 AM 15.76 60.368 0.074 7.19 5.06 9.81
9/2/2021 5:45:00 AM 15.71 60.278 0.074 7.19 5.22 9.82
9/2/2021 6:00:00 AM 15.66 60.188 0.075 7.19 5.08 9.83
9/2/2021 6:15:00 AM 15.61 60.098 0.075 7.2 5.23 9.85
9/2/2021 6:30:00 AM 15.55 59.99 0.075 7.2 5.29 9.86
9/2/2021 6:45:00 AM 15.49 59.882 0.075 7.2 5.12 9.88
9/2/2021 7:00:00 AM 15.44 59.792 0.075 7.2 5.14 9.9
9/2/2021 7:15:00 AM 15.39 59.702 0.075 7.21 5.07 9.93
9/2/2021 7:30:00 AM 15.34 59.612 0.075 7.21 4.94 9.98
9/2/2021 7:45:00 AM 15.3 59.54 0.076 7.22 5 10.03
9/2/2021 8:00:00 AM 15.26 59.468 0.076 7.23 4.89 10.08
9/2/2021 8:15:00 AM 15.22 59.396 0.076 7.25 5.02 10.15
9/2/2021 8:30:00 AM 15.2 59.36 0.076 7.26 4.96 10.23
9/2/2021 8:45:00 AM 15.19 59.342 0.076 7.28 4.76 10.3
9/2/2021 9:00:00 AM 15.18 59.324 0.076 7.3 4.62 10.35
9/2/2021 9:15:00 AM 15.16 59.288 0.076 7.31 4.51 10.36
9/2/2021 9:30:00 AM 15.14 59.252 0.076 7.31 4.52 10.36
9/2/2021 9:45:00 AM 15.14 59.252 0.076 7.31 4.59 10.36
9/2/2021 10:00:00 AM 15.17 59.306 0.077 7.32 4.35 10.38
9/2/2021 10:15:00 AM 15.22 59.396 0.077 7.33 4.4 10.39